PWSweather.com
Personal Weather Stations
Station Observations
DL5ARK
SonnebergDE

SonnebergDE

Lat: 50.34904861, Lon: 11.18112087

Elevation: 1214

Station Type: Selfmade

http://www.sumbarg.de

High Low Average
Temperature 72.8°F22.7°C 44.2°F6.8°C 58.6°F14.8°C
Dew Point 57.0°F13.9°C 48.1°F8.9°C 53.6°F12.0°C
Winds 20.3 mph 32.7 kmh Calm Calm 3.0 mph SW4.8 kmh SW
Wind Gusts 20.3 mph32.7 kmh -- 3.0 mph4.8 kmh
Humidity 84% 38% 62%
Pressure 30.26 in1024.7 mb 30.02 in1016.6 mb -
Precipitation 0.10 in2.5 mm - -
Hour Temp Dew Point Humidity Winds Wind Gusts Pressure Precip Precip Rate Daily Precip Total
12:00 AM 54.2°F12.3°C 56.3°F13.5°C 73% 3.1 mph SW5.0 kmh SW 3.1 mph5.0 kmh 30.04 in1017.3 mb 0.00 in0.0 mm 0.00 in0.0 mm 0.02 in0.5 mm
12:02 AM 53.8°F12.1°C 56.6°F13.7°C 74% 0.4 mph NNW0.6 kmh NNW 0.4 mph0.6 kmh 30.04 in1017.3 mb 0.00 in0.0 mm 0.00 in0.0 mm 0.02 in0.5 mm
12:03 AM 53.9°F12.2°C 56.7°F13.7°C 74% 3.2 mph W5.1 kmh W 3.3 mph5.3 kmh 30.04 in1017.3 mb 0.00 in0.0 mm 0.00 in0.0 mm 0.02 in0.5 mm
12:08 AM 53.8°F12.1°C 56.3°F13.5°C 75% 2.4 mph W3.9 kmh W 2.4 mph3.9 kmh 30.05 in1017.6 mb 0.00 in0.0 mm 0.00 in0.0 mm 0.02 in0.5 mm
12:09 AM 53.8°F12.1°C 56.5°F13.6°C 74% 2.1 mph W3.4 kmh W 2.1 mph3.4 kmh 30.05 in1017.6 mb 0.00 in0.0 mm 0.00 in0.0 mm 0.02 in0.5 mm
12:11 AM 53.7°F12.1°C 56.6°F13.7°C 75% 1.6 mph SW2.6 kmh SW 1.6 mph2.6 kmh 30.05 in1017.6 mb 0.00 in0.0 mm 0.00 in0.0 mm 0.04 in1.0 mm
12:12 AM 53.7°F12.1°C 56.4°F13.6°C 75% 1.6 mph SW2.6 kmh SW 1.6 mph2.6 kmh 30.05 in1017.6 mb 0.00 in0.0 mm 0.00 in0.0 mm 0.04 in1.0 mm
12:14 AM 53.6°F12.0°C 56.5°F13.6°C 75% 2.4 mph NNW3.9 kmh NNW 2.4 mph3.9 kmh 30.05 in1017.6 mb 0.00 in0.0 mm 0.00 in0.0 mm 0.04 in1.0 mm
12:15 AM 53.6°F12.0°C 56.4°F13.6°C 75% 3.2 mph WNW5.1 kmh WNW 3.2 mph5.1 kmh 30.05 in1017.6 mb 0.00 in0.0 mm 0.00 in0.0 mm 0.04 in1.0 mm
12:17 AM 53.4°F11.9°C 56.3°F13.5°C 75% 2.8 mph NW4.5 kmh NW 2.8 mph4.5 kmh 30.04 in1017.3 mb 0.00 in0.0 mm 0.00 in0.0 mm 0.04 in1.0 mm
12:18 AM 53.4°F11.9°C 56.4°F13.6°C 75% 2.3 mph NNW3.7 kmh NNW 2.4 mph3.9 kmh 30.03 in1016.9 mb 0.00 in0.0 mm 0.00 in0.0 mm 0.04 in1.0 mm
12:20 AM 53.4°F11.9°C 56.3°F13.5°C 75% 2.0 mph NW3.2 kmh NW 2.0 mph3.2 kmh 30.04 in1017.3 mb 0.00 in0.0 mm 0.00 in0.0 mm 0.06 in1.5 mm
12:21 AM 53.4°F11.9°C 56.4°F13.6°C 75% 1.9 mph NW3.1 kmh NW 2.0 mph3.2 kmh 30.04 in1017.3 mb 0.00 in0.0 mm 0.00 in0.0 mm 0.06 in1.5 mm
12:23 AM 53.3°F11.8°C 56.2°F13.4°C 75% 2.0 mph WSW3.2 kmh WSW 2.0 mph3.2 kmh 30.04 in1017.3 mb 0.00 in0.0 mm 0.00 in0.0 mm 0.06 in1.5 mm
12:24 AM 53.3°F11.8°C 56.4°F13.6°C 75% 2.7 mph WSW4.3 kmh WSW 2.7 mph4.3 kmh 30.04 in1017.3 mb 0.00 in0.0 mm 0.00 in0.0 mm 0.06 in1.5 mm
12:26 AM 53.2°F11.8°C 56.1°F13.4°C 75% 1.2 mph WSW1.9 kmh WSW 1.2 mph1.9 kmh 30.04 in1017.3 mb 0.00 in0.0 mm 0.00 in0.0 mm 0.06 in1.5 mm
12:27 AM 53.3°F11.8°C 56.2°F13.4°C 75% 2.3 mph WSW3.7 kmh WSW 2.3 mph3.7 kmh 30.04 in1017.3 mb 0.00 in0.0 mm 0.00 in0.0 mm 0.06 in1.5 mm
12:29 AM 53.2°F11.8°C 56.0°F13.3°C 75% Calm Calm -- 30.04 in1017.3 mb 0.00 in0.0 mm 0.00 in0.0 mm 0.06 in1.5 mm
12:30 AM 53.3°F11.8°C 56.2°F13.4°C 75% Calm Calm -- 30.03 in1016.9 mb 0.00 in0.0 mm 0.00 in0.0 mm 0.06 in1.5 mm
12:32 AM 53.3°F11.8°C 56.1°F13.4°C 76% 0.4 mph WSW0.6 kmh WSW 0.4 mph0.6 kmh 30.03 in1016.9 mb 0.00 in0.0 mm 0.00 in0.0 mm 0.06 in1.5 mm
12:33 AM 53.3°F11.8°C 56.0°F13.3°C 75% Calm Calm -- 30.03 in1016.9 mb 0.00 in0.0 mm 0.00 in0.0 mm 0.06 in1.5 mm
12:35 AM 53.2°F11.8°C 56.3°F13.5°C 76% 0.8 mph WSW1.3 kmh WSW 0.8 mph1.3 kmh 30.03 in1016.9 mb 0.00 in0.0 mm 0.00 in0.0 mm 0.06 in1.5 mm
12:36 AM 53.0°F11.7°C 56.1°F13.4°C 76% 1.6 mph S2.6 kmh S 1.6 mph2.6 kmh 30.03 in1016.9 mb 0.00 in0.0 mm 0.00 in0.0 mm 0.06 in1.5 mm
12:38 AM 53.0°F11.7°C 56.0°F13.3°C 76% 1.2 mph SW1.9 kmh SW 1.2 mph1.9 kmh 30.02 in1016.6 mb 0.00 in0.0 mm 0.00 in0.0 mm 0.06 in1.5 mm
12:39 AM 53.0°F11.7°C 56.4°F13.6°C 76% 1.2 mph SW1.9 kmh SW 1.4 mph2.3 kmh 30.03 in1016.9 mb 0.00 in0.0 mm 0.00 in0.0 mm 0.06 in1.5 mm
12:41 AM 53.0°F11.7°C 56.2°F13.4°C 76% Calm Calm -- 30.03 in1016.9 mb 0.00 in0.0 mm 0.00 in0.0 mm 0.08 in2.0 mm
12:42 AM 53.2°F11.8°C 55.8°F13.2°C 75% Calm Calm -- 30.02 in1016.6 mb 0.00 in0.0 mm 0.00 in0.0 mm 0.08 in2.0 mm
12:47 AM 53.0°F11.7°C 56.2°F13.4°C 76% Calm Calm -- 30.03 in1016.9 mb 0.00 in0.0 mm 0.00 in0.0 mm 0.08 in2.0 mm
12:48 AM 53.0°F11.7°C 56.0°F13.3°C 76% Calm Calm -- 30.03 in1016.9 mb 0.00 in0.0 mm 0.00 in0.0 mm 0.08 in2.0 mm
12:50 AM 52.9°F11.6°C 56.3°F13.5°C 76% Calm Calm -- 30.03 in1016.9 mb 0.00 in0.0 mm 0.00 in0.0 mm 0.08 in2.0 mm
12:51 AM 52.7°F11.5°C 56.2°F13.4°C 76% Calm Calm -- 30.03 in1016.9 mb 0.00 in0.0 mm 0.00 in0.0 mm 0.08 in2.0 mm
12:53 AM 52.7°F11.5°C 56.1°F13.4°C 76% 1.6 mph WSW2.6 kmh WSW 1.6 mph2.6 kmh 30.03 in1016.9 mb 0.00 in0.0 mm 0.00 in0.0 mm 0.08 in2.0 mm
12:54 AM 52.8°F11.6°C 56.0°F13.3°C 76% 2.0 mph WSW3.2 kmh WSW 2.1 mph3.4 kmh 30.03 in1016.9 mb 0.00 in0.0 mm 0.00 in0.0 mm 0.08 in2.0 mm
12:56 AM 52.9°F11.6°C 55.9°F13.3°C 76% 2.4 mph WSW3.9 kmh WSW 2.4 mph3.9 kmh 30.03 in1016.9 mb 0.00 in0.0 mm 0.00 in0.0 mm 0.08 in2.0 mm
12:57 AM 52.8°F11.6°C 56.0°F13.3°C 77% 2.3 mph WSW3.7 kmh WSW 2.4 mph3.9 kmh 30.03 in1016.9 mb 0.00 in0.0 mm 0.00 in0.0 mm 0.08 in2.0 mm
12:59 AM 52.8°F11.6°C 56.0°F13.3°C 77% 2.0 mph SW3.2 kmh SW 2.0 mph3.2 kmh 30.04 in1017.3 mb 0.00 in0.0 mm 0.00 in0.0 mm 0.10 in2.5 mm
01:02 AM 52.8°F11.6°C 55.7°F13.2°C 77% 4.0 mph WSW6.4 kmh WSW 4.1 mph6.6 kmh 30.05 in1017.6 mb 0.00 in0.0 mm 0.00 in0.0 mm 0.10 in2.5 mm
01:03 AM 52.8°F11.6°C 56.0°F13.3°C 77% 4.2 mph WSW6.8 kmh WSW 4.3 mph6.9 kmh 30.04 in1017.3 mb 0.00 in0.0 mm 0.00 in0.0 mm 0.10 in2.5 mm
01:05 AM 52.9°F11.6°C 55.8°F13.2°C 77% 1.2 mph WSW1.9 kmh WSW 1.2 mph1.9 kmh 30.04 in1017.3 mb 0.00 in0.0 mm 0.00 in0.0 mm 0.10 in2.5 mm
01:06 AM 52.9°F11.6°C 55.8°F13.2°C 77% 0.9 mph WSW1.4 kmh WSW 1.0 mph1.6 kmh 30.04 in1017.3 mb 0.00 in0.0 mm 0.00 in0.0 mm 0.10 in2.5 mm
01:08 AM 52.8°F11.6°C 56.0°F13.3°C 78% Calm Calm -- 30.04 in1017.3 mb 0.00 in0.0 mm 0.00 in0.0 mm 0.10 in2.5 mm
01:09 AM 52.8°F11.6°C 55.8°F13.2°C 77% Calm Calm -- 30.04 in1017.3 mb 0.00 in0.0 mm 0.00 in0.0 mm 0.10 in2.5 mm
01:11 AM 53.0°F11.7°C 55.9°F13.3°C 78% 0.4 mph W0.6 kmh W 0.4 mph0.6 kmh 30.04 in1017.3 mb 0.00 in0.0 mm 0.00 in0.0 mm 0.10 in2.5 mm
01:12 AM 52.7°F11.5°C 55.9°F13.3°C 78% 0.5 mph W0.8 kmh W 0.5 mph0.8 kmh 30.04 in1017.3 mb 0.00 in0.0 mm 0.00 in0.0 mm 0.10 in2.5 mm
01:14 AM 53.0°F11.7°C 55.9°F13.3°C 78% 3.6 mph SW5.8 kmh SW 3.6 mph5.8 kmh 30.05 in1017.6 mb 0.00 in0.0 mm 0.00 in0.0 mm 0.10 in2.5 mm
01:15 AM 52.8°F11.6°C 56.0°F13.3°C 78% 3.0 mph WSW4.8 kmh WSW 3.0 mph4.8 kmh 30.05 in1017.6 mb 0.00 in0.0 mm 0.00 in0.0 mm 0.10 in2.5 mm
01:17 AM 53.0°F11.7°C 56.2°F13.4°C 78% 0.4 mph SW0.6 kmh SW 0.4 mph0.6 kmh 30.05 in1017.6 mb 0.00 in0.0 mm 0.00 in0.0 mm 0.10 in2.5 mm
01:18 AM 52.7°F11.5°C 56.1°F13.4°C 78% Calm Calm -- 30.05 in1017.6 mb 0.00 in0.0 mm 0.00 in0.0 mm 0.10 in2.5 mm
01:20 AM 52.9°F11.6°C 56.2°F13.4°C 79% Calm Calm -- 30.05 in1017.6 mb 0.00 in0.0 mm 0.00 in0.0 mm 0.10 in2.5 mm
01:21 AM 52.6°F11.4°C 55.9°F13.3°C 77% Calm Calm -- 30.05 in1017.6 mb 0.00 in0.0 mm 0.00 in0.0 mm 0.10 in2.5 mm
01:23 AM 52.9°F11.6°C 56.3°F13.5°C 78% 1.2 mph NNW1.9 kmh NNW 1.2 mph1.9 kmh 30.05 in1017.6 mb 0.00 in0.0 mm 0.00 in0.0 mm 0.10 in2.5 mm
01:24 AM 52.6°F11.4°C 56.0°F13.3°C 78% 0.7 mph WNW1.1 kmh WNW 0.8 mph1.3 kmh 30.05 in1017.6 mb 0.00 in0.0 mm 0.00 in0.0 mm 0.10 in2.5 mm
01:26 AM 52.8°F11.6°C 55.9°F13.3°C 78% Calm Calm -- 30.05 in1017.6 mb 0.00 in0.0 mm 0.00 in0.0 mm 0.10 in2.5 mm
01:27 AM 52.6°F11.4°C 56.0°F13.3°C 78% Calm Calm -- 30.05 in1017.6 mb 0.00 in0.0 mm 0.00 in0.0 mm 0.10 in2.5 mm
01:29 AM 52.9°F11.6°C 55.9°F13.3°C 78% Calm Calm -- 30.05 in1017.6 mb 0.00 in0.0 mm 0.00 in0.0 mm 0.10 in2.5 mm
01:30 AM 52.6°F11.4°C 55.8°F13.2°C 77% Calm Calm -- 30.05 in1017.6 mb 0.00 in0.0 mm 0.00 in0.0 mm 0.10 in2.5 mm
01:32 AM 52.9°F11.6°C 55.8°F13.2°C 78% 0.4 mph WNW0.6 kmh WNW 0.4 mph0.6 kmh 30.05 in1017.6 mb 0.00 in0.0 mm 0.00 in0.0 mm 0.10 in2.5 mm
01:33 AM 52.6°F11.4°C 55.8°F13.2°C 77% Calm Calm -- 30.05 in1017.6 mb 0.00 in0.0 mm 0.00 in0.0 mm 0.10 in2.5 mm
01:35 AM 52.5°F11.4°C 55.7°F13.2°C 77% 1.2 mph NNW1.9 kmh NNW 1.2 mph1.9 kmh 30.05 in1017.6 mb 0.00 in0.0 mm 0.00 in0.0 mm 0.10 in2.5 mm
01:36 AM 52.6°F11.4°C 55.6°F13.1°C 77% 1.0 mph WNW1.6 kmh WNW 1.0 mph1.6 kmh 30.05 in1017.6 mb 0.00 in0.0 mm 0.00 in0.0 mm 0.10 in2.5 mm
01:38 AM 52.8°F11.6°C 55.4°F13.0°C 76% Calm Calm -- 30.05 in1017.6 mb 0.00 in0.0 mm 0.00 in0.0 mm 0.10 in2.5 mm
01:39 AM 52.8°F11.6°C 55.8°F13.2°C 77% Calm Calm -- 30.05 in1017.6 mb 0.00 in0.0 mm 0.00 in0.0 mm 0.10 in2.5 mm
01:41 AM 52.5°F11.4°C 55.6°F13.1°C 77% Calm Calm -- 30.05 in1017.6 mb 0.00 in0.0 mm 0.00 in0.0 mm 0.10 in2.5 mm
01:42 AM 52.5°F11.4°C 55.4°F13.0°C 77% Calm Calm -- 30.05 in1017.6 mb 0.00 in0.0 mm 0.00 in0.0 mm 0.10 in2.5 mm
01:44 AM 52.4°F11.3°C 55.6°F13.1°C 77% Calm Calm -- 30.05 in1017.6 mb 0.00 in0.0 mm 0.00 in0.0 mm 0.10 in2.5 mm
01:45 AM 52.5°F11.4°C 55.4°F13.0°C 77% Calm Calm -- 30.05 in1017.6 mb 0.00 in0.0 mm 0.00 in0.0 mm 0.10 in2.5 mm
01:47 AM 52.3°F11.3°C 55.6°F13.1°C 77% Calm Calm -- 30.04 in1017.3 mb 0.00 in0.0 mm 0.00 in0.0 mm 0.10 in2.5 mm
01:48 AM 52.3°F11.3°C 55.4°F13.0°C 77% Calm Calm -- 30.04 in1017.3 mb 0.00 in0.0 mm 0.00 in0.0 mm 0.10 in2.5 mm
01:50 AM 52.1°F11.2°C 55.5°F13.1°C 77% Calm Calm -- 30.05 in1017.6 mb 0.00 in0.0 mm 0.00 in0.0 mm 0.10 in2.5 mm
01:51 AM 52.3°F11.3°C 54.8°F12.7°C 76% Calm Calm -- 30.05 in1017.6 mb 0.00 in0.0 mm 0.00 in0.0 mm 0.10 in2.5 mm
01:53 AM 52.1°F11.2°C 55.3°F12.9°C 77% Calm Calm -- 30.04 in1017.3 mb 0.00 in0.0 mm 0.00 in0.0 mm 0.10 in2.5 mm
01:54 AM 52.0°F11.1°C 55.2°F12.9°C 77% Calm Calm -- 30.05 in1017.6 mb 0.00 in0.0 mm 0.00 in0.0 mm 0.10 in2.5 mm
01:56 AM 51.9°F11.1°C 55.2°F12.9°C 77% Calm Calm -- 30.05 in1017.6 mb 0.00 in0.0 mm 0.00 in0.0 mm 0.10 in2.5 mm
01:57 AM 51.9°F11.1°C 55.6°F13.1°C 77% Calm Calm -- 30.05 in1017.6 mb 0.00 in0.0 mm 0.00 in0.0 mm 0.10 in2.5 mm
01:59 AM 51.9°F11.1°C 55.4°F13.0°C 77% Calm Calm -- 30.05 in1017.6 mb 0.00 in0.0 mm 0.00 in0.0 mm 0.10 in2.5 mm
02:00 AM 52.0°F11.1°C 55.3°F12.9°C 77% Calm Calm -- 30.05 in1017.6 mb 0.00 in0.0 mm 0.00 in0.0 mm 0.10 in2.5 mm
02:02 AM 51.9°F11.1°C 55.1°F12.8°C 77% Calm Calm -- 30.04 in1017.3 mb 0.00 in0.0 mm 0.00 in0.0 mm 0.10 in2.5 mm
02:03 AM 51.9°F11.1°C 55.3°F12.9°C 77% Calm Calm -- 30.05 in1017.6 mb 0.00 in0.0 mm 0.00 in0.0 mm 0.10 in2.5 mm
02:05 AM 51.7°F10.9°C 55.1°F12.8°C 77% Calm Calm -- 30.05 in1017.6 mb 0.00 in0.0 mm 0.00 in0.0 mm 0.10 in2.5 mm
02:06 AM 51.7°F10.9°C 55.2°F12.9°C 77% Calm Calm -- 30.05 in1017.6 mb 0.00 in0.0 mm 0.00 in0.0 mm 0.10 in2.5 mm
02:11 AM 51.2°F10.7°C 55.0°F12.8°C 78% Calm Calm -- 30.04 in1017.3 mb 0.00 in0.0 mm 0.00 in0.0 mm 0.10 in2.5 mm
02:12 AM 51.4°F10.8°C 55.1°F12.8°C 78% Calm Calm -- 30.05 in1017.6 mb 0.00 in0.0 mm 0.00 in0.0 mm 0.10 in2.5 mm
02:14 AM 51.1°F10.6°C 54.8°F12.7°C 78% Calm Calm -- 30.04 in1017.3 mb 0.00 in0.0 mm 0.00 in0.0 mm 0.10 in2.5 mm
02:15 AM 51.2°F10.7°C 55.3°F12.9°C 78% Calm Calm -- 30.04 in1017.3 mb 0.00 in0.0 mm 0.00 in0.0 mm 0.10 in2.5 mm
02:17 AM 51.0°F10.6°C 55.0°F12.8°C 78% Calm Calm -- 30.04 in1017.3 mb 0.00 in0.0 mm 0.00 in0.0 mm 0.10 in2.5 mm
02:18 AM 51.1°F10.6°C 55.2°F12.9°C 78% Calm Calm -- 30.04 in1017.3 mb 0.00 in0.0 mm 0.00 in0.0 mm 0.10 in2.5 mm
02:20 AM 51.0°F10.6°C 55.0°F12.8°C 78% Calm Calm -- 30.05 in1017.6 mb 0.00 in0.0 mm 0.00 in0.0 mm 0.10 in2.5 mm
02:21 AM 51.0°F10.6°C 55.0°F12.8°C 79% Calm Calm -- 30.05 in1017.6 mb 0.00 in0.0 mm 0.00 in0.0 mm 0.10 in2.5 mm
02:23 AM 51.0°F10.6°C 54.9°F12.7°C 78% Calm Calm -- 30.05 in1017.6 mb 0.00 in0.0 mm 0.00 in0.0 mm 0.10 in2.5 mm
02:24 AM 51.1°F10.6°C 55.0°F12.8°C 78% Calm Calm -- 30.05 in1017.6 mb 0.00 in0.0 mm 0.00 in0.0 mm 0.10 in2.5 mm
02:26 AM 51.2°F10.7°C 54.6°F12.6°C 78% Calm Calm -- 30.05 in1017.6 mb 0.00 in0.0 mm 0.00 in0.0 mm 0.10 in2.5 mm
02:27 AM 51.2°F10.7°C 54.3°F12.4°C 78% Calm Calm -- 30.05 in1017.6 mb 0.00 in0.0 mm 0.00 in0.0 mm 0.10 in2.5 mm
02:29 AM 51.2°F10.7°C 54.9°F12.7°C 79% Calm Calm -- 30.05 in1017.6 mb 0.00 in0.0 mm 0.00 in0.0 mm 0.10 in2.5 mm
02:32 AM 51.1°F10.6°C 54.9°F12.7°C 78% Calm Calm -- 30.05 in1017.6 mb 0.00 in0.0 mm 0.00 in0.0 mm 0.10 in2.5 mm
02:33 AM 51.1°F10.6°C 54.9°F12.7°C 78% Calm Calm -- 30.05 in1017.6 mb 0.00 in0.0 mm 0.00 in0.0 mm 0.10 in2.5 mm
02:35 AM 50.7°F10.4°C 54.6°F12.6°C 78% Calm Calm -- 30.04 in1017.3 mb 0.00 in0.0 mm 0.00 in0.0 mm 0.10 in2.5 mm
02:36 AM 50.8°F10.4°C 54.8°F12.7°C 79% Calm Calm -- 30.05 in1017.6 mb 0.00 in0.0 mm 0.00 in0.0 mm 0.10 in2.5 mm
02:38 AM 50.7°F10.4°C 54.6°F12.6°C 78% Calm Calm -- 30.04 in1017.3 mb 0.00 in0.0 mm 0.00 in0.0 mm 0.10 in2.5 mm
02:39 AM 50.7°F10.4°C 54.7°F12.6°C 78% Calm Calm -- 30.04 in1017.3 mb 0.00 in0.0 mm 0.00 in0.0 mm 0.10 in2.5 mm
02:41 AM 50.6°F10.3°C 54.5°F12.5°C 78% Calm Calm -- 30.04 in1017.3 mb 0.00 in0.0 mm 0.00 in0.0 mm 0.10 in2.5 mm
02:42 AM 50.6°F10.3°C 54.4°F12.4°C 78% Calm Calm -- 30.04 in1017.3 mb 0.00 in0.0 mm 0.00 in0.0 mm 0.10 in2.5 mm
02:44 AM 50.8°F10.4°C 54.8°F12.7°C 79% Calm Calm -- 30.04 in1017.3 mb 0.00 in0.0 mm 0.00 in0.0 mm 0.10 in2.5 mm
02:45 AM 50.8°F10.4°C 54.8°F12.7°C 79% Calm Calm -- 30.04 in1017.3 mb 0.00 in0.0 mm 0.00 in0.0 mm 0.10 in2.5 mm
02:47 AM 50.9°F10.5°C 54.8°F12.7°C 79% Calm Calm -- 30.04 in1017.3 mb 0.00 in0.0 mm 0.00 in0.0 mm 0.10 in2.5 mm
02:48 AM 50.9°F10.5°C 54.8°F12.7°C 79% Calm Calm -- 30.04 in1017.3 mb 0.00 in0.0 mm 0.00 in0.0 mm 0.10 in2.5 mm
02:50 AM 50.5°F10.3°C 54.5°F12.5°C 79% Calm Calm -- 30.04 in1017.3 mb 0.00 in0.0 mm 0.00 in0.0 mm 0.10 in2.5 mm
02:51 AM 50.5°F10.3°C 54.7°F12.6°C 79% Calm Calm -- 30.03 in1016.9 mb 0.00 in0.0 mm 0.00 in0.0 mm 0.10 in2.5 mm
02:53 AM 50.6°F10.3°C 54.4°F12.4°C 79% 0.4 mph SE0.6 kmh SE 0.4 mph0.6 kmh 30.03 in1016.9 mb 0.00 in0.0 mm 0.00 in0.0 mm 0.10 in2.5 mm
02:54 AM 50.6°F10.3°C 54.3°F12.4°C 79% Calm Calm -- 30.03 in1016.9 mb 0.00 in0.0 mm 0.00 in0.0 mm 0.10 in2.5 mm
02:56 AM 50.6°F10.3°C 54.6°F12.6°C 79% Calm Calm -- 30.04 in1017.3 mb 0.00 in0.0 mm 0.00 in0.0 mm 0.10 in2.5 mm
02:57 AM 50.6°F10.3°C 54.6°F12.6°C 79% Calm Calm -- 30.03 in1016.9 mb 0.00 in0.0 mm 0.00 in0.0 mm 0.10 in2.5 mm
02:59 AM 50.3°F10.2°C 54.5°F12.5°C 79% Calm Calm -- 30.04 in1017.3 mb 0.00 in0.0 mm 0.00 in0.0 mm 0.10 in2.5 mm
03:00 AM 50.3°F10.2°C 54.4°F12.4°C 79% Calm Calm -- 30.04 in1017.3 mb 0.00 in0.0 mm 0.00 in0.0 mm 0.10 in2.5 mm
03:02 AM 50.3°F10.2°C 54.7°F12.6°C 79% Calm Calm -- 30.05 in1017.6 mb 0.00 in0.0 mm 0.00 in0.0 mm 0.10 in2.5 mm
03:03 AM 50.3°F10.2°C 54.6°F12.6°C 79% Calm Calm -- 30.05 in1017.6 mb 0.00 in0.0 mm 0.00 in0.0 mm 0.10 in2.5 mm
03:05 AM 50.3°F10.2°C 54.3°F12.4°C 79% Calm Calm -- 30.05 in1017.6 mb 0.00 in0.0 mm 0.00 in0.0 mm 0.10 in2.5 mm
03:06 AM 50.3°F10.2°C 54.2°F12.3°C 79% Calm Calm -- 30.05 in1017.6 mb 0.00 in0.0 mm 0.00 in0.0 mm 0.10 in2.5 mm
03:08 AM 50.3°F10.2°C 54.2°F12.3°C 79% Calm Calm -- 30.04 in1017.3 mb 0.00 in0.0 mm 0.00 in0.0 mm 0.10 in2.5 mm
03:09 AM 50.3°F10.2°C 54.4°F12.4°C 79% Calm Calm -- 30.04 in1017.3 mb 0.00 in0.0 mm 0.00 in0.0 mm 0.10 in2.5 mm
03:11 AM 50.6°F10.3°C 54.5°F12.5°C 79% Calm Calm -- 30.05 in1017.6 mb 0.00 in0.0 mm 0.00 in0.0 mm 0.10 in2.5 mm
03:12 AM 50.7°F10.4°C 54.4°F12.4°C 79% Calm Calm -- 30.05 in1017.6 mb 0.00 in0.0 mm 0.00 in0.0 mm 0.10 in2.5 mm
03:14 AM 50.3°F10.2°C 54.3°F12.4°C 79% Calm Calm -- 30.05 in1017.6 mb 0.00 in0.0 mm 0.00 in0.0 mm 0.10 in2.5 mm
03:15 AM 50.5°F10.3°C 54.5°F12.5°C 80% Calm Calm -- 30.05 in1017.6 mb 0.00 in0.0 mm 0.00 in0.0 mm 0.10 in2.5 mm
03:17 AM 50.6°F10.3°C 54.5°F12.5°C 80% Calm Calm -- 30.05 in1017.6 mb 0.00 in0.0 mm 0.00 in0.0 mm 0.10 in2.5 mm
03:18 AM 50.6°F10.3°C 54.4°F12.4°C 80% Calm Calm -- 30.05 in1017.6 mb 0.00 in0.0 mm 0.00 in0.0 mm 0.10 in2.5 mm
03:20 AM 50.3°F10.2°C 54.6°F12.6°C 80% Calm Calm -- 30.05 in1017.6 mb 0.00 in0.0 mm 0.00 in0.0 mm 0.10 in2.5 mm
03:21 AM 50.5°F10.3°C 54.4°F12.4°C 80% Calm Calm -- 30.05 in1017.6 mb 0.00 in0.0 mm 0.00 in0.0 mm 0.10 in2.5 mm
03:23 AM 50.3°F10.2°C 54.4°F12.4°C 80% Calm Calm -- 30.05 in1017.6 mb 0.00 in0.0 mm 0.00 in0.0 mm 0.10 in2.5 mm
03:24 AM 50.3°F10.2°C 54.3°F12.4°C 80% Calm Calm -- 30.05 in1017.6 mb 0.00 in0.0 mm 0.00 in0.0 mm 0.10 in2.5 mm
03:26 AM 50.5°F10.3°C 54.2°F12.3°C 79% Calm Calm -- 30.05 in1017.6 mb 0.00 in0.0 mm 0.00 in0.0 mm 0.10 in2.5 mm
03:27 AM 50.5°F10.3°C 54.5°F12.5°C 80% Calm Calm -- 30.05 in1017.6 mb 0.00 in0.0 mm 0.00 in0.0 mm 0.10 in2.5 mm
03:29 AM 50.5°F10.3°C 54.2°F12.3°C 79% Calm Calm -- 30.05 in1017.6 mb 0.00 in0.0 mm 0.00 in0.0 mm 0.10 in2.5 mm
03:30 AM 50.3°F10.2°C 54.2°F12.3°C 79% Calm Calm -- 30.05 in1017.6 mb 0.00 in0.0 mm 0.00 in0.0 mm 0.10 in2.5 mm
03:32 AM 50.6°F10.3°C 54.2°F12.3°C 80% Calm Calm -- 30.05 in1017.6 mb 0.00 in0.0 mm 0.00 in0.0 mm 0.10 in2.5 mm
03:33 AM 50.6°F10.3°C 54.1°F12.3°C 79% Calm Calm -- 30.05 in1017.6 mb 0.00 in0.0 mm 0.00 in0.0 mm 0.10 in2.5 mm
03:35 AM 50.5°F10.3°C 54.4°F12.4°C 80% Calm Calm -- 30.06 in1017.9 mb 0.00 in0.0 mm 0.00 in0.0 mm 0.10 in2.5 mm
03:36 AM 50.5°F10.3°C 54.1°F12.3°C 79% Calm Calm -- 30.05 in1017.6 mb 0.00 in0.0 mm 0.00 in0.0 mm 0.10 in2.5 mm
03:38 AM 50.6°F10.3°C 54.3°F12.4°C 80% Calm Calm -- 30.06 in1017.9 mb 0.00 in0.0 mm 0.00 in0.0 mm 0.10 in2.5 mm
03:39 AM 50.5°F10.3°C 54.5°F12.5°C 80% Calm Calm -- 30.07 in1018.3 mb 0.00 in0.0 mm 0.00 in0.0 mm 0.10 in2.5 mm
03:41 AM 50.6°F10.3°C 54.2°F12.3°C 80% Calm Calm -- 30.06 in1017.9 mb 0.00 in0.0 mm 0.00 in0.0 mm 0.10 in2.5 mm
03:42 AM 50.6°F10.3°C 54.3°F12.4°C 80% Calm Calm -- 30.07 in1018.3 mb 0.00 in0.0 mm 0.00 in0.0 mm 0.10 in2.5 mm
03:44 AM 50.6°F10.3°C 54.2°F12.3°C 80% Calm Calm -- 30.07 in1018.3 mb 0.00 in0.0 mm 0.00 in0.0 mm 0.10 in2.5 mm
03:47 AM 50.3°F10.2°C 54.0°F12.2°C 80% Calm Calm -- 30.06 in1017.9 mb 0.00 in0.0 mm 0.00 in0.0 mm 0.10 in2.5 mm
03:48 AM 50.3°F10.2°C 54.1°F12.3°C 80% Calm Calm -- 30.06 in1017.9 mb 0.00 in0.0 mm 0.00 in0.0 mm 0.10 in2.5 mm
03:50 AM 50.5°F10.3°C 54.2°F12.3°C 80% Calm Calm -- 30.07 in1018.3 mb 0.00 in0.0 mm 0.00 in0.0 mm 0.10 in2.5 mm
03:51 AM 50.5°F10.3°C 54.0°F12.2°C 80% Calm Calm -- 30.07 in1018.3 mb 0.00 in0.0 mm 0.00 in0.0 mm 0.10 in2.5 mm
03:53 AM 50.6°F10.3°C 54.2°F12.3°C 80% Calm Calm -- 30.07 in1018.3 mb 0.00 in0.0 mm 0.00 in0.0 mm 0.10 in2.5 mm
03:54 AM 50.6°F10.3°C 54.2°F12.3°C 80% Calm Calm -- 30.07 in1018.3 mb 0.00 in0.0 mm 0.00 in0.0 mm 0.10 in2.5 mm
03:56 AM 50.5°F10.3°C 54.4°F12.4°C 80% Calm Calm -- 30.07 in1018.3 mb 0.00 in0.0 mm 0.00 in0.0 mm 0.10 in2.5 mm
03:57 AM 50.5°F10.3°C 54.4°F12.4°C 80% Calm Calm -- 30.07 in1018.3 mb 0.00 in0.0 mm 0.00 in0.0 mm 0.10 in2.5 mm
03:59 AM 50.5°F10.3°C 54.2°F12.3°C 80% 0.4 mph SW0.6 kmh SW 0.4 mph0.6 kmh 30.07 in1018.3 mb 0.00 in0.0 mm 0.00 in0.0 mm 0.10 in2.5 mm
04:00 AM 50.5°F10.3°C 54.3°F12.4°C 80% Calm Calm -- 30.07 in1018.3 mb 0.00 in0.0 mm 0.00 in0.0 mm 0.10 in2.5 mm
04:02 AM 50.5°F10.3°C 54.2°F12.3°C 80% Calm Calm -- 30.07 in1018.3 mb 0.00 in0.0 mm 0.00 in0.0 mm 0.10 in2.5 mm
04:03 AM 50.5°F10.3°C 53.9°F12.2°C 80% Calm Calm -- 30.07 in1018.3 mb 0.00 in0.0 mm 0.00 in0.0 mm 0.10 in2.5 mm
04:05 AM 50.5°F10.3°C 54.1°F12.3°C 80% Calm Calm -- 30.07 in1018.3 mb 0.00 in0.0 mm 0.00 in0.0 mm 0.10 in2.5 mm
04:06 AM 50.5°F10.3°C 54.1°F12.3°C 80% Calm Calm -- 30.07 in1018.3 mb 0.00 in0.0 mm 0.00 in0.0 mm 0.10 in2.5 mm
04:08 AM 50.6°F10.3°C 54.0°F12.2°C 80% Calm Calm -- 30.07 in1018.3 mb 0.00 in0.0 mm 0.00 in0.0 mm 0.10 in2.5 mm
04:09 AM 50.6°F10.3°C 54.1°F12.3°C 80% Calm Calm -- 30.07 in1018.3 mb 0.00 in0.0 mm 0.00 in0.0 mm 0.10 in2.5 mm
04:11 AM 50.6°F10.3°C 54.2°F12.3°C 80% Calm Calm -- 30.07 in1018.3 mb 0.00 in0.0 mm 0.00 in0.0 mm 0.10 in2.5 mm
04:12 AM 50.6°F10.3°C 53.9°F12.2°C 80% Calm Calm -- 30.07 in1018.3 mb 0.00 in0.0 mm 0.00 in0.0 mm 0.10 in2.5 mm
04:14 AM 50.6°F10.3°C 54.1°F12.3°C 80% Calm Calm -- 30.08 in1018.6 mb 0.00 in0.0 mm 0.00 in0.0 mm 0.10 in2.5 mm
04:15 AM 50.7°F10.4°C 54.1°F12.3°C 80% Calm Calm -- 30.08 in1018.6 mb 0.00 in0.0 mm 0.00 in0.0 mm 0.10 in2.5 mm
04:17 AM 50.8°F10.4°C 54.0°F12.2°C 80% Calm Calm -- 30.07 in1018.3 mb 0.00 in0.0 mm 0.00 in0.0 mm 0.10 in2.5 mm
04:18 AM 50.8°F10.4°C 54.1°F12.3°C 80% Calm Calm -- 30.08 in1018.6 mb 0.00 in0.0 mm 0.00 in0.0 mm 0.10 in2.5 mm
04:20 AM 50.8°F10.4°C 54.1°F12.3°C 80% Calm Calm -- 30.07 in1018.3 mb 0.00 in0.0 mm 0.00 in0.0 mm 0.10 in2.5 mm
04:21 AM 50.8°F10.4°C 54.1°F12.3°C 81% Calm Calm -- 30.07 in1018.3 mb 0.00 in0.0 mm 0.00 in0.0 mm 0.10 in2.5 mm
04:23 AM 50.8°F10.4°C 54.2°F12.3°C 81% Calm Calm -- 30.07 in1018.3 mb 0.00 in0.0 mm 0.00 in0.0 mm 0.10 in2.5 mm
04:24 AM 50.8°F10.4°C 54.3°F12.4°C 81% Calm Calm -- 30.07 in1018.3 mb 0.00 in0.0 mm 0.00 in0.0 mm 0.10 in2.5 mm
04:26 AM 51.0°F10.6°C 54.3°F12.4°C 81% Calm Calm -- 30.07 in1018.3 mb 0.00 in0.0 mm 0.00 in0.0 mm 0.10 in2.5 mm
04:27 AM 51.0°F10.6°C 54.1°F12.3°C 80% Calm Calm -- 30.08 in1018.6 mb 0.00 in0.0 mm 0.00 in0.0 mm 0.10 in2.5 mm
04:29 AM 51.2°F10.7°C 54.2°F12.3°C 81% Calm Calm -- 30.07 in1018.3 mb 0.00 in0.0 mm 0.00 in0.0 mm 0.10 in2.5 mm
04:30 AM 51.2°F10.7°C 54.4°F12.4°C 81% Calm Calm -- 30.07 in1018.3 mb 0.00 in0.0 mm 0.00 in0.0 mm 0.10 in2.5 mm
04:32 AM 51.1°F10.6°C 54.5°F12.5°C 81% Calm Calm -- 30.07 in1018.3 mb 0.00 in0.0 mm 0.00 in0.0 mm 0.10 in2.5 mm
04:33 AM 51.1°F10.6°C 54.3°F12.4°C 81% Calm Calm -- 30.07 in1018.3 mb 0.00 in0.0 mm 0.00 in0.0 mm 0.10 in2.5 mm
04:35 AM 51.1°F10.6°C 54.4°F12.4°C 81% Calm Calm -- 30.07 in1018.3 mb 0.00 in0.0 mm 0.00 in0.0 mm 0.10 in2.5 mm
04:36 AM 51.2°F10.7°C 54.5°F12.5°C 81% Calm Calm -- 30.08 in1018.6 mb 0.00 in0.0 mm 0.00 in0.0 mm 0.10 in2.5 mm
04:38 AM 51.4°F10.8°C 54.0°F12.2°C 80% Calm Calm -- 30.08 in1018.6 mb 0.00 in0.0 mm 0.00 in0.0 mm 0.10 in2.5 mm
04:39 AM 51.4°F10.8°C 54.4°F12.4°C 81% Calm Calm -- 30.08 in1018.6 mb 0.00 in0.0 mm 0.00 in0.0 mm 0.10 in2.5 mm
04:41 AM 51.4°F10.8°C 54.5°F12.5°C 81% Calm Calm -- 30.08 in1018.6 mb 0.00 in0.0 mm 0.00 in0.0 mm 0.10 in2.5 mm
04:42 AM 51.4°F10.8°C 54.2°F12.3°C 81% Calm Calm -- 30.08 in1018.6 mb 0.00 in0.0 mm 0.00 in0.0 mm 0.10 in2.5 mm
04:44 AM 51.5°F10.8°C 54.4°F12.4°C 81% Calm Calm -- 30.08 in1018.6 mb 0.00 in0.0 mm 0.00 in0.0 mm 0.10 in2.5 mm
04:45 AM 51.5°F10.8°C 54.3°F12.4°C 81% Calm Calm -- 30.09 in1019.0 mb 0.00 in0.0 mm 0.00 in0.0 mm 0.10 in2.5 mm
04:47 AM 51.7°F10.9°C 54.4°F12.4°C 82% Calm Calm -- 30.09 in1019.0 mb 0.00 in0.0 mm 0.00 in0.0 mm 0.10 in2.5 mm
04:48 AM 51.7°F10.9°C 54.5°F12.5°C 81% Calm Calm -- 30.09 in1019.0 mb 0.00 in0.0 mm 0.00 in0.0 mm 0.10 in2.5 mm
04:50 AM 51.8°F11.0°C 54.6°F12.6°C 82% Calm Calm -- 30.09 in1019.0 mb 0.00 in0.0 mm 0.00 in0.0 mm 0.10 in2.5 mm
04:51 AM 51.8°F11.0°C 54.7°F12.6°C 81% Calm Calm -- 30.09 in1019.0 mb 0.00 in0.0 mm 0.00 in0.0 mm 0.10 in2.5 mm
04:53 AM 51.9°F11.1°C 54.6°F12.6°C 82% Calm Calm -- 30.09 in1019.0 mb 0.00 in0.0 mm 0.00 in0.0 mm 0.10 in2.5 mm
04:54 AM 51.9°F11.1°C 54.4°F12.4°C 81% Calm Calm -- 30.09 in1019.0 mb 0.00 in0.0 mm 0.00 in0.0 mm 0.10 in2.5 mm
04:56 AM 51.8°F11.0°C 54.6°F12.6°C 82% Calm Calm -- 30.08 in1018.6 mb 0.00 in0.0 mm 0.00 in0.0 mm 0.10 in2.5 mm
04:57 AM 51.8°F11.0°C 54.4°F12.4°C 81% Calm Calm -- 30.08 in1018.6 mb 0.00 in0.0 mm 0.00 in0.0 mm 0.10 in2.5 mm
04:59 AM 51.9°F11.1°C 54.7°F12.6°C 82% Calm Calm -- 30.09 in1019.0 mb 0.00 in0.0 mm 0.00 in0.0 mm 0.10 in2.5 mm
05:00 AM 51.9°F11.1°C 54.5°F12.5°C 81% Calm Calm -- 30.09 in1019.0 mb 0.00 in0.0 mm 0.00 in0.0 mm 0.10 in2.5 mm
05:02 AM 52.0°F11.1°C 54.5°F12.5°C 82% Calm Calm -- 30.09 in1019.0 mb 0.00 in0.0 mm 0.00 in0.0 mm 0.10 in2.5 mm
05:03 AM 52.0°F11.1°C 54.6°F12.6°C 81% Calm Calm -- 30.09 in1019.0 mb 0.00 in0.0 mm 0.00 in0.0 mm 0.10 in2.5 mm
05:05 AM 52.1°F11.2°C 54.6°F12.6°C 81% Calm Calm -- 30.09 in1019.0 mb 0.00 in0.0 mm 0.00 in0.0 mm 0.10 in2.5 mm
05:06 AM 52.1°F11.2°C 54.5°F12.5°C 81% Calm Calm -- 30.09 in1019.0 mb 0.00 in0.0 mm 0.00 in0.0 mm 0.10 in2.5 mm
05:08 AM 52.3°F11.3°C 54.5°F12.5°C 81% Calm Calm -- 30.08 in1018.6 mb 0.00 in0.0 mm 0.00 in0.0 mm 0.10 in2.5 mm
05:09 AM 52.1°F11.2°C 54.7°F12.6°C 82% Calm Calm -- 30.08 in1018.6 mb 0.00 in0.0 mm 0.00 in0.0 mm 0.10 in2.5 mm
05:11 AM 52.3°F11.3°C 54.9°F12.7°C 82% Calm Calm -- 30.08 in1018.6 mb 0.00 in0.0 mm 0.00 in0.0 mm 0.10 in2.5 mm
05:12 AM 52.4°F11.3°C 54.7°F12.6°C 82% Calm Calm -- 30.08 in1018.6 mb 0.00 in0.0 mm 0.00 in0.0 mm 0.10 in2.5 mm
05:14 AM 52.5°F11.4°C 54.6°F12.6°C 81% Calm Calm -- 30.09 in1019.0 mb 0.00 in0.0 mm 0.00 in0.0 mm 0.10 in2.5 mm
05:15 AM 52.5°F11.4°C 54.4°F12.4°C 81% Calm Calm -- 30.09 in1019.0 mb 0.00 in0.0 mm 0.00 in0.0 mm 0.10 in2.5 mm
05:17 AM 52.6°F11.4°C 54.9°F12.7°C 82% Calm Calm -- 30.09 in1019.0 mb 0.00 in0.0 mm 0.00 in0.0 mm 0.10 in2.5 mm
05:18 AM 52.6°F11.4°C 54.9°F12.7°C 82% Calm Calm -- 30.09 in1019.0 mb 0.00 in0.0 mm 0.00 in0.0 mm 0.10 in2.5 mm
05:20 AM 53.0°F11.7°C 54.8°F12.7°C 82% Calm Calm -- 30.08 in1018.6 mb 0.00 in0.0 mm 0.00 in0.0 mm 0.10 in2.5 mm
05:21 AM 53.0°F11.7°C 55.2°F12.9°C 82% Calm Calm -- 30.08 in1018.6 mb 0.00 in0.0 mm 0.00 in0.0 mm 0.10 in2.5 mm
05:23 AM 53.2°F11.8°C 55.2°F12.9°C 82% Calm Calm -- 30.07 in1018.3 mb 0.00 in0.0 mm 0.00 in0.0 mm 0.10 in2.5 mm
05:24 AM 53.2°F11.8°C 55.2°F12.9°C 82% Calm Calm -- 30.07 in1018.3 mb 0.00 in0.0 mm 0.00 in0.0 mm 0.10 in2.5 mm
05:26 AM 53.5°F11.9°C 55.2°F12.9°C 83% 0.8 mph SE1.3 kmh SE 0.8 mph1.3 kmh 30.07 in1018.3 mb 0.00 in0.0 mm 0.00 in0.0 mm 0.10 in2.5 mm
05:27 AM 53.5°F11.9°C 55.3°F12.9°C 83% 1.2 mph SE1.9 kmh SE 1.2 mph1.9 kmh 30.07 in1018.3 mb 0.00 in0.0 mm 0.00 in0.0 mm 0.10 in2.5 mm
05:29 AM 54.1°F12.3°C 55.6°F13.1°C 84% Calm Calm -- 30.08 in1018.6 mb 0.00 in0.0 mm 0.00 in0.0 mm 0.10 in2.5 mm
05:30 AM 54.2°F12.3°C 55.6°F13.1°C 83% 0.2 mph S0.3 kmh S 0.3 mph0.5 kmh 30.08 in1018.6 mb 0.00 in0.0 mm 0.00 in0.0 mm 0.10 in2.5 mm
05:32 AM 54.5°F12.5°C 56.0°F13.3°C 83% Calm Calm -- 30.08 in1018.6 mb 0.00 in0.0 mm 0.00 in0.0 mm 0.10 in2.5 mm
05:33 AM 54.5°F12.5°C 56.0°F13.3°C 83% 0.2 mph SW0.3 kmh SW 0.3 mph0.5 kmh 30.09 in1019.0 mb 0.00 in0.0 mm 0.00 in0.0 mm 0.10 in2.5 mm
05:35 AM 54.2°F12.3°C 56.0°F13.3°C 82% Calm Calm -- 30.08 in1018.6 mb 0.00 in0.0 mm 0.00 in0.0 mm 0.10 in2.5 mm
05:36 AM 54.2°F12.3°C 55.6°F13.1°C 82% 0.2 mph SSE0.3 kmh SSE 0.3 mph0.5 kmh 30.09 in1019.0 mb 0.00 in0.0 mm 0.00 in0.0 mm 0.10 in2.5 mm
05:38 AM 54.2°F12.3°C 55.6°F13.1°C 82% Calm Calm -- 30.09 in1019.0 mb 0.00 in0.0 mm 0.00 in0.0 mm 0.10 in2.5 mm
05:39 AM 54.2°F12.3°C 55.8°F13.2°C 82% Calm Calm -- 30.09 in1019.0 mb 0.00 in0.0 mm 0.00 in0.0 mm 0.10 in2.5 mm
05:41 AM 53.8°F12.1°C 55.7°F13.2°C 82% Calm Calm -- 30.09 in1019.0 mb 0.00 in0.0 mm 0.00 in0.0 mm 0.10 in2.5 mm
05:42 AM 53.7°F12.1°C 55.5°F13.1°C 82% Calm Calm -- 30.09 in1019.0 mb 0.00 in0.0 mm 0.00 in0.0 mm 0.10 in2.5 mm
05:44 AM 53.7°F12.1°C 55.7°F13.2°C 82% Calm Calm -- 30.09 in1019.0 mb 0.00 in0.0 mm 0.00 in0.0 mm 0.10 in2.5 mm
05:45 AM 53.7°F12.1°C 55.7°F13.2°C 82% Calm Calm -- 30.09 in1019.0 mb 0.00 in0.0 mm 0.00 in0.0 mm 0.10 in2.5 mm
05:47 AM 53.6°F12.0°C 55.7°F13.2°C 82% 0.4 mph S0.6 kmh S 0.4 mph0.6 kmh 30.09 in1019.0 mb 0.00 in0.0 mm 0.00 in0.0 mm 0.10 in2.5 mm
05:48 AM 53.6°F12.0°C 55.5°F13.1°C 82% 0.7 mph SSW1.1 kmh SSW 0.7 mph1.1 kmh 30.09 in1019.0 mb 0.00 in0.0 mm 0.00 in0.0 mm 0.10 in2.5 mm
05:50 AM 53.6°F12.0°C 55.6°F13.1°C 82% 1.2 mph S1.9 kmh S 1.2 mph1.9 kmh 30.11 in1019.6 mb 0.00 in0.0 mm 0.00 in0.0 mm 0.10 in2.5 mm
05:51 AM 53.6°F12.0°C 55.4°F13.0°C 82% 1.4 mph SW2.3 kmh SW 1.4 mph2.3 kmh 30.11 in1019.6 mb 0.00 in0.0 mm 0.00 in0.0 mm 0.10 in2.5 mm
05:53 AM 53.8°F12.1°C 55.6°F13.1°C 82% Calm Calm -- 30.11 in1019.6 mb 0.00 in0.0 mm 0.00 in0.0 mm 0.10 in2.5 mm
05:54 AM 53.8°F12.1°C 55.5°F13.1°C 82% Calm Calm -- 30.11 in1019.6 mb 0.00 in0.0 mm 0.00 in0.0 mm 0.10 in2.5 mm
05:56 AM 54.2°F12.3°C 55.7°F13.2°C 82% Calm Calm -- 30.10 in1019.3 mb 0.00 in0.0 mm 0.00 in0.0 mm 0.10 in2.5 mm
05:57 AM 54.2°F12.3°C 55.5°F13.1°C 82% Calm Calm -- 30.10 in1019.3 mb 0.00 in0.0 mm 0.00 in0.0 mm 0.10 in2.5 mm
05:59 AM 54.1°F12.3°C 55.6°F13.1°C 82% 2.0 mph W3.2 kmh W 2.0 mph3.2 kmh 30.11 in1019.6 mb 0.00 in0.0 mm 0.00 in0.0 mm 0.10 in2.5 mm
06:00 AM 54.1°F12.3°C 55.5°F13.1°C 82% 1.6 mph WSW2.6 kmh WSW 1.6 mph2.6 kmh 30.11 in1019.6 mb 0.00 in0.0 mm 0.00 in0.0 mm 0.10 in2.5 mm
06:02 AM 53.8°F12.1°C 55.6°F13.1°C 82% 2.0 mph WSW3.2 kmh WSW 2.0 mph3.2 kmh 30.10 in1019.3 mb 0.00 in0.0 mm 0.00 in0.0 mm 0.10 in2.5 mm
06:03 AM 53.9°F12.2°C 55.7°F13.2°C 82% 0.9 mph W1.4 kmh W 1.1 mph1.8 kmh 30.10 in1019.3 mb 0.00 in0.0 mm 0.00 in0.0 mm 0.10 in2.5 mm
06:05 AM 53.8°F12.1°C 55.5°F13.1°C 82% Calm Calm -- 30.10 in1019.3 mb 0.00 in0.0 mm 0.00 in0.0 mm 0.10 in2.5 mm
06:06 AM 53.9°F12.2°C 55.6°F13.1°C 82% Calm Calm -- 30.10 in1019.3 mb 0.00 in0.0 mm 0.00 in0.0 mm 0.10 in2.5 mm
06:08 AM 53.8°F12.1°C 55.4°F13.0°C 82% Calm Calm -- 30.10 in1019.3 mb 0.00 in0.0 mm 0.00 in0.0 mm 0.10 in2.5 mm
06:09 AM 53.8°F12.1°C 55.3°F12.9°C 81% 0.2 mph SW0.3 kmh SW 0.3 mph0.5 kmh 30.10 in1019.3 mb 0.00 in0.0 mm 0.00 in0.0 mm 0.10 in2.5 mm
06:11 AM 54.1°F12.3°C 55.5°F13.1°C 82% 2.0 mph WSW3.2 kmh WSW 2.0 mph3.2 kmh 30.11 in1019.6 mb 0.00 in0.0 mm 0.00 in0.0 mm 0.10 in2.5 mm
06:12 AM 54.2°F12.3°C 55.6°F13.1°C 82% 2.0 mph W3.2 kmh W 2.0 mph3.2 kmh 30.11 in1019.6 mb 0.00 in0.0 mm 0.00 in0.0 mm 0.10 in2.5 mm
06:14 AM 53.7°F12.1°C 55.6°F13.1°C 82% 5.3 mph W8.5 kmh W 5.3 mph8.5 kmh 30.11 in1019.6 mb 0.00 in0.0 mm 0.00 in0.0 mm 0.10 in2.5 mm
06:15 AM 53.8°F12.1°C 55.3°F12.9°C 82% 3.0 mph W4.8 kmh W 3.3 mph5.3 kmh 30.11 in1019.6 mb 0.00 in0.0 mm 0.00 in0.0 mm 0.10 in2.5 mm
06:17 AM 53.6°F12.0°C 55.1°F12.8°C 81% 5.7 mph SW9.2 kmh SW 5.7 mph9.2 kmh 30.12 in1020.0 mb 0.00 in0.0 mm 0.00 in0.0 mm 0.10 in2.5 mm
06:18 AM 53.6°F12.0°C 55.4°F13.0°C 82% 8.9 mph WSW14.3 kmh WSW 8.9 mph14.3 kmh 30.12 in1020.0 mb 0.00 in0.0 mm 0.00 in0.0 mm 0.10 in2.5 mm
06:20 AM 53.8°F12.1°C 55.2°F12.9°C 82% 1.2 mph S1.9 kmh S 1.2 mph1.9 kmh 30.12 in1020.0 mb 0.00 in0.0 mm 0.00 in0.0 mm 0.10 in2.5 mm
06:21 AM 53.7°F12.1°C 55.2°F12.9°C 81% 1.6 mph SW2.6 kmh SW 1.6 mph2.6 kmh 30.12 in1020.0 mb 0.00 in0.0 mm 0.00 in0.0 mm 0.10 in2.5 mm
06:23 AM 53.7°F12.1°C 55.2°F12.9°C 82% 3.6 mph WSW5.8 kmh WSW 3.7 mph6.0 kmh 30.12 in1020.0 mb 0.00 in0.0 mm 0.00 in0.0 mm 0.10 in2.5 mm
06:24 AM 53.6°F12.0°C 55.2°F12.9°C 82% 6.2 mph WSW10.0 kmh WSW 6.2 mph10.0 kmh 30.12 in1020.0 mb 0.00 in0.0 mm 0.00 in0.0 mm 0.10 in2.5 mm
06:26 AM 53.9°F12.2°C 55.2°F12.9°C 82% 11.2 mph WSW18.0 kmh WSW 11.3 mph18.2 kmh 30.12 in1020.0 mb 0.00 in0.0 mm 0.00 in0.0 mm 0.10 in2.5 mm
06:27 AM 53.9°F12.2°C 55.2°F12.9°C 82% 9.6 mph WSW15.4 kmh WSW 9.7 mph15.6 kmh 30.12 in1020.0 mb 0.00 in0.0 mm 0.00 in0.0 mm 0.10 in2.5 mm
06:29 AM 53.8°F12.1°C 55.1°F12.8°C 82% 7.7 mph W12.4 kmh W 7.8 mph12.6 kmh 30.14 in1020.7 mb 0.00 in0.0 mm 0.00 in0.0 mm 0.10 in2.5 mm
06:30 AM 53.8°F12.1°C 55.0°F12.8°C 81% 7.8 mph WSW12.6 kmh WSW 8.0 mph12.9 kmh 30.14 in1020.7 mb 0.00 in0.0 mm 0.00 in0.0 mm 0.10 in2.5 mm
06:32 AM 54.1°F12.3°C 55.1°F12.8°C 82% 5.2 mph WSW8.4 kmh WSW 5.2 mph8.4 kmh 30.14 in1020.7 mb 0.00 in0.0 mm 0.00 in0.0 mm 0.10 in2.5 mm
06:33 AM 54.1°F12.3°C 55.1°F12.8°C 82% 4.4 mph WSW7.1 kmh WSW 4.4 mph7.1 kmh 30.14 in1020.7 mb 0.00 in0.0 mm 0.00 in0.0 mm 0.10 in2.5 mm
06:35 AM 53.8°F12.1°C 54.9°F12.7°C 82% 4.4 mph W7.1 kmh W 4.5 mph7.2 kmh 30.14 in1020.7 mb 0.00 in0.0 mm 0.00 in0.0 mm 0.10 in2.5 mm
06:36 AM 53.9°F12.2°C 54.6°F12.6°C 81% 4.0 mph W6.4 kmh W 4.0 mph6.4 kmh 30.14 in1020.7 mb 0.00 in0.0 mm 0.00 in0.0 mm 0.10 in2.5 mm
06:38 AM 53.8°F12.1°C 54.7°F12.6°C 81% 4.0 mph SSW6.4 kmh SSW 4.1 mph6.6 kmh 30.14 in1020.7 mb 0.00 in0.0 mm 0.00 in0.0 mm 0.10 in2.5 mm
06:39 AM 53.8°F12.1°C 55.1°F12.8°C 82% 6.6 mph SSW10.6 kmh SSW 6.8 mph10.9 kmh 30.14 in1020.7 mb 0.00 in0.0 mm 0.00 in0.0 mm 0.10 in2.5 mm
06:41 AM 53.8°F12.1°C 55.0°F12.8°C 82% 2.8 mph W4.5 kmh W 2.8 mph4.5 kmh 30.14 in1020.7 mb 0.00 in0.0 mm 0.00 in0.0 mm 0.10 in2.5 mm
06:42 AM 53.8°F12.1°C 55.0°F12.8°C 82% 5.8 mph WSW9.3 kmh WSW 5.8 mph9.3 kmh 30.14 in1020.7 mb 0.00 in0.0 mm 0.00 in0.0 mm 0.10 in2.5 mm
06:44 AM 53.7°F12.1°C 54.8°F12.7°C 81% 4.0 mph SW6.4 kmh SW 4.0 mph6.4 kmh 30.14 in1020.7 mb 0.00 in0.0 mm 0.00 in0.0 mm 0.10 in2.5 mm
06:45 AM 53.7°F12.1°C 54.8°F12.7°C 81% 4.4 mph SW7.1 kmh SW 4.4 mph7.1 kmh 30.14 in1020.7 mb 0.00 in0.0 mm 0.00 in0.0 mm 0.10 in2.5 mm
06:47 AM 53.6°F12.0°C 54.7°F12.6°C 81% 7.2 mph SW11.6 kmh SW 7.2 mph11.6 kmh 30.14 in1020.7 mb 0.00 in0.0 mm 0.00 in0.0 mm 0.10 in2.5 mm
06:48 AM 53.6°F12.0°C 54.5°F12.5°C 80% 8.4 mph SW13.5 kmh SW 8.4 mph13.5 kmh 30.14 in1020.7 mb 0.00 in0.0 mm 0.00 in0.0 mm 0.10 in2.5 mm
06:50 AM 53.5°F11.9°C 54.5°F12.5°C 80% 9.6 mph SW15.4 kmh SW 9.7 mph15.6 kmh 30.14 in1020.7 mb 0.00 in0.0 mm 0.00 in0.0 mm 0.10 in2.5 mm
06:51 AM 53.5°F11.9°C 54.6°F12.6°C 81% 6.5 mph SW10.5 kmh SW 6.5 mph10.5 kmh 30.14 in1020.7 mb 0.00 in0.0 mm 0.00 in0.0 mm 0.10 in2.5 mm
06:53 AM 53.5°F11.9°C 54.5°F12.5°C 81% Calm Calm -- 30.14 in1020.7 mb 0.00 in0.0 mm 0.00 in0.0 mm 0.10 in2.5 mm
06:54 AM 53.5°F11.9°C 54.5°F12.5°C 81% 0.2 mph SW0.3 kmh SW 0.3 mph0.5 kmh 30.14 in1020.7 mb 0.00 in0.0 mm 0.00 in0.0 mm 0.10 in2.5 mm
06:56 AM 53.5°F11.9°C 54.2°F12.3°C 80% 2.8 mph WSW4.5 kmh WSW 2.8 mph4.5 kmh 30.14 in1020.7 mb 0.00 in0.0 mm 0.00 in0.0 mm 0.10 in2.5 mm
06:57 AM 53.5°F11.9°C 54.1°F12.3°C 80% 1.5 mph W2.4 kmh W 1.5 mph2.4 kmh 30.13 in1020.3 mb 0.00 in0.0 mm 0.00 in0.0 mm 0.10 in2.5 mm
06:59 AM 53.5°F11.9°C 54.4°F12.4°C 80% 0.8 mph WNW1.3 kmh WNW 0.8 mph1.3 kmh 30.14 in1020.7 mb 0.00 in0.0 mm 0.00 in0.0 mm 0.10 in2.5 mm
07:00 AM 53.6°F12.0°C 54.5°F12.5°C 80% 0.6 mph W1.0 kmh W 0.6 mph1.0 kmh 30.14 in1020.7 mb 0.00 in0.0 mm 0.00 in0.0 mm 0.10 in2.5 mm
07:02 AM 53.8°F12.1°C 54.2°F12.3°C 79% 2.8 mph W4.5 kmh W 2.9 mph4.7 kmh 30.14 in1020.7 mb 0.00 in0.0 mm 0.00 in0.0 mm 0.10 in2.5 mm
07:03 AM 53.8°F12.1°C 54.2°F12.3°C 80% 1.6 mph WSW2.6 kmh WSW 1.6 mph2.6 kmh 30.14 in1020.7 mb 0.00 in0.0 mm 0.00 in0.0 mm 0.10 in2.5 mm
07:05 AM 54.4°F12.4°C 54.6°F12.6°C 80% 0.8 mph WNW1.3 kmh WNW 0.8 mph1.3 kmh 30.14 in1020.7 mb 0.00 in0.0 mm 0.00 in0.0 mm 0.10 in2.5 mm
07:06 AM 54.5°F12.5°C 54.5°F12.5°C 80% 0.7 mph WNW1.1 kmh WNW 0.7 mph1.1 kmh 30.14 in1020.7 mb 0.00 in0.0 mm 0.00 in0.0 mm 0.10 in2.5 mm
07:08 AM 54.7°F12.6°C 54.5°F12.5°C 80% 4.1 mph SSW6.6 kmh SSW 4.1 mph6.6 kmh 30.14 in1020.7 mb 0.00 in0.0 mm 0.00 in0.0 mm 0.10 in2.5 mm
07:09 AM 54.8°F12.7°C 54.5°F12.5°C 80% 3.0 mph SW4.8 kmh SW 3.0 mph4.8 kmh 30.14 in1020.7 mb 0.00 in0.0 mm 0.00 in0.0 mm 0.10 in2.5 mm
07:11 AM 55.2°F12.9°C 54.6°F12.6°C 79% 2.4 mph W3.9 kmh W 2.4 mph3.9 kmh 30.14 in1020.7 mb 0.00 in0.0 mm 0.00 in0.0 mm 0.10 in2.5 mm
07:12 AM 55.2°F12.9°C 54.5°F12.5°C 80% 4.0 mph WNW6.4 kmh WNW 4.1 mph6.6 kmh 30.14 in1020.7 mb 0.00 in0.0 mm 0.00 in0.0 mm 0.10 in2.5 mm
07:14 AM 54.6°F12.6°C 54.6°F12.6°C 79% 7.3 mph SW11.7 kmh SW 7.4 mph11.9 kmh 30.14 in1020.7 mb 0.00 in0.0 mm 0.00 in0.0 mm 0.10 in2.5 mm
07:15 AM 54.6°F12.6°C 54.6°F12.6°C 79% 5.8 mph SW9.3 kmh SW 5.8 mph9.3 kmh 30.14 in1020.7 mb 0.00 in0.0 mm 0.00 in0.0 mm 0.10 in2.5 mm
07:17 AM 54.6°F12.6°C 54.3°F12.4°C 79% 1.6 mph WSW2.6 kmh WSW 1.6 mph2.6 kmh 30.14 in1020.7 mb 0.00 in0.0 mm 0.00 in0.0 mm 0.10 in2.5 mm
07:18 AM 54.6°F12.6°C 54.1°F12.3°C 78% 2.7 mph WSW4.3 kmh WSW 2.7 mph4.3 kmh 30.14 in1020.7 mb 0.00 in0.0 mm 0.00 in0.0 mm 0.10 in2.5 mm
07:20 AM 55.1°F12.8°C 54.2°F12.3°C 79% 0.4 mph WSW0.6 kmh WSW 0.4 mph0.6 kmh 30.14 in1020.7 mb 0.00 in0.0 mm 0.00 in0.0 mm 0.10 in2.5 mm
07:21 AM 55.1°F12.8°C 54.4°F12.4°C 79% 0.7 mph WSW1.1 kmh WSW 0.8 mph1.3 kmh 30.14 in1020.7 mb 0.00 in0.0 mm 0.00 in0.0 mm 0.10 in2.5 mm
07:23 AM 55.6°F13.1°C 54.6°F12.6°C 79% 4.0 mph W6.4 kmh W 4.0 mph6.4 kmh 30.14 in1020.7 mb 0.00 in0.0 mm 0.00 in0.0 mm 0.10 in2.5 mm
07:24 AM 55.6°F13.1°C 54.7°F12.6°C 79% 3.5 mph W5.6 kmh W 3.5 mph5.6 kmh 30.14 in1020.7 mb 0.00 in0.0 mm 0.00 in0.0 mm 0.10 in2.5 mm
07:26 AM 56.3°F13.5°C 54.4°F12.4°C 78% 2.4 mph W3.9 kmh W 2.4 mph3.9 kmh 30.14 in1020.7 mb 0.00 in0.0 mm 0.00 in0.0 mm 0.10 in2.5 mm
07:27 AM 56.4°F13.6°C 54.8°F12.7°C 78% 1.3 mph SW2.1 kmh SW 1.3 mph2.1 kmh 30.14 in1020.7 mb 0.00 in0.0 mm 0.00 in0.0 mm 0.10 in2.5 mm
07:29 AM 56.2°F13.4°C 54.6°F12.6°C 78% 3.2 mph W5.1 kmh W 3.3 mph5.3 kmh 30.14 in1020.7 mb 0.00 in0.0 mm 0.00 in0.0 mm 0.10 in2.5 mm
07:30 AM 56.2°F13.4°C 54.3°F12.4°C 78% 3.4 mph SW5.5 kmh SW 3.4 mph5.5 kmh 30.14 in1020.7 mb 0.00 in0.0 mm 0.00 in0.0 mm 0.10 in2.5 mm
07:32 AM 56.2°F13.4°C 54.5°F12.5°C 77% 4.1 mph W6.6 kmh W 4.1 mph6.6 kmh 30.14 in1020.7 mb 0.00 in0.0 mm 0.00 in0.0 mm 0.10 in2.5 mm
07:33 AM 56.2°F13.4°C 54.4°F12.4°C 77% 4.2 mph WSW6.8 kmh WSW 4.4 mph7.1 kmh 30.14 in1020.7 mb 0.00 in0.0 mm 0.00 in0.0 mm 0.10 in2.5 mm
07:35 AM 56.6°F13.7°C 54.7°F12.6°C 77% 3.8 mph S6.1 kmh S 3.8 mph6.1 kmh 30.14 in1020.7 mb 0.00 in0.0 mm 0.00 in0.0 mm 0.10 in2.5 mm
07:36 AM 56.6°F13.7°C 54.6°F12.6°C 77% 2.3 mph WSW3.7 kmh WSW 2.3 mph3.7 kmh 30.14 in1020.7 mb 0.00 in0.0 mm 0.00 in0.0 mm 0.10 in2.5 mm
07:38 AM 56.6°F13.7°C 54.3°F12.4°C 77% 2.8 mph SW4.5 kmh SW 2.9 mph4.7 kmh 30.14 in1020.7 mb 0.00 in0.0 mm 0.00 in0.0 mm 0.10 in2.5 mm
07:39 AM 56.6°F13.7°C 54.2°F12.3°C 76% 1.8 mph W2.9 kmh W 1.8 mph2.9 kmh 30.14 in1020.7 mb 0.00 in0.0 mm 0.00 in0.0 mm 0.10 in2.5 mm
07:41 AM 56.4°F13.6°C 54.1°F12.3°C 76% 5.6 mph WSW9.0 kmh WSW 5.6 mph9.0 kmh 30.15 in1021.0 mb 0.00 in0.0 mm 0.00 in0.0 mm 0.10 in2.5 mm
07:42 AM 56.4°F13.6°C 53.9°F12.2°C 76% 5.6 mph W9.0 kmh W 5.6 mph9.0 kmh 30.15 in1021.0 mb 0.00 in0.0 mm 0.00 in0.0 mm 0.10 in2.5 mm
07:44 AM 56.1°F13.4°C 54.3°F12.4°C 76% 5.7 mph SW9.2 kmh SW 5.7 mph9.2 kmh 30.15 in1021.0 mb 0.00 in0.0 mm 0.00 in0.0 mm 0.10 in2.5 mm
07:45 AM 56.1°F13.4°C 54.2°F12.3°C 76% 6.1 mph WNW9.8 kmh WNW 6.1 mph9.8 kmh 30.15 in1021.0 mb 0.00 in0.0 mm 0.00 in0.0 mm 0.10 in2.5 mm
07:47 AM 56.9°F13.8°C 54.2°F12.3°C 76% 2.8 mph SW4.5 kmh SW 2.9 mph4.7 kmh 30.15 in1021.0 mb 0.00 in0.0 mm 0.00 in0.0 mm 0.10 in2.5 mm
07:48 AM 56.8°F13.8°C 54.3°F12.4°C 76% 6.0 mph WSW9.7 kmh WSW 6.0 mph9.7 kmh 30.15 in1021.0 mb 0.00 in0.0 mm 0.00 in0.0 mm 0.10 in2.5 mm
07:50 AM 56.8°F13.8°C 54.5°F12.5°C 76% 4.0 mph NNW6.4 kmh NNW 4.0 mph6.4 kmh 30.15 in1021.0 mb 0.00 in0.0 mm 0.00 in0.0 mm 0.10 in2.5 mm
07:51 AM 56.8°F13.8°C 54.0°F12.2°C 76% 3.2 mph SW5.1 kmh SW 3.2 mph5.1 kmh 30.15 in1021.0 mb 0.00 in0.0 mm 0.00 in0.0 mm 0.10 in2.5 mm
07:53 AM 57.3°F14.1°C 54.4°F12.4°C 76% 0.4 mph SW0.6 kmh SW 0.4 mph0.6 kmh 30.15 in1021.0 mb 0.00 in0.0 mm 0.00 in0.0 mm 0.10 in2.5 mm
07:54 AM 57.4°F14.1°C 54.5°F12.5°C 75% Calm Calm -- 30.15 in1021.0 mb 0.00 in0.0 mm 0.00 in0.0 mm 0.10 in2.5 mm
07:56 AM 57.2°F14.0°C 54.7°F12.6°C 76% 5.3 mph SW8.5 kmh SW 5.3 mph8.5 kmh 30.15 in1021.0 mb 0.00 in0.0 mm 0.00 in0.0 mm 0.10 in2.5 mm
07:57 AM 57.1°F13.9°C 54.6°F12.6°C 75% 6.0 mph SW9.7 kmh SW 6.0 mph9.7 kmh 30.15 in1021.0 mb 0.00 in0.0 mm 0.00 in0.0 mm 0.10 in2.5 mm
07:59 AM 57.0°F13.9°C 54.3°F12.4°C 75% 4.1 mph SW6.6 kmh SW 4.1 mph6.6 kmh 30.16 in1021.3 mb 0.00 in0.0 mm 0.00 in0.0 mm 0.10 in2.5 mm
08:00 AM 57.1°F13.9°C 54.2°F12.3°C 75% 6.2 mph SW10.0 kmh SW 6.2 mph10.0 kmh 30.15 in1021.0 mb 0.00 in0.0 mm 0.00 in0.0 mm 0.10 in2.5 mm
08:02 AM 56.6°F13.7°C 54.0°F12.2°C 74% 1.9 mph NNW3.1 kmh NNW 2.0 mph3.2 kmh 30.15 in1021.0 mb 0.00 in0.0 mm 0.00 in0.0 mm 0.10 in2.5 mm
08:03 AM 56.8°F13.8°C 54.1°F12.3°C 74% 3.4 mph W5.5 kmh W 3.6 mph5.8 kmh 30.16 in1021.3 mb 0.00 in0.0 mm 0.00 in0.0 mm 0.10 in2.5 mm
08:05 AM 56.6°F13.7°C 53.9°F12.2°C 74% 1.6 mph NNW2.6 kmh NNW 1.6 mph2.6 kmh 30.16 in1021.3 mb 0.00 in0.0 mm 0.00 in0.0 mm 0.10 in2.5 mm
08:06 AM 56.9°F13.8°C 54.1°F12.3°C 74% 1.6 mph NNW2.6 kmh NNW 1.6 mph2.6 kmh 30.15 in1021.0 mb 0.00 in0.0 mm 0.00 in0.0 mm 0.10 in2.5 mm
08:08 AM 56.3°F13.5°C 53.6°F12.0°C 72% 3.2 mph WSW5.1 kmh WSW 3.3 mph5.3 kmh 30.16 in1021.3 mb 0.00 in0.0 mm 0.00 in0.0 mm 0.10 in2.5 mm
08:09 AM 56.3°F13.5°C 53.6°F12.0°C 73% 2.6 mph SW4.2 kmh SW 2.8 mph4.5 kmh 30.16 in1021.3 mb 0.00 in0.0 mm 0.00 in0.0 mm 0.10 in2.5 mm
08:11 AM 56.4°F13.6°C 53.5°F11.9°C 73% 0.8 mph W1.3 kmh W 0.8 mph1.3 kmh 30.15 in1021.0 mb 0.00 in0.0 mm 0.00 in0.0 mm 0.10 in2.5 mm
08:12 AM 56.4°F13.6°C 53.6°F12.0°C 73% 0.9 mph SW1.4 kmh SW 0.9 mph1.4 kmh 30.16 in1021.3 mb 0.00 in0.0 mm 0.00 in0.0 mm 0.10 in2.5 mm
08:14 AM 56.1°F13.4°C 53.8°F12.1°C 73% 2.4 mph WSW3.9 kmh WSW 2.4 mph3.9 kmh 30.15 in1021.0 mb 0.00 in0.0 mm 0.00 in0.0 mm 0.10 in2.5 mm
08:15 AM 56.2°F13.4°C 53.9°F12.2°C 73% 4.0 mph W6.4 kmh W 4.0 mph6.4 kmh 30.15 in1021.0 mb 0.00 in0.0 mm 0.00 in0.0 mm 0.10 in2.5 mm
08:17 AM 55.7°F13.2°C 53.8°F12.1°C 73% 7.7 mph W12.4 kmh W 7.7 mph12.4 kmh 30.16 in1021.3 mb 0.00 in0.0 mm 0.00 in0.0 mm 0.10 in2.5 mm
08:18 AM 55.7°F13.2°C 53.3°F11.8°C 72% 5.1 mph W8.2 kmh W 5.4 mph8.7 kmh 30.15 in1021.0 mb 0.00 in0.0 mm 0.00 in0.0 mm 0.10 in2.5 mm
08:20 AM 56.0°F13.3°C 53.2°F11.8°C 72% 2.4 mph W3.9 kmh W 2.4 mph3.9 kmh 30.16 in1021.3 mb 0.00 in0.0 mm 0.00 in0.0 mm 0.10 in2.5 mm
08:21 AM 56.0°F13.3°C 53.4°F11.9°C 72% 2.0 mph W3.2 kmh W 2.0 mph3.2 kmh 30.16 in1021.3 mb 0.00 in0.0 mm 0.00 in0.0 mm 0.10 in2.5 mm
08:23 AM 56.4°F13.6°C 53.3°F11.8°C 72% 2.4 mph WSW3.9 kmh WSW 2.4 mph3.9 kmh 30.16 in1021.3 mb 0.00 in0.0 mm 0.00 in0.0 mm 0.10 in2.5 mm
08:24 AM 56.4°F13.6°C 53.3°F11.8°C 72% 4.1 mph SW6.6 kmh SW 4.1 mph6.6 kmh 30.16 in1021.3 mb 0.00 in0.0 mm 0.00 in0.0 mm 0.10 in2.5 mm
08:26 AM 56.4°F13.6°C 53.5°F11.9°C 73% 4.9 mph WSW7.9 kmh WSW 4.9 mph7.9 kmh 30.16 in1021.3 mb 0.00 in0.0 mm 0.00 in0.0 mm 0.10 in2.5 mm
08:27 AM 56.4°F13.6°C 53.7°F12.1°C 72% 4.2 mph WSW6.8 kmh WSW 4.2 mph6.8 kmh 30.16 in1021.3 mb 0.00 in0.0 mm 0.00 in0.0 mm 0.10 in2.5 mm
08:29 AM 56.1°F13.4°C 53.7°F12.1°C 73% 1.6 mph SW2.6 kmh SW 1.6 mph2.6 kmh 30.16 in1021.3 mb 0.00 in0.0 mm 0.00 in0.0 mm 0.10 in2.5 mm
08:32 AM 56.3°F13.5°C 53.6°F12.0°C 72% 3.6 mph SW5.8 kmh SW 3.7 mph6.0 kmh 30.16 in1021.3 mb 0.00 in0.0 mm 0.00 in0.0 mm 0.10 in2.5 mm
08:33 AM 56.4°F13.6°C 53.3°F11.8°C 72% 3.0 mph SW4.8 kmh SW 3.1 mph5.0 kmh 30.16 in1021.3 mb 0.00 in0.0 mm 0.00 in0.0 mm 0.10 in2.5 mm
08:35 AM 56.3°F13.5°C 53.2°F11.8°C 71% 5.6 mph SW9.0 kmh SW 5.6 mph9.0 kmh 30.16 in1021.3 mb 0.00 in0.0 mm 0.00 in0.0 mm 0.10 in2.5 mm
08:36 AM 56.3°F13.5°C 53.2°F11.8°C 72% 5.6 mph SW9.0 kmh SW 5.8 mph9.3 kmh 30.16 in1021.3 mb 0.00 in0.0 mm 0.00 in0.0 mm 0.10 in2.5 mm
08:38 AM 56.4°F13.6°C 53.0°F11.7°C 71% 2.6 mph NNW4.2 kmh NNW 2.6 mph4.2 kmh 30.16 in1021.3 mb 0.00 in0.0 mm 0.00 in0.0 mm 0.10 in2.5 mm
08:39 AM 56.4°F13.6°C 53.0°F11.7°C 71% 3.0 mph W4.8 kmh W 3.0 mph4.8 kmh 30.16 in1021.3 mb 0.00 in0.0 mm 0.00 in0.0 mm 0.10 in2.5 mm
08:41 AM 56.6°F13.7°C 53.5°F11.9°C 72% 6.4 mph NNW10.3 kmh NNW 6.4 mph10.3 kmh 30.16 in1021.3 mb 0.00 in0.0 mm 0.00 in0.0 mm 0.10 in2.5 mm
08:42 AM 56.5°F13.6°C 53.7°F12.1°C 72% 5.7 mph WSW9.2 kmh WSW 5.8 mph9.3 kmh 30.16 in1021.3 mb 0.00 in0.0 mm 0.00 in0.0 mm 0.10 in2.5 mm
08:44 AM 56.6°F13.7°C 53.4°F11.9°C 71% 3.6 mph W5.8 kmh W 3.7 mph6.0 kmh 30.16 in1021.3 mb 0.00 in0.0 mm 0.00 in0.0 mm 0.10 in2.5 mm
08:45 AM 56.8°F13.8°C 53.0°F11.7°C 71% 4.4 mph WSW7.1 kmh WSW 4.4 mph7.1 kmh 30.16 in1021.3 mb 0.00 in0.0 mm 0.00 in0.0 mm 0.10 in2.5 mm
08:47 AM 57.0°F13.9°C 53.5°F11.9°C 72% 2.0 mph WSW3.2 kmh WSW 2.0 mph3.2 kmh 30.16 in1021.3 mb 0.00 in0.0 mm 0.00 in0.0 mm 0.10 in2.5 mm
08:48 AM 57.0°F13.9°C 53.6°F12.0°C 72% 1.8 mph WSW2.9 kmh WSW 1.8 mph2.9 kmh 30.16 in1021.3 mb 0.00 in0.0 mm 0.00 in0.0 mm 0.10 in2.5 mm
08:50 AM 57.2°F14.0°C 53.7°F12.1°C 72% 2.4 mph SW3.9 kmh SW 2.5 mph4.0 kmh 30.16 in1021.3 mb 0.00 in0.0 mm 0.00 in0.0 mm 0.10 in2.5 mm
08:51 AM 57.4°F14.1°C 53.5°F11.9°C 72% 2.1 mph SW3.4 kmh SW 2.1 mph3.4 kmh 30.16 in1021.3 mb 0.00 in0.0 mm 0.00 in0.0 mm 0.10 in2.5 mm
08:53 AM 57.7°F14.3°C 53.9°F12.2°C 72% 2.4 mph SW3.9 kmh SW 2.4 mph3.9 kmh 30.16 in1021.3 mb 0.00 in0.0 mm 0.00 in0.0 mm 0.10 in2.5 mm
08:54 AM 57.8°F14.3°C 53.8°F12.1°C 72% 1.6 mph WSW2.6 kmh WSW 1.6 mph2.6 kmh 30.16 in1021.3 mb 0.00 in0.0 mm 0.00 in0.0 mm 0.10 in2.5 mm
08:56 AM 58.3°F14.6°C 54.6°F12.6°C 73% 1.6 mph SW2.6 kmh SW 1.6 mph2.6 kmh 30.16 in1021.3 mb 0.00 in0.0 mm 0.00 in0.0 mm 0.10 in2.5 mm
08:57 AM 58.3°F14.6°C 54.5°F12.5°C 73% 2.6 mph SW4.2 kmh SW 2.6 mph4.2 kmh 30.16 in1021.3 mb 0.00 in0.0 mm 0.00 in0.0 mm 0.10 in2.5 mm
08:59 AM 59.1°F15.1°C 54.7°F12.6°C 73% 3.6 mph WNW5.8 kmh WNW 3.7 mph6.0 kmh 30.16 in1021.3 mb 0.00 in0.0 mm 0.00 in0.0 mm 0.10 in2.5 mm
09:00 AM 59.0°F15.0°C 54.7°F12.6°C 73% 3.2 mph WSW5.1 kmh WSW 3.4 mph5.5 kmh 30.16 in1021.3 mb 0.00 in0.0 mm 0.00 in0.0 mm 0.10 in2.5 mm
09:02 AM 58.0°F14.4°C 54.5°F12.5°C 72% 2.4 mph SW3.9 kmh SW 2.4 mph3.9 kmh 30.16 in1021.3 mb 0.00 in0.0 mm 0.00 in0.0 mm 0.10 in2.5 mm
09:03 AM 58.0°F14.4°C 54.4°F12.4°C 72% 1.9 mph SW3.1 kmh SW 1.9 mph3.1 kmh 30.16 in1021.3 mb 0.00 in0.0 mm 0.00 in0.0 mm 0.10 in2.5 mm
09:05 AM 58.6°F14.8°C 55.0°F12.8°C 73% 3.2 mph SW5.1 kmh SW 3.3 mph5.3 kmh 30.16 in1021.3 mb 0.00 in0.0 mm 0.00 in0.0 mm 0.10 in2.5 mm
09:06 AM 58.4°F14.7°C 55.0°F12.8°C 73% 4.4 mph SW7.1 kmh SW 4.4 mph7.1 kmh 30.16 in1021.3 mb 0.00 in0.0 mm 0.00 in0.0 mm 0.10 in2.5 mm
09:08 AM 58.1°F14.5°C 54.2°F12.3°C 71% 6.8 mph NNW10.9 kmh NNW 6.9 mph11.1 kmh 30.16 in1021.3 mb 0.00 in0.0 mm 0.00 in0.0 mm 0.10 in2.5 mm
09:09 AM 58.1°F14.5°C 54.2°F12.3°C 71% 7.3 mph SW11.7 kmh SW 7.4 mph11.9 kmh 30.16 in1021.3 mb 0.00 in0.0 mm 0.00 in0.0 mm 0.10 in2.5 mm
09:11 AM 58.4°F14.7°C 54.3°F12.4°C 71% 2.8 mph SW4.5 kmh SW 2.9 mph4.7 kmh 30.16 in1021.3 mb 0.00 in0.0 mm 0.00 in0.0 mm 0.10 in2.5 mm
09:12 AM 58.4°F14.7°C 54.3°F12.4°C 71% 2.3 mph W3.7 kmh W 2.3 mph3.7 kmh 30.16 in1021.3 mb 0.00 in0.0 mm 0.00 in0.0 mm 0.10 in2.5 mm
09:14 AM 59.3°F15.2°C 55.0°F12.8°C 73% 1.2 mph W1.9 kmh W 1.2 mph1.9 kmh 30.16 in1021.3 mb 0.00 in0.0 mm 0.00 in0.0 mm 0.10 in2.5 mm
09:15 AM 59.3°F15.2°C 54.8°F12.7°C 72% 2.3 mph W3.7 kmh W 2.3 mph3.7 kmh 30.16 in1021.3 mb 0.00 in0.0 mm 0.00 in0.0 mm 0.10 in2.5 mm
09:17 AM 60.0°F15.6°C 55.1°F12.8°C 72% 3.2 mph WSW5.1 kmh WSW 3.2 mph5.1 kmh 30.16 in1021.3 mb 0.00 in0.0 mm 0.00 in0.0 mm 0.10 in2.5 mm
09:18 AM 60.0°F15.6°C 55.2°F12.9°C 72% 3.5 mph WSW5.6 kmh WSW 3.6 mph5.8 kmh 30.16 in1021.3 mb 0.00 in0.0 mm 0.00 in0.0 mm 0.10 in2.5 mm
09:20 AM 60.8°F16.0°C 55.4°F13.0°C 72% 2.0 mph W3.2 kmh W 2.0 mph3.2 kmh 30.16 in1021.3 mb 0.00 in0.0 mm 0.00 in0.0 mm 0.10 in2.5 mm
09:21 AM 60.8°F16.0°C 55.4°F13.0°C 72% 2.0 mph W3.2 kmh W 2.0 mph3.2 kmh 30.16 in1021.3 mb 0.00 in0.0 mm 0.00 in0.0 mm 0.10 in2.5 mm
09:23 AM 62.2°F16.8°C 56.2°F13.4°C 73% 4.9 mph SW7.9 kmh SW 4.9 mph7.9 kmh 30.16 in1021.3 mb 0.00 in0.0 mm 0.00 in0.0 mm 0.10 in2.5 mm
09:24 AM 62.2°F16.8°C 56.0°F13.3°C 73% 5.8 mph SW9.3 kmh SW 5.8 mph9.3 kmh 30.16 in1021.3 mb 0.00 in0.0 mm 0.00 in0.0 mm 0.10 in2.5 mm
09:26 AM 62.5°F16.9°C 55.6°F13.1°C 71% 2.4 mph W3.9 kmh W 2.4 mph3.9 kmh 30.16 in1021.3 mb 0.00 in0.0 mm 0.00 in0.0 mm 0.10 in2.5 mm
09:27 AM 62.2°F16.8°C 55.8°F13.2°C 71% 3.5 mph W5.6 kmh W 3.6 mph5.8 kmh 30.16 in1021.3 mb 0.00 in0.0 mm 0.00 in0.0 mm 0.10 in2.5 mm
09:29 AM 61.8°F16.6°C 55.5°F13.1°C 70% 4.0 mph W6.4 kmh W 4.0 mph6.4 kmh 30.16 in1021.3 mb 0.00 in0.0 mm 0.00 in0.0 mm 0.10 in2.5 mm
09:30 AM 61.6°F16.4°C 55.5°F13.1°C 70% 3.0 mph WNW4.8 kmh WNW 3.1 mph5.0 kmh 30.16 in1021.3 mb 0.00 in0.0 mm 0.00 in0.0 mm 0.10 in2.5 mm
09:32 AM 60.7°F15.9°C 55.4°F13.0°C 69% 3.2 mph NNW5.1 kmh NNW 3.2 mph5.1 kmh 30.16 in1021.3 mb 0.00 in0.0 mm 0.00 in0.0 mm 0.10 in2.5 mm
09:33 AM 60.5°F15.8°C 55.3°F12.9°C 68% 2.9 mph SW4.7 kmh SW 2.9 mph4.7 kmh 30.16 in1021.3 mb 0.00 in0.0 mm 0.00 in0.0 mm 0.10 in2.5 mm
09:35 AM 60.1°F15.6°C 55.1°F12.8°C 68% 5.0 mph WNW8.0 kmh WNW 5.0 mph8.0 kmh 30.17 in1021.7 mb 0.00 in0.0 mm 0.00 in0.0 mm 0.10 in2.5 mm
09:36 AM 59.8°F15.4°C 54.9°F12.7°C 68% 3.7 mph SSW6.0 kmh SSW 3.8 mph6.1 kmh 30.17 in1021.7 mb 0.00 in0.0 mm 0.00 in0.0 mm 0.10 in2.5 mm
09:38 AM 59.5°F15.3°C 54.9°F12.7°C 68% 5.9 mph W9.5 kmh W 6.0 mph9.7 kmh 30.17 in1021.7 mb 0.00 in0.0 mm 0.00 in0.0 mm 0.10 in2.5 mm
09:39 AM 59.5°F15.3°C 55.1°F12.8°C 68% 5.6 mph SW9.0 kmh SW 5.6 mph9.0 kmh 30.17 in1021.7 mb 0.00 in0.0 mm 0.00 in0.0 mm 0.10 in2.5 mm
09:41 AM 62.2°F16.8°C 55.1°F12.8°C 69% 2.0 mph W3.2 kmh W 2.0 mph3.2 kmh 30.17 in1021.7 mb 0.00 in0.0 mm 0.00 in0.0 mm 0.10 in2.5 mm
09:42 AM 62.0°F16.7°C 55.1°F12.8°C 68% 2.9 mph W4.7 kmh W 2.9 mph4.7 kmh 30.17 in1021.7 mb 0.00 in0.0 mm 0.00 in0.0 mm 0.10 in2.5 mm
09:44 AM 63.7°F17.6°C 56.0°F13.3°C 70% 4.1 mph WSW6.6 kmh WSW 4.1 mph6.6 kmh 30.17 in1021.7 mb 0.00 in0.0 mm 0.00 in0.0 mm 0.10 in2.5 mm
09:45 AM 63.6°F17.6°C 56.2°F13.4°C 70% 3.5 mph W5.6 kmh W 3.6 mph5.8 kmh 30.17 in1021.7 mb 0.00 in0.0 mm 0.00 in0.0 mm 0.10 in2.5 mm
09:47 AM 62.2°F16.8°C 55.8°F13.2°C 69% 3.2 mph NW5.1 kmh NW 3.2 mph5.1 kmh 30.17 in1021.7 mb 0.00 in0.0 mm 0.00 in0.0 mm 0.10 in2.5 mm
09:48 AM 62.0°F16.7°C 55.9°F13.3°C 69% 2.6 mph NW4.2 kmh NW 2.6 mph4.2 kmh 30.18 in1022.0 mb 0.00 in0.0 mm 0.00 in0.0 mm 0.10 in2.5 mm
09:50 AM 62.9°F17.2°C 55.9°F13.3°C 68% 2.0 mph WSW3.2 kmh WSW 2.0 mph3.2 kmh 30.18 in1022.0 mb 0.00 in0.0 mm 0.00 in0.0 mm 0.10 in2.5 mm
09:51 AM 63.2°F17.3°C 56.0°F13.3°C 69% 2.3 mph WNW3.7 kmh WNW 2.5 mph4.0 kmh 30.18 in1022.0 mb 0.00 in0.0 mm 0.00 in0.0 mm 0.10 in2.5 mm
09:53 AM 63.4°F17.4°C 55.9°F13.3°C 68% 5.2 mph WSW8.4 kmh WSW 5.2 mph8.4 kmh 30.17 in1021.7 mb 0.00 in0.0 mm 0.00 in0.0 mm 0.10 in2.5 mm
09:54 AM 63.4°F17.4°C 56.1°F13.4°C 68% 5.9 mph WSW9.5 kmh WSW 5.9 mph9.5 kmh 30.18 in1022.0 mb 0.00 in0.0 mm 0.00 in0.0 mm 0.10 in2.5 mm
09:56 AM 63.3°F17.4°C 56.0°F13.3°C 67% 7.2 mph SW11.6 kmh SW 7.2 mph11.6 kmh 30.18 in1022.0 mb 0.00 in0.0 mm 0.00 in0.0 mm 0.10 in2.5 mm
09:57 AM 63.3°F17.4°C 56.1°F13.4°C 67% 4.6 mph SW7.4 kmh SW 4.7 mph7.6 kmh 30.17 in1021.7 mb 0.00 in0.0 mm 0.00 in0.0 mm 0.10 in2.5 mm
09:59 AM 61.4°F16.3°C 55.5°F13.1°C 66% 6.2 mph SW10.0 kmh SW 6.3 mph10.1 kmh 30.17 in1021.7 mb 0.00 in0.0 mm 0.00 in0.0 mm 0.10 in2.5 mm
10:00 AM 61.3°F16.3°C 55.4°F13.0°C 66% 7.7 mph SW12.4 kmh SW 7.9 mph12.7 kmh 30.17 in1021.7 mb 0.00 in0.0 mm 0.00 in0.0 mm 0.10 in2.5 mm
10:02 AM 60.9°F16.1°C 55.5°F13.1°C 66% 4.0 mph SW6.4 kmh SW 4.0 mph6.4 kmh 30.17 in1021.7 mb 0.00 in0.0 mm 0.00 in0.0 mm 0.10 in2.5 mm
10:03 AM 60.7°F15.9°C 55.5°F13.1°C 66% 5.6 mph WSW9.0 kmh WSW 5.6 mph9.0 kmh 30.17 in1021.7 mb 0.00 in0.0 mm 0.00 in0.0 mm 0.10 in2.5 mm
10:05 AM 60.4°F15.8°C 55.4°F13.0°C 67% 10.1 mph W16.3 kmh W 10.2 mph16.4 kmh 30.17 in1021.7 mb 0.00 in0.0 mm 0.00 in0.0 mm 0.10 in2.5 mm
10:06 AM 60.1°F15.6°C 55.9°F13.3°C 67% 7.8 mph W12.6 kmh W 7.8 mph12.6 kmh 30.16 in1021.3 mb 0.00 in0.0 mm 0.00 in0.0 mm 0.10 in2.5 mm
10:08 AM 59.6°F15.3°C 55.4°F13.0°C 67% 8.5 mph WSW13.7 kmh WSW 8.6 mph13.8 kmh 30.17 in1021.7 mb 0.00 in0.0 mm 0.00 in0.0 mm 0.10 in2.5 mm
10:09 AM 59.1°F15.1°C 55.6°F13.1°C 67% 8.2 mph SW13.2 kmh SW 8.2 mph13.2 kmh 30.17 in1021.7 mb 0.00 in0.0 mm 0.00 in0.0 mm 0.10 in2.5 mm
10:11 AM 59.9°F15.5°C 55.3°F12.9°C 66% 4.4 mph WNW7.1 kmh WNW 4.5 mph7.2 kmh 30.18 in1022.0 mb 0.00 in0.0 mm 0.00 in0.0 mm 0.10 in2.5 mm
10:12 AM 60.0°F15.6°C 55.3°F12.9°C 66% 3.5 mph NW5.6 kmh NW 3.5 mph5.6 kmh 30.18 in1022.0 mb 0.00 in0.0 mm 0.00 in0.0 mm 0.10 in2.5 mm
10:14 AM 61.5°F16.4°C 55.0°F12.8°C 66% 0.8 mph W1.3 kmh W 0.8 mph1.3 kmh 30.18 in1022.0 mb 0.00 in0.0 mm 0.00 in0.0 mm 0.10 in2.5 mm
10:15 AM 61.5°F16.4°C 55.1°F12.8°C 66% Calm Calm -- 30.18 in1022.0 mb 0.00 in0.0 mm 0.00 in0.0 mm 0.10 in2.5 mm
10:17 AM 60.5°F15.8°C 55.4°F13.0°C 66% 5.7 mph SW9.2 kmh SW 5.7 mph9.2 kmh 30.18 in1022.0 mb 0.00 in0.0 mm 0.00 in0.0 mm 0.10 in2.5 mm
10:18 AM 60.2°F15.7°C 55.7°F13.2°C 67% 6.1 mph WSW9.8 kmh WSW 6.1 mph9.8 kmh 30.18 in1022.0 mb 0.00 in0.0 mm 0.00 in0.0 mm 0.10 in2.5 mm
10:20 AM 60.6°F15.9°C 55.4°F13.0°C 66% 4.9 mph NW7.9 kmh NW 4.9 mph7.9 kmh 30.18 in1022.0 mb 0.00 in0.0 mm 0.00 in0.0 mm 0.10 in2.5 mm
10:21 AM 60.4°F15.8°C 55.4°F13.0°C 66% 4.4 mph NW7.1 kmh NW 4.4 mph7.1 kmh 30.18 in1022.0 mb 0.00 in0.0 mm 0.00 in0.0 mm 0.10 in2.5 mm
10:23 AM 59.8°F15.4°C 55.2°F12.9°C 66% 6.4 mph NW10.3 kmh NW 6.4 mph10.3 kmh 30.18 in1022.0 mb 0.00 in0.0 mm 0.00 in0.0 mm 0.10 in2.5 mm
10:24 AM 59.6°F15.3°C 55.2°F12.9°C 66% 4.7 mph WNW7.6 kmh WNW 4.8 mph7.7 kmh 30.18 in1022.0 mb 0.00 in0.0 mm 0.00 in0.0 mm 0.10 in2.5 mm
10:26 AM 60.0°F15.6°C 55.2°F12.9°C 66% 6.5 mph NW10.5 kmh NW 6.5 mph10.5 kmh 30.18 in1022.0 mb 0.00 in0.0 mm 0.00 in0.0 mm 0.10 in2.5 mm
10:27 AM 60.1°F15.6°C 55.0°F12.8°C 65% 5.2 mph WNW8.4 kmh WNW 5.5 mph8.9 kmh 30.18 in1022.0 mb 0.00 in0.0 mm 0.00 in0.0 mm 0.10 in2.5 mm
10:29 AM 59.3°F15.2°C 54.6°F12.6°C 65% 9.5 mph NW15.3 kmh NW 9.5 mph15.3 kmh 30.18 in1022.0 mb 0.00 in0.0 mm 0.00 in0.0 mm 0.10 in2.5 mm
10:30 AM 59.3°F15.2°C 54.6°F12.6°C 65% 11.0 mph WNW17.7 kmh WNW 11.0 mph17.7 kmh 30.18 in1022.0 mb 0.00 in0.0 mm 0.00 in0.0 mm 0.10 in2.5 mm
10:32 AM 60.1°F15.6°C 54.5°F12.5°C 64% 2.0 mph NW3.2 kmh NW 2.0 mph3.2 kmh 30.18 in1022.0 mb 0.00 in0.0 mm 0.00 in0.0 mm 0.10 in2.5 mm
10:33 AM 60.1°F15.6°C 54.7°F12.6°C 64% 2.3 mph W3.7 kmh W 2.3 mph3.7 kmh 30.18 in1022.0 mb 0.00 in0.0 mm 0.00 in0.0 mm 0.10 in2.5 mm
10:35 AM 59.9°F15.5°C 54.5°F12.5°C 64% 9.2 mph SSW14.8 kmh SSW 9.2 mph14.8 kmh 30.18 in1022.0 mb 0.00 in0.0 mm 0.00 in0.0 mm 0.10 in2.5 mm
10:36 AM 59.7°F15.4°C 54.1°F12.3°C 63% 5.4 mph SW8.7 kmh SW 5.4 mph8.7 kmh 30.18 in1022.0 mb 0.00 in0.0 mm 0.00 in0.0 mm 0.10 in2.5 mm
10:38 AM 59.2°F15.1°C 52.9°F11.6°C 61% 11.5 mph NNW18.5 kmh NNW 11.6 mph18.7 kmh 30.18 in1022.0 mb 0.00 in0.0 mm 0.00 in0.0 mm 0.10 in2.5 mm
10:39 AM 59.2°F15.1°C 52.7°F11.5°C 60% 11.1 mph NNW17.9 kmh NNW 11.1 mph17.9 kmh 30.18 in1022.0 mb 0.00 in0.0 mm 0.00 in0.0 mm 0.10 in2.5 mm
10:41 AM 61.1°F16.2°C 54.6°F12.6°C 64% 6.9 mph W11.1 kmh W 6.9 mph11.1 kmh 30.18 in1022.0 mb 0.00 in0.0 mm 0.00 in0.0 mm 0.10 in2.5 mm
10:44 AM 62.6°F17.0°C 55.8°F13.2°C 65% 4.4 mph SW7.1 kmh SW 4.4 mph7.1 kmh 30.18 in1022.0 mb 0.00 in0.0 mm 0.00 in0.0 mm 0.10 in2.5 mm
10:45 AM 62.8°F17.1°C 55.1°F12.8°C 64% 4.9 mph SW7.9 kmh SW 4.9 mph7.9 kmh 30.18 in1022.0 mb 0.00 in0.0 mm 0.00 in0.0 mm 0.10 in2.5 mm
10:47 AM 63.2°F17.3°C 56.4°F13.6°C 65% 6.5 mph NW10.5 kmh NW 6.5 mph10.5 kmh 30.18 in1022.0 mb 0.00 in0.0 mm 0.00 in0.0 mm 0.10 in2.5 mm
10:48 AM 63.2°F17.3°C 56.4°F13.6°C 64% 3.7 mph WNW6.0 kmh WNW 3.8 mph6.1 kmh 30.18 in1022.0 mb 0.00 in0.0 mm 0.00 in0.0 mm 0.10 in2.5 mm
10:50 AM 64.0°F17.8°C 55.2°F12.9°C 61% 7.7 mph W12.4 kmh W 7.7 mph12.4 kmh 30.18 in1022.0 mb 0.00 in0.0 mm 0.00 in0.0 mm 0.10 in2.5 mm
10:51 AM 64.0°F17.8°C 55.6°F13.1°C 61% 7.6 mph W12.2 kmh W 7.6 mph12.2 kmh 30.18 in1022.0 mb 0.00 in0.0 mm 0.00 in0.0 mm 0.10 in2.5 mm
10:53 AM 64.7°F18.2°C 56.7°F13.7°C 63% 4.5 mph NW7.2 kmh NW 4.5 mph7.2 kmh 30.18 in1022.0 mb 0.00 in0.0 mm 0.00 in0.0 mm 0.10 in2.5 mm
10:54 AM 64.7°F18.2°C 56.8°F13.8°C 62% 4.4 mph NW7.1 kmh NW 4.4 mph7.1 kmh 30.18 in1022.0 mb 0.00 in0.0 mm 0.00 in0.0 mm 0.10 in2.5 mm
10:56 AM 64.4°F18.0°C 56.1°F13.4°C 59% 9.5 mph SW15.3 kmh SW 9.6 mph15.4 kmh 30.18 in1022.0 mb 0.00 in0.0 mm 0.00 in0.0 mm 0.10 in2.5 mm
10:57 AM 64.3°F17.9°C 56.1°F13.4°C 59% 9.6 mph W15.4 kmh W 9.6 mph15.4 kmh 30.18 in1022.0 mb 0.00 in0.0 mm 0.00 in0.0 mm 0.10 in2.5 mm
10:59 AM 63.7°F17.6°C 55.5°F13.1°C 57% 7.2 mph W11.6 kmh W 7.2 mph11.6 kmh 30.18 in1022.0 mb 0.00 in0.0 mm 0.00 in0.0 mm 0.10 in2.5 mm
11:00 AM 63.7°F17.6°C 55.4°F13.0°C 57% 8.3 mph NW13.4 kmh NW 8.3 mph13.4 kmh 30.18 in1022.0 mb 0.00 in0.0 mm 0.00 in0.0 mm 0.10 in2.5 mm
11:02 AM 63.2°F17.3°C 54.4°F12.4°C 55% 12.7 mph W20.4 kmh W 12.7 mph20.4 kmh 30.18 in1022.0 mb 0.00 in0.0 mm 0.00 in0.0 mm 0.10 in2.5 mm
11:03 AM 63.1°F17.3°C 53.9°F12.2°C 54% 9.8 mph WSW15.8 kmh WSW 9.9 mph15.9 kmh 30.18 in1022.0 mb 0.00 in0.0 mm 0.00 in0.0 mm 0.10 in2.5 mm
11:05 AM 64.6°F18.1°C 55.2°F12.9°C 57% 3.6 mph WSW5.8 kmh WSW 3.6 mph5.8 kmh 30.18 in1022.0 mb 0.00 in0.0 mm 0.00 in0.0 mm 0.10 in2.5 mm
11:06 AM 64.7°F18.2°C 55.9°F13.3°C 58% 5.4 mph WNW8.7 kmh WNW 5.5 mph8.9 kmh 30.18 in1022.0 mb 0.00 in0.0 mm 0.00 in0.0 mm 0.10 in2.5 mm
11:08 AM 64.7°F18.2°C 54.4°F12.4°C 54% 12.3 mph NNW19.8 kmh NNW 12.3 mph19.8 kmh 30.18 in1022.0 mb 0.00 in0.0 mm 0.00 in0.0 mm 0.10 in2.5 mm
11:09 AM 64.7°F18.2°C 54.6°F12.6°C 54% 12.4 mph NNW20.0 kmh NNW 12.5 mph20.1 kmh 30.18 in1022.0 mb 0.00 in0.0 mm 0.00 in0.0 mm 0.10 in2.5 mm
11:11 AM 64.6°F18.1°C 54.6°F12.6°C 54% 4.8 mph WNW7.7 kmh WNW 4.8 mph7.7 kmh 30.18 in1022.0 mb 0.00 in0.0 mm 0.00 in0.0 mm 0.10 in2.5 mm
11:12 AM 64.7°F18.2°C 54.4°F12.4°C 54% 4.7 mph WSW7.6 kmh WSW 4.7 mph7.6 kmh 30.19 in1022.4 mb 0.00 in0.0 mm 0.00 in0.0 mm 0.10 in2.5 mm
11:14 AM 64.5°F18.1°C 54.3°F12.4°C 53% 7.0 mph NNW11.3 kmh NNW 7.0 mph11.3 kmh 30.19 in1022.4 mb 0.00 in0.0 mm 0.00 in0.0 mm 0.10 in2.5 mm
11:15 AM 64.7°F18.2°C 54.6°F12.6°C 54% 6.5 mph W10.5 kmh W 6.5 mph10.5 kmh 30.18 in1022.0 mb 0.00 in0.0 mm 0.00 in0.0 mm 0.10 in2.5 mm
11:17 AM 65.6°F18.7°C 54.9°F12.7°C 54% 5.2 mph WSW8.4 kmh WSW 5.3 mph8.5 kmh 30.18 in1022.0 mb 0.00 in0.0 mm 0.00 in0.0 mm 0.10 in2.5 mm
11:18 AM 65.5°F18.6°C 55.4°F13.0°C 54% 4.7 mph W7.6 kmh W 4.7 mph7.6 kmh 30.18 in1022.0 mb 0.00 in0.0 mm 0.00 in0.0 mm 0.10 in2.5 mm
11:20 AM 65.3°F18.5°C 55.5°F13.1°C 53% 5.7 mph WSW9.2 kmh WSW 5.7 mph9.2 kmh 30.18 in1022.0 mb 0.00 in0.0 mm 0.00 in0.0 mm 0.10 in2.5 mm
11:21 AM 65.4°F18.6°C 55.6°F13.1°C 53% 4.2 mph WNW6.8 kmh WNW 4.2 mph6.8 kmh 30.18 in1022.0 mb 0.00 in0.0 mm 0.00 in0.0 mm 0.10 in2.5 mm
11:23 AM 65.4°F18.6°C 56.3°F13.5°C 53% 7.3 mph WSW11.7 kmh WSW 7.3 mph11.7 kmh 30.19 in1022.4 mb 0.00 in0.0 mm 0.00 in0.0 mm 0.10 in2.5 mm
11:24 AM 65.5°F18.6°C 56.2°F13.4°C 53% 8.9 mph W14.3 kmh W 8.9 mph14.3 kmh 30.18 in1022.0 mb 0.00 in0.0 mm 0.00 in0.0 mm 0.10 in2.5 mm
11:26 AM 65.3°F18.5°C 56.8°F13.8°C 53% 4.5 mph SW7.2 kmh SW 4.5 mph7.2 kmh 30.18 in1022.0 mb 0.00 in0.0 mm 0.00 in0.0 mm 0.10 in2.5 mm
11:27 AM 65.4°F18.6°C 57.0°F13.9°C 54% 4.8 mph SSW7.7 kmh SSW 4.8 mph7.7 kmh 30.18 in1022.0 mb 0.00 in0.0 mm 0.00 in0.0 mm 0.10 in2.5 mm
11:29 AM 64.5°F18.1°C 53.7°F12.1°C 48% 6.0 mph W9.7 kmh W 6.1 mph9.8 kmh 30.19 in1022.4 mb 0.00 in0.0 mm 0.00 in0.0 mm 0.10 in2.5 mm
11:30 AM 64.7°F18.2°C 53.7°F12.1°C 48% 7.5 mph W12.1 kmh W 7.5 mph12.1 kmh 30.19 in1022.4 mb 0.00 in0.0 mm 0.00 in0.0 mm 0.10 in2.5 mm
11:32 AM 64.6°F18.1°C 53.4°F11.9°C 47% 11.3 mph WNW18.2 kmh WNW 11.4 mph18.3 kmh 30.19 in1022.4 mb 0.00 in0.0 mm 0.00 in0.0 mm 0.10 in2.5 mm
11:33 AM 64.5°F18.1°C 53.2°F11.8°C 47% 11.0 mph WNW17.7 kmh WNW 11.8 mph19.0 kmh 30.19 in1022.4 mb 0.00 in0.0 mm 0.00 in0.0 mm 0.10 in2.5 mm
11:35 AM 65.5°F18.6°C 54.7°F12.6°C 50% 7.3 mph W11.7 kmh W 7.4 mph11.9 kmh 30.19 in1022.4 mb 0.00 in0.0 mm 0.00 in0.0 mm 0.10 in2.5 mm
11:36 AM 65.5°F18.6°C 55.1°F12.8°C 50% 6.2 mph WSW10.0 kmh WSW 6.2 mph10.0 kmh 30.19 in1022.4 mb 0.00 in0.0 mm 0.00 in0.0 mm 0.10 in2.5 mm
11:38 AM 65.9°F18.8°C 55.9°F13.3°C 51% 6.0 mph W9.7 kmh W 6.1 mph9.8 kmh 30.19 in1022.4 mb 0.00 in0.0 mm 0.00 in0.0 mm 0.10 in2.5 mm
11:39 AM 66.0°F18.9°C 55.9°F13.3°C 52% 8.4 mph W13.5 kmh W 8.4 mph13.5 kmh 30.19 in1022.4 mb 0.00 in0.0 mm 0.00 in0.0 mm 0.10 in2.5 mm
11:41 AM 64.0°F17.8°C 55.3°F12.9°C 50% 4.9 mph NW7.9 kmh NW 4.9 mph7.9 kmh 30.19 in1022.4 mb 0.00 in0.0 mm 0.00 in0.0 mm 0.10 in2.5 mm
11:42 AM 64.2°F17.9°C 55.0°F12.8°C 50% 2.6 mph W4.2 kmh W 2.6 mph4.2 kmh 30.19 in1022.4 mb 0.00 in0.0 mm 0.00 in0.0 mm 0.10 in2.5 mm
11:44 AM 64.1°F17.8°C 53.4°F11.9°C 47% 4.8 mph W7.7 kmh W 4.8 mph7.7 kmh 30.19 in1022.4 mb 0.00 in0.0 mm 0.00 in0.0 mm 0.10 in2.5 mm
11:45 AM 64.1°F17.8°C 53.5°F11.9°C 47% 5.6 mph W9.0 kmh W 5.6 mph9.0 kmh 30.19 in1022.4 mb 0.00 in0.0 mm 0.00 in0.0 mm 0.10 in2.5 mm
11:47 AM 65.2°F18.4°C 55.0°F12.8°C 50% 8.5 mph NNW13.7 kmh NNW 8.6 mph13.8 kmh 30.19 in1022.4 mb 0.00 in0.0 mm 0.00 in0.0 mm 0.10 in2.5 mm
11:48 AM 65.4°F18.6°C 55.2°F12.9°C 51% 7.1 mph W11.4 kmh W 7.3 mph11.7 kmh 30.19 in1022.4 mb 0.00 in0.0 mm 0.00 in0.0 mm 0.10 in2.5 mm
11:50 AM 64.9°F18.3°C 52.8°F11.6°C 46% 3.5 mph NNW5.6 kmh NNW 3.5 mph5.6 kmh 30.19 in1022.4 mb 0.00 in0.0 mm 0.00 in0.0 mm 0.10 in2.5 mm
11:51 AM 65.0°F18.3°C 52.9°F11.6°C 46% 4.8 mph SW7.7 kmh SW 5.2 mph8.4 kmh 30.19 in1022.4 mb 0.00 in0.0 mm 0.00 in0.0 mm 0.10 in2.5 mm
11:53 AM 64.3°F17.9°C 53.7°F12.1°C 48% 3.2 mph WNW5.1 kmh WNW 3.2 mph5.1 kmh 30.19 in1022.4 mb 0.00 in0.0 mm 0.00 in0.0 mm 0.10 in2.5 mm
11:54 AM 64.4°F18.0°C 54.1°F12.3°C 48% 3.2 mph WNW5.1 kmh WNW 3.2 mph5.1 kmh 30.19 in1022.4 mb 0.00 in0.0 mm 0.00 in0.0 mm 0.10 in2.5 mm
11:56 AM 65.9°F18.8°C 53.9°F12.2°C 47% 6.5 mph NNW10.5 kmh NNW 6.5 mph10.5 kmh 30.19 in1022.4 mb 0.00 in0.0 mm 0.00 in0.0 mm 0.10 in2.5 mm
11:57 AM 65.8°F18.8°C 53.5°F11.9°C 47% 5.0 mph SW8.0 kmh SW 5.0 mph8.0 kmh 30.19 in1022.4 mb 0.00 in0.0 mm 0.00 in0.0 mm 0.10 in2.5 mm
11:59 AM 65.3°F18.5°C 53.4°F11.9°C 46% 9.7 mph NNW15.6 kmh NNW 9.8 mph15.8 kmh 30.19 in1022.4 mb 0.00 in0.0 mm 0.00 in0.0 mm 0.10 in2.5 mm
12:00 PM 65.4°F18.6°C 52.0°F11.1°C 44% 10.8 mph WNW17.4 kmh WNW 10.9 mph17.5 kmh 30.20 in1022.7 mb 0.00 in0.0 mm 0.00 in0.0 mm 0.10 in2.5 mm
12:02 PM 65.2°F18.4°C 52.8°F11.6°C 44% 6.5 mph NNW10.5 kmh NNW 6.5 mph10.5 kmh 30.19 in1022.4 mb 0.00 in0.0 mm 0.00 in0.0 mm 0.10 in2.5 mm
12:03 PM 65.1°F18.4°C 52.5°F11.4°C 44% 5.6 mph NNW9.0 kmh NNW 5.7 mph9.2 kmh 30.19 in1022.4 mb 0.00 in0.0 mm 0.00 in0.0 mm 0.10 in2.5 mm
12:05 PM 63.8°F17.7°C 52.5°F11.4°C 45% 6.2 mph NNW10.0 kmh NNW 6.2 mph10.0 kmh 30.19 in1022.4 mb 0.00 in0.0 mm 0.00 in0.0 mm 0.10 in2.5 mm
12:06 PM 63.7°F17.6°C 52.5°F11.4°C 45% 6.2 mph NW10.0 kmh NW 6.2 mph10.0 kmh 30.19 in1022.4 mb 0.00 in0.0 mm 0.00 in0.0 mm 0.10 in2.5 mm
12:08 PM 64.9°F18.3°C 53.3°F11.8°C 46% 4.4 mph W7.1 kmh W 4.4 mph7.1 kmh 30.19 in1022.4 mb 0.00 in0.0 mm 0.00 in0.0 mm 0.10 in2.5 mm
12:09 PM 65.0°F18.3°C 53.2°F11.8°C 46% 3.5 mph W5.6 kmh W 3.5 mph5.6 kmh 30.19 in1022.4 mb 0.00 in0.0 mm 0.00 in0.0 mm 0.10 in2.5 mm
12:11 PM 64.5°F18.1°C 52.7°F11.5°C 46% 6.4 mph WNW10.3 kmh WNW 6.4 mph10.3 kmh 30.20 in1022.7 mb 0.00 in0.0 mm 0.00 in0.0 mm 0.10 in2.5 mm
12:12 PM 64.5°F18.1°C 52.9°F11.6°C 46% 5.9 mph NW9.5 kmh NW 5.9 mph9.5 kmh 30.20 in1022.7 mb 0.00 in0.0 mm 0.00 in0.0 mm 0.10 in2.5 mm
12:14 PM 66.2°F19.0°C 53.8°F12.1°C 48% 7.6 mph NNW12.2 kmh NNW 7.7 mph12.4 kmh 30.20 in1022.7 mb 0.00 in0.0 mm 0.00 in0.0 mm 0.10 in2.5 mm
12:15 PM 66.3°F19.1°C 53.9°F12.2°C 48% 7.4 mph WSW11.9 kmh WSW 7.5 mph12.1 kmh 30.20 in1022.7 mb 0.00 in0.0 mm 0.00 in0.0 mm 0.10 in2.5 mm
12:17 PM 67.1°F19.5°C 55.7°F13.2°C 50% 4.0 mph WNW6.4 kmh WNW 4.1 mph6.6 kmh 30.19 in1022.4 mb 0.00 in0.0 mm 0.00 in0.0 mm 0.10 in2.5 mm
12:18 PM 67.0°F19.4°C 55.4°F13.0°C 49% 3.4 mph WNW5.5 kmh WNW 3.5 mph5.6 kmh 30.20 in1022.7 mb 0.00 in0.0 mm 0.00 in0.0 mm 0.10 in2.5 mm
12:20 PM 67.4°F19.7°C 55.5°F13.1°C 48% 6.0 mph SW9.7 kmh SW 6.0 mph9.7 kmh 30.20 in1022.7 mb 0.00 in0.0 mm 0.00 in0.0 mm 0.10 in2.5 mm
12:21 PM 67.6°F19.8°C 55.7°F13.2°C 48% 4.9 mph WSW7.9 kmh WSW 4.9 mph7.9 kmh 30.19 in1022.4 mb 0.00 in0.0 mm 0.00 in0.0 mm 0.10 in2.5 mm
12:23 PM 66.9°F19.4°C 54.9°F12.7°C 47% 2.0 mph SW3.2 kmh SW 2.0 mph3.2 kmh 30.19 in1022.4 mb 0.00 in0.0 mm 0.00 in0.0 mm 0.10 in2.5 mm
12:24 PM 66.9°F19.4°C 55.2°F12.9°C 47% 2.6 mph W4.2 kmh W 2.6 mph4.2 kmh 30.20 in1022.7 mb 0.00 in0.0 mm 0.00 in0.0 mm 0.10 in2.5 mm
12:26 PM 65.8°F18.8°C 53.7°F12.1°C 45% 6.9 mph SW11.1 kmh SW 6.9 mph11.1 kmh 30.20 in1022.7 mb 0.00 in0.0 mm 0.00 in0.0 mm 0.10 in2.5 mm
12:27 PM 65.9°F18.8°C 54.1°F12.3°C 46% 7.0 mph WSW11.3 kmh WSW 7.4 mph11.9 kmh 30.19 in1022.4 mb 0.00 in0.0 mm 0.00 in0.0 mm 0.10 in2.5 mm
12:29 PM 66.5°F19.2°C 54.4°F12.4°C 46% 13.0 mph WNW20.9 kmh WNW 13.4 mph21.6 kmh 30.20 in1022.7 mb 0.00 in0.0 mm 0.00 in0.0 mm 0.10 in2.5 mm
12:30 PM 66.4°F19.1°C 53.8°F12.1°C 46% 8.4 mph WNW13.5 kmh WNW 8.4 mph13.5 kmh 30.20 in1022.7 mb 0.00 in0.0 mm 0.00 in0.0 mm 0.10 in2.5 mm
12:32 PM 67.1°F19.5°C 54.3°F12.4°C 46% 4.0 mph SW6.4 kmh SW 4.1 mph6.6 kmh 30.19 in1022.4 mb 0.00 in0.0 mm 0.00 in0.0 mm 0.10 in2.5 mm
12:33 PM 67.0°F19.4°C 54.6°F12.6°C 46% 7.6 mph W12.2 kmh W 7.6 mph12.2 kmh 30.19 in1022.4 mb 0.00 in0.0 mm 0.00 in0.0 mm 0.10 in2.5 mm
12:35 PM 66.0°F18.9°C 53.2°F11.8°C 44% 7.3 mph SW11.7 kmh SW 7.3 mph11.7 kmh 30.20 in1022.7 mb 0.00 in0.0 mm 0.00 in0.0 mm 0.10 in2.5 mm
12:36 PM 66.0°F18.9°C 53.0°F11.7°C 44% 7.0 mph SSW11.3 kmh SSW 7.0 mph11.3 kmh 30.19 in1022.4 mb 0.00 in0.0 mm 0.00 in0.0 mm 0.10 in2.5 mm
12:38 PM 65.6°F18.7°C 53.4°F11.9°C 45% 8.8 mph NNW14.2 kmh NNW 8.8 mph14.2 kmh 30.19 in1022.4 mb 0.00 in0.0 mm 0.00 in0.0 mm 0.10 in2.5 mm
12:39 PM 65.6°F18.7°C 53.4°F11.9°C 45% 9.1 mph WSW14.6 kmh WSW 9.1 mph14.6 kmh 30.19 in1022.4 mb 0.00 in0.0 mm 0.00 in0.0 mm 0.10 in2.5 mm
12:41 PM 65.8°F18.8°C 54.2°F12.3°C 46% 9.3 mph WSW15.0 kmh WSW 9.4 mph15.1 kmh 30.20 in1022.7 mb 0.00 in0.0 mm 0.00 in0.0 mm 0.10 in2.5 mm
12:42 PM 65.8°F18.8°C 54.5°F12.5°C 47% 7.7 mph WSW12.4 kmh WSW 7.9 mph12.7 kmh 30.20 in1022.7 mb 0.00 in0.0 mm 0.00 in0.0 mm 0.10 in2.5 mm
12:44 PM 66.5°F19.2°C 53.5°F11.9°C 45% 7.7 mph W12.4 kmh W 7.7 mph12.4 kmh 30.19 in1022.4 mb 0.00 in0.0 mm 0.00 in0.0 mm 0.10 in2.5 mm
12:45 PM 66.5°F19.2°C 53.5°F11.9°C 45% 6.0 mph W9.7 kmh W 6.2 mph10.0 kmh 30.19 in1022.4 mb 0.00 in0.0 mm 0.00 in0.0 mm 0.10 in2.5 mm
12:47 PM 67.0°F19.4°C 53.7°F12.1°C 44% 9.2 mph W14.8 kmh W 9.2 mph14.8 kmh 30.20 in1022.7 mb 0.00 in0.0 mm 0.00 in0.0 mm 0.10 in2.5 mm
12:48 PM 67.0°F19.4°C 53.7°F12.1°C 44% 11.5 mph W18.5 kmh W 11.6 mph18.7 kmh 30.20 in1022.7 mb 0.00 in0.0 mm 0.00 in0.0 mm 0.10 in2.5 mm
12:50 PM 67.7°F19.8°C 55.4°F13.0°C 46% 10.3 mph WSW16.6 kmh WSW 10.4 mph16.7 kmh 30.19 in1022.4 mb 0.00 in0.0 mm 0.00 in0.0 mm 0.10 in2.5 mm
12:51 PM 67.6°F19.8°C 55.2°F12.9°C 46% 7.0 mph WSW11.3 kmh WSW 7.0 mph11.3 kmh 30.20 in1022.7 mb 0.00 in0.0 mm 0.00 in0.0 mm 0.10 in2.5 mm
12:53 PM 68.1°F20.1°C 55.7°F13.2°C 46% 5.9 mph WSW9.5 kmh WSW 6.0 mph9.7 kmh 30.20 in1022.7 mb 0.00 in0.0 mm 0.00 in0.0 mm 0.10 in2.5 mm
12:54 PM 68.2°F20.1°C 55.6°F13.1°C 46% 4.8 mph W7.7 kmh W 4.9 mph7.9 kmh 30.20 in1022.7 mb 0.00 in0.0 mm 0.00 in0.0 mm 0.10 in2.5 mm
12:56 PM 67.3°F19.6°C 53.6°F12.0°C 42% 9.3 mph WSW15.0 kmh WSW 9.4 mph15.1 kmh 30.20 in1022.7 mb 0.00 in0.0 mm 0.00 in0.0 mm 0.10 in2.5 mm
12:57 PM 67.4°F19.7°C 53.3°F11.8°C 42% 6.0 mph NW9.7 kmh NW 6.1 mph9.8 kmh 30.19 in1022.4 mb 0.00 in0.0 mm 0.00 in0.0 mm 0.10 in2.5 mm
12:59 PM 66.9°F19.4°C 52.9°F11.6°C 42% 6.0 mph NW9.7 kmh NW 6.0 mph9.7 kmh 30.20 in1022.7 mb 0.00 in0.0 mm 0.00 in0.0 mm 0.10 in2.5 mm
01:00 PM 67.0°F19.4°C 53.2°F11.8°C 42% 6.7 mph NNW10.8 kmh NNW 6.7 mph10.8 kmh 30.20 in1022.7 mb 0.00 in0.0 mm 0.00 in0.0 mm 0.10 in2.5 mm
01:05 PM 67.8°F19.9°C 55.5°F13.1°C 46% 5.2 mph NNW8.4 kmh NNW 5.3 mph8.5 kmh 30.20 in1022.7 mb 0.00 in0.0 mm 0.00 in0.0 mm 0.10 in2.5 mm
01:06 PM 67.9°F19.9°C 55.7°F13.2°C 46% 7.1 mph NNW11.4 kmh NNW 7.3 mph11.7 kmh 30.20 in1022.7 mb 0.00 in0.0 mm 0.00 in0.0 mm 0.10 in2.5 mm
01:08 PM 66.8°F19.3°C 54.4°F12.4°C 44% 10.1 mph NNW16.3 kmh NNW 10.1 mph16.3 kmh 30.20 in1022.7 mb 0.00 in0.0 mm 0.00 in0.0 mm 0.10 in2.5 mm
01:09 PM 66.8°F19.3°C 54.6°F12.6°C 44% 9.9 mph NNW15.9 kmh NNW 9.9 mph15.9 kmh 30.20 in1022.7 mb 0.00 in0.0 mm 0.00 in0.0 mm 0.10 in2.5 mm
01:11 PM 67.0°F19.4°C 54.4°F12.4°C 43% 7.7 mph SW12.4 kmh SW 7.7 mph12.4 kmh 30.20 in1022.7 mb 0.00 in0.0 mm 0.00 in0.0 mm 0.10 in2.5 mm
01:12 PM 67.0°F19.4°C 54.5°F12.5°C 43% 8.0 mph W12.9 kmh W 8.0 mph12.9 kmh 30.20 in1022.7 mb 0.00 in0.0 mm 0.00 in0.0 mm 0.10 in2.5 mm
01:14 PM 67.2°F19.6°C 54.0°F12.2°C 43% 4.8 mph WSW7.7 kmh WSW 4.9 mph7.9 kmh 30.20 in1022.7 mb 0.00 in0.0 mm 0.00 in0.0 mm 0.10 in2.5 mm
01:15 PM 67.2°F19.6°C 54.1°F12.3°C 43% 4.6 mph WNW7.4 kmh WNW 4.7 mph7.6 kmh 30.20 in1022.7 mb 0.00 in0.0 mm 0.00 in0.0 mm 0.10 in2.5 mm
01:17 PM 67.7°F19.8°C 54.1°F12.3°C 42% 5.4 mph W8.7 kmh W 5.4 mph8.7 kmh 30.20 in1022.7 mb 0.00 in0.0 mm 0.00 in0.0 mm 0.10 in2.5 mm
01:18 PM 67.8°F19.9°C 54.0°F12.2°C 42% 9.0 mph W14.5 kmh W 9.0 mph14.5 kmh 30.20 in1022.7 mb 0.00 in0.0 mm 0.00 in0.0 mm 0.10 in2.5 mm
01:20 PM 66.8°F19.3°C 52.5°F11.4°C 41% 7.2 mph SW11.6 kmh SW 7.2 mph11.6 kmh 30.20 in1022.7 mb 0.00 in0.0 mm 0.00 in0.0 mm 0.10 in2.5 mm
01:21 PM 66.9°F19.4°C 52.5°F11.4°C 41% 5.4 mph W8.7 kmh W 5.7 mph9.2 kmh 30.20 in1022.7 mb 0.00 in0.0 mm 0.00 in0.0 mm 0.10 in2.5 mm
01:23 PM 66.1°F18.9°C 53.0°F11.7°C 41% 7.6 mph WSW12.2 kmh WSW 7.6 mph12.2 kmh 30.20 in1022.7 mb 0.00 in0.0 mm 0.00 in0.0 mm 0.10 in2.5 mm
01:24 PM 66.0°F18.9°C 52.6°F11.4°C 41% 7.5 mph SW12.1 kmh SW 7.7 mph12.4 kmh 30.20 in1022.7 mb 0.00 in0.0 mm 0.00 in0.0 mm 0.10 in2.5 mm
01:26 PM 66.5°F19.2°C 52.8°F11.6°C 41% 12.8 mph NNW20.6 kmh NNW 12.8 mph20.6 kmh 30.20 in1022.7 mb 0.00 in0.0 mm 0.00 in0.0 mm 0.10 in2.5 mm
01:27 PM 66.5°F19.2°C 52.1°F11.2°C 40% 12.9 mph NNW20.8 kmh NNW 13.2 mph21.2 kmh 30.20 in1022.7 mb 0.00 in0.0 mm 0.00 in0.0 mm 0.10 in2.5 mm
01:29 PM 66.9°F19.4°C 53.2°F11.8°C 42% 7.3 mph NW11.7 kmh NW 7.3 mph11.7 kmh 30.20 in1022.7 mb 0.00 in0.0 mm 0.00 in0.0 mm 0.10 in2.5 mm
01:30 PM 66.8°F19.3°C 52.8°F11.6°C 41% 6.3 mph WNW10.1 kmh WNW 6.4 mph10.3 kmh 30.20 in1022.7 mb 0.00 in0.0 mm 0.00 in0.0 mm 0.10 in2.5 mm
01:32 PM 67.1°F19.5°C 53.6°F12.0°C 42% 3.2 mph W5.1 kmh W 3.3 mph5.3 kmh 30.20 in1022.7 mb 0.00 in0.0 mm 0.00 in0.0 mm 0.10 in2.5 mm
01:33 PM 67.2°F19.6°C 53.5°F11.9°C 41% 5.2 mph W8.4 kmh W 5.2 mph8.4 kmh 30.20 in1022.7 mb 0.00 in0.0 mm 0.00 in0.0 mm 0.10 in2.5 mm
01:35 PM 67.7°F19.8°C 54.1°F12.3°C 42% 4.4 mph NNW7.1 kmh NNW 4.4 mph7.1 kmh 30.20 in1022.7 mb 0.00 in0.0 mm 0.00 in0.0 mm 0.10 in2.5 mm
01:36 PM 67.6°F19.8°C 53.5°F11.9°C 42% 6.5 mph WSW10.5 kmh WSW 6.5 mph10.5 kmh 30.20 in1022.7 mb 0.00 in0.0 mm 0.00 in0.0 mm 0.10 in2.5 mm
01:38 PM 67.1°F19.5°C 53.9°F12.2°C 42% 9.2 mph W14.8 kmh W 9.3 mph15.0 kmh 30.20 in1022.7 mb 0.00 in0.0 mm 0.00 in0.0 mm 0.10 in2.5 mm
01:39 PM 67.2°F19.6°C 53.7°F12.1°C 41% 10.0 mph WSW16.1 kmh WSW 10.0 mph16.1 kmh 30.20 in1022.7 mb 0.00 in0.0 mm 0.00 in0.0 mm 0.10 in2.5 mm
01:41 PM 68.0°F20.0°C 54.2°F12.3°C 43% 4.8 mph NW7.7 kmh NW 4.9 mph7.9 kmh 30.20 in1022.7 mb 0.00 in0.0 mm 0.00 in0.0 mm 0.10 in2.5 mm
01:42 PM 68.1°F20.1°C 53.7°F12.1°C 42% 4.0 mph W6.4 kmh W 4.1 mph6.6 kmh 30.20 in1022.7 mb 0.00 in0.0 mm 0.00 in0.0 mm 0.10 in2.5 mm
01:44 PM 68.0°F20.0°C 54.0°F12.2°C 42% 7.7 mph WSW12.4 kmh WSW 7.7 mph12.4 kmh 30.20 in1022.7 mb 0.00 in0.0 mm 0.00 in0.0 mm 0.10 in2.5 mm
01:45 PM 68.0°F20.0°C 54.1°F12.3°C 42% 7.6 mph NW12.2 kmh NW 7.6 mph12.2 kmh 30.20 in1022.7 mb 0.00 in0.0 mm 0.00 in0.0 mm 0.10 in2.5 mm
01:47 PM 67.8°F19.9°C 54.0°F12.2°C 42% 15.8 mph WNW25.4 kmh WNW 15.9 mph25.6 kmh 30.20 in1022.7 mb 0.00 in0.0 mm 0.00 in0.0 mm 0.10 in2.5 mm
01:48 PM 67.8°F19.9°C 53.6°F12.0°C 41% 11.2 mph WNW18.0 kmh WNW 11.2 mph18.0 kmh 30.20 in1022.7 mb 0.00 in0.0 mm 0.00 in0.0 mm 0.10 in2.5 mm
01:50 PM 67.7°F19.8°C 52.2°F11.2°C 39% 3.4 mph WNW5.5 kmh WNW 3.4 mph5.5 kmh 30.20 in1022.7 mb 0.00 in0.0 mm 0.00 in0.0 mm 0.10 in2.5 mm
01:51 PM 67.7°F19.8°C 52.2°F11.2°C 39% 6.9 mph WNW11.1 kmh WNW 7.0 mph11.3 kmh 30.20 in1022.7 mb 0.00 in0.0 mm 0.00 in0.0 mm 0.10 in2.5 mm
01:53 PM 66.7°F19.3°C 52.4°F11.3°C 39% 6.3 mph NW10.1 kmh NW 6.6 mph10.6 kmh 30.20 in1022.7 mb 0.00 in0.0 mm 0.00 in0.0 mm 0.10 in2.5 mm
01:54 PM 66.5°F19.2°C 52.4°F11.3°C 39% 5.5 mph WNW8.9 kmh WNW 5.8 mph9.3 kmh 30.20 in1022.7 mb 0.00 in0.0 mm 0.00 in0.0 mm 0.10 in2.5 mm
01:56 PM 66.7°F19.3°C 53.5°F11.9°C 41% 5.2 mph WNW8.4 kmh WNW 5.2 mph8.4 kmh 30.20 in1022.7 mb 0.00 in0.0 mm 0.00 in0.0 mm 0.10 in2.5 mm
01:57 PM 66.5°F19.2°C 53.7°F12.1°C 42% 8.4 mph NW13.5 kmh NW 8.4 mph13.5 kmh 30.20 in1022.7 mb 0.00 in0.0 mm 0.00 in0.0 mm 0.10 in2.5 mm
01:59 PM 67.0°F19.4°C 54.0°F12.2°C 43% 7.3 mph NW11.7 kmh NW 7.4 mph11.9 kmh 30.20 in1022.7 mb 0.00 in0.0 mm 0.00 in0.0 mm 0.10 in2.5 mm
02:02 PM 66.0°F18.9°C 53.1°F11.7°C 41% 5.7 mph W9.2 kmh W 5.7 mph9.2 kmh 30.20 in1022.7 mb 0.00 in0.0 mm 0.00 in0.0 mm 0.10 in2.5 mm
02:03 PM 66.1°F18.9°C 52.7°F11.5°C 41% 6.9 mph WSW11.1 kmh WSW 7.0 mph11.3 kmh 30.20 in1022.7 mb 0.00 in0.0 mm 0.00 in0.0 mm 0.10 in2.5 mm
02:08 PM 66.0°F18.9°C 51.6°F10.9°C 39% 4.6 mph W7.4 kmh W 4.6 mph7.4 kmh 30.20 in1022.7 mb 0.00 in0.0 mm 0.00 in0.0 mm 0.10 in2.5 mm
02:09 PM 66.0°F18.9°C 51.5°F10.8°C 38% 4.5 mph W7.2 kmh W 4.5 mph7.2 kmh 30.20 in1022.7 mb 0.00 in0.0 mm 0.00 in0.0 mm 0.10 in2.5 mm
02:11 PM 66.9°F19.4°C 52.7°F11.5°C 41% 8.1 mph NNW13.0 kmh NNW 8.2 mph13.2 kmh 30.20 in1022.7 mb 0.00 in0.0 mm 0.00 in0.0 mm 0.10 in2.5 mm
02:12 PM 67.0°F19.4°C 52.3°F11.3°C 41% 8.3 mph NNW13.4 kmh NNW 8.6 mph13.8 kmh 30.20 in1022.7 mb 0.00 in0.0 mm 0.00 in0.0 mm 0.10 in2.5 mm
02:14 PM 66.7°F19.3°C 53.6°F12.0°C 42% 6.1 mph NNW9.8 kmh NNW 6.1 mph9.8 kmh 30.20 in1022.7 mb 0.00 in0.0 mm 0.00 in0.0 mm 0.10 in2.5 mm
02:15 PM 66.7°F19.3°C 53.3°F11.8°C 42% 7.3 mph WSW11.7 kmh WSW 7.3 mph11.7 kmh 30.20 in1022.7 mb 0.00 in0.0 mm 0.00 in0.0 mm 0.10 in2.5 mm
02:17 PM 67.9°F19.9°C 55.0°F12.8°C 44% 2.4 mph W3.9 kmh W 2.4 mph3.9 kmh 30.20 in1022.7 mb 0.00 in0.0 mm 0.00 in0.0 mm 0.10 in2.5 mm
02:18 PM 68.0°F20.0°C 54.5°F12.5°C 43% 2.7 mph SW4.3 kmh SW 2.7 mph4.3 kmh 30.20 in1022.7 mb 0.00 in0.0 mm 0.00 in0.0 mm 0.10 in2.5 mm
02:20 PM 68.0°F20.0°C 54.0°F12.2°C 42% 4.4 mph NW7.1 kmh NW 4.4 mph7.1 kmh 30.20 in1022.7 mb 0.00 in0.0 mm 0.00 in0.0 mm 0.10 in2.5 mm
02:21 PM 68.1°F20.1°C 54.4°F12.4°C 43% 6.3 mph NW10.1 kmh NW 6.3 mph10.1 kmh 30.20 in1022.7 mb 0.00 in0.0 mm 0.00 in0.0 mm 0.10 in2.5 mm
02:23 PM 68.1°F20.1°C 54.4°F12.4°C 43% 6.0 mph WNW9.7 kmh WNW 6.1 mph9.8 kmh 30.20 in1022.7 mb 0.00 in0.0 mm 0.00 in0.0 mm 0.10 in2.5 mm
02:24 PM 68.1°F20.1°C 54.9°F12.7°C 42% 5.0 mph W8.0 kmh W 5.0 mph8.0 kmh 30.20 in1022.7 mb 0.00 in0.0 mm 0.00 in0.0 mm 0.10 in2.5 mm
02:26 PM 67.9°F19.9°C 52.5°F11.4°C 39% 6.4 mph SW10.3 kmh SW 6.4 mph10.3 kmh 30.20 in1022.7 mb 0.00 in0.0 mm 0.00 in0.0 mm 0.10 in2.5 mm
02:27 PM 67.8°F19.9°C 52.4°F11.3°C 39% 7.3 mph SW11.7 kmh SW 7.3 mph11.7 kmh 30.20 in1022.7 mb 0.00 in0.0 mm 0.00 in0.0 mm 0.10 in2.5 mm
02:29 PM 68.1°F20.1°C 53.8°F12.1°C 41% 6.0 mph WSW9.7 kmh WSW 6.0 mph9.7 kmh 30.20 in1022.7 mb 0.00 in0.0 mm 0.00 in0.0 mm 0.10 in2.5 mm
02:30 PM 68.1°F20.1°C 54.1°F12.3°C 41% 8.7 mph W14.0 kmh W 8.7 mph14.0 kmh 30.20 in1022.7 mb 0.00 in0.0 mm 0.00 in0.0 mm 0.10 in2.5 mm
02:32 PM 68.2°F20.1°C 54.6°F12.6°C 42% 5.3 mph NNW8.5 kmh NNW 5.3 mph8.5 kmh 30.20 in1022.7 mb 0.00 in0.0 mm 0.00 in0.0 mm 0.10 in2.5 mm
02:33 PM 68.2°F20.1°C 54.9°F12.7°C 43% 5.5 mph W8.9 kmh W 5.5 mph8.9 kmh 30.20 in1022.7 mb 0.00 in0.0 mm 0.00 in0.0 mm 0.10 in2.5 mm
02:38 PM 66.8°F19.3°C 52.6°F11.4°C 40% 20.3 mph SW32.7 kmh SW 20.3 mph32.7 kmh 30.20 in1022.7 mb 0.00 in0.0 mm 0.00 in0.0 mm 0.10 in2.5 mm
02:39 PM 66.5°F19.2°C 51.5°F10.8°C 39% 19.1 mph W30.7 kmh W 19.4 mph31.2 kmh 30.20 in1022.7 mb 0.00 in0.0 mm 0.00 in0.0 mm 0.10 in2.5 mm
02:41 PM 67.9°F19.9°C 53.1°F11.7°C 41% 5.2 mph W8.4 kmh W 5.2 mph8.4 kmh 30.20 in1022.7 mb 0.00 in0.0 mm 0.00 in0.0 mm 0.10 in2.5 mm
02:42 PM 67.9°F19.9°C 52.5°F11.4°C 41% 9.7 mph WSW15.6 kmh WSW 9.7 mph15.6 kmh 30.20 in1022.7 mb 0.00 in0.0 mm 0.00 in0.0 mm 0.10 in2.5 mm
02:44 PM 68.6°F20.3°C 53.4°F11.9°C 41% 5.0 mph NNW8.0 kmh NNW 5.3 mph8.5 kmh 30.20 in1022.7 mb 0.00 in0.0 mm 0.00 in0.0 mm 0.10 in2.5 mm
02:45 PM 68.6°F20.3°C 53.7°F12.1°C 41% 4.7 mph W7.6 kmh W 4.7 mph7.6 kmh 30.20 in1022.7 mb 0.00 in0.0 mm 0.00 in0.0 mm 0.10 in2.5 mm
02:47 PM 68.0°F20.0°C 53.4°F11.9°C 41% 6.9 mph SW11.1 kmh SW 6.9 mph11.1 kmh 30.20 in1022.7 mb 0.00 in0.0 mm 0.00 in0.0 mm 0.10 in2.5 mm
02:48 PM 68.1°F20.1°C 54.0°F12.2°C 41% 6.1 mph WSW9.8 kmh WSW 6.1 mph9.8 kmh 30.20 in1022.7 mb 0.00 in0.0 mm 0.00 in0.0 mm 0.10 in2.5 mm
02:50 PM 69.4°F20.8°C 54.7°F12.6°C 42% 4.4 mph NW7.1 kmh NW 4.4 mph7.1 kmh 30.20 in1022.7 mb 0.00 in0.0 mm 0.00 in0.0 mm 0.10 in2.5 mm
02:51 PM 69.4°F20.8°C 54.9°F12.7°C 42% 2.8 mph NW4.5 kmh NW 2.8 mph4.5 kmh 30.20 in1022.7 mb 0.00 in0.0 mm 0.00 in0.0 mm 0.10 in2.5 mm
02:53 PM 69.1°F20.6°C 54.1°F12.3°C 41% 8.9 mph NW14.3 kmh NW 9.0 mph14.5 kmh 30.20 in1022.7 mb 0.00 in0.0 mm 0.00 in0.0 mm 0.10 in2.5 mm
02:54 PM 69.2°F20.7°C 53.7°F12.1°C 40% 8.7 mph NW14.0 kmh NW 8.9 mph14.3 kmh 30.20 in1022.7 mb 0.00 in0.0 mm 0.00 in0.0 mm 0.10 in2.5 mm
02:56 PM 68.6°F20.3°C 51.5°F10.8°C 38% 10.5 mph NNW16.9 kmh NNW 10.5 mph16.9 kmh 30.20 in1022.7 mb 0.00 in0.0 mm 0.00 in0.0 mm 0.10 in2.5 mm
02:57 PM 68.6°F20.3°C 51.9°F11.1°C 38% 7.2 mph NNW11.6 kmh NNW 7.3 mph11.7 kmh 30.20 in1022.7 mb 0.00 in0.0 mm 0.00 in0.0 mm 0.10 in2.5 mm
02:59 PM 68.6°F20.3°C 53.5°F11.9°C 40% 3.5 mph NW5.6 kmh NW 3.5 mph5.6 kmh 30.20 in1022.7 mb 0.00 in0.0 mm 0.00 in0.0 mm 0.10 in2.5 mm
03:00 PM 68.7°F20.4°C 53.6°F12.0°C 41% 6.6 mph NW10.6 kmh NW 6.6 mph10.6 kmh 30.20 in1022.7 mb 0.00 in0.0 mm 0.00 in0.0 mm 0.10 in2.5 mm
03:02 PM 68.9°F20.5°C 52.5°F11.4°C 39% 10.8 mph NW17.4 kmh NW 10.8 mph17.4 kmh 30.20 in1022.7 mb 0.00 in0.0 mm 0.00 in0.0 mm 0.10 in2.5 mm
03:03 PM 68.9°F20.5°C 52.2°F11.2°C 39% 7.3 mph NW11.7 kmh NW 7.7 mph12.4 kmh 30.20 in1022.7 mb 0.00 in0.0 mm 0.00 in0.0 mm 0.10 in2.5 mm
03:05 PM 69.1°F20.6°C 53.9°F12.2°C 41% 3.2 mph NW5.1 kmh NW 3.3 mph5.3 kmh 30.20 in1022.7 mb 0.00 in0.0 mm 0.00 in0.0 mm 0.10 in2.5 mm
03:06 PM 69.1°F20.6°C 54.0°F12.2°C 41% 2.7 mph W4.3 kmh W 2.8 mph4.5 kmh 30.20 in1022.7 mb 0.00 in0.0 mm 0.00 in0.0 mm 0.10 in2.5 mm
03:08 PM 68.2°F20.1°C 53.1°F11.7°C 40% 5.2 mph NW8.4 kmh NW 5.2 mph8.4 kmh 30.20 in1022.7 mb 0.00 in0.0 mm 0.00 in0.0 mm 0.10 in2.5 mm
03:09 PM 68.2°F20.1°C 53.1°F11.7°C 40% 5.1 mph WSW8.2 kmh WSW 5.1 mph8.2 kmh 30.20 in1022.7 mb 0.00 in0.0 mm 0.00 in0.0 mm 0.10 in2.5 mm
03:11 PM 68.7°F20.4°C 53.2°F11.8°C 40% 8.9 mph NW14.3 kmh NW 9.0 mph14.5 kmh 30.20 in1022.7 mb 0.00 in0.0 mm 0.00 in0.0 mm 0.10 in2.5 mm
03:12 PM 68.8°F20.4°C 53.1°F11.7°C 40% 11.9 mph NW19.2 kmh NW 11.9 mph19.2 kmh 30.20 in1022.7 mb 0.00 in0.0 mm 0.00 in0.0 mm 0.10 in2.5 mm
03:14 PM 68.7°F20.4°C 52.9°F11.6°C 40% 6.9 mph WNW11.1 kmh WNW 7.0 mph11.3 kmh 30.20 in1022.7 mb 0.00 in0.0 mm 0.00 in0.0 mm 0.10 in2.5 mm
03:15 PM 68.8°F20.4°C 53.1°F11.7°C 40% 5.5 mph WNW8.9 kmh WNW 5.8 mph9.3 kmh 30.20 in1022.7 mb 0.00 in0.0 mm 0.00 in0.0 mm 0.10 in2.5 mm
03:17 PM 69.5°F20.8°C 52.8°F11.6°C 40% 4.6 mph W7.4 kmh W 4.6 mph7.4 kmh 30.20 in1022.7 mb 0.00 in0.0 mm 0.00 in0.0 mm 0.10 in2.5 mm
03:18 PM 69.6°F20.9°C 53.0°F11.7°C 40% 2.9 mph W4.7 kmh W 3.2 mph5.1 kmh 30.20 in1022.7 mb 0.00 in0.0 mm 0.00 in0.0 mm 0.10 in2.5 mm
03:20 PM 69.8°F21.0°C 53.0°F11.7°C 40% 8.0 mph NW12.9 kmh NW 8.0 mph12.9 kmh 30.20 in1022.7 mb 0.00 in0.0 mm 0.00 in0.0 mm 0.10 in2.5 mm
03:21 PM 69.7°F20.9°C 52.7°F11.5°C 39% 6.7 mph NW10.8 kmh NW 6.8 mph10.9 kmh 30.20 in1022.7 mb 0.00 in0.0 mm 0.00 in0.0 mm 0.10 in2.5 mm
03:23 PM 69.8°F21.0°C 53.4°F11.9°C 40% 6.1 mph NW9.8 kmh NW 6.1 mph9.8 kmh 30.20 in1022.7 mb 0.00 in0.0 mm 0.00 in0.0 mm 0.10 in2.5 mm
03:24 PM 69.8°F21.0°C 53.2°F11.8°C 40% 5.1 mph NW8.2 kmh NW 5.1 mph8.2 kmh 30.20 in1022.7 mb 0.00 in0.0 mm 0.00 in0.0 mm 0.10 in2.5 mm
03:29 PM 70.5°F21.4°C 53.3°F11.8°C 40% 7.2 mph W11.6 kmh W 7.3 mph11.7 kmh 30.20 in1022.7 mb 0.00 in0.0 mm 0.00 in0.0 mm 0.10 in2.5 mm
03:30 PM 70.5°F21.4°C 53.3°F11.8°C 40% 5.8 mph WSW9.3 kmh WSW 5.8 mph9.3 kmh 30.20 in1022.7 mb 0.00 in0.0 mm 0.00 in0.0 mm 0.10 in2.5 mm
03:32 PM 69.8°F21.0°C 52.7°F11.5°C 39% 10.3 mph SW16.6 kmh SW 10.4 mph16.7 kmh 30.20 in1022.7 mb 0.00 in0.0 mm 0.00 in0.0 mm 0.10 in2.5 mm
03:33 PM 69.7°F20.9°C 52.6°F11.4°C 39% 9.1 mph W14.6 kmh W 9.2 mph14.8 kmh 30.20 in1022.7 mb 0.00 in0.0 mm 0.00 in0.0 mm 0.10 in2.5 mm
03:35 PM 70.1°F21.2°C 52.9°F11.6°C 40% 4.4 mph SW7.1 kmh SW 4.4 mph7.1 kmh 30.20 in1022.7 mb 0.00 in0.0 mm 0.00 in0.0 mm 0.10 in2.5 mm
03:36 PM 70.1°F21.2°C 53.0°F11.7°C 40% 4.9 mph WSW7.9 kmh WSW 4.9 mph7.9 kmh 30.20 in1022.7 mb 0.00 in0.0 mm 0.00 in0.0 mm 0.10 in2.5 mm
03:38 PM 67.7°F19.8°C 52.3°F11.3°C 39% 3.6 mph WSW5.8 kmh WSW 3.6 mph5.8 kmh 30.20 in1022.7 mb 0.00 in0.0 mm 0.00 in0.0 mm 0.10 in2.5 mm
03:39 PM 67.9°F19.9°C 52.2°F11.2°C 39% 3.3 mph WSW5.3 kmh WSW 3.3 mph5.3 kmh 30.20 in1022.7 mb 0.00 in0.0 mm 0.00 in0.0 mm 0.10 in2.5 mm
03:41 PM 69.2°F20.7°C 53.6°F12.0°C 41% 7.7 mph NNW12.4 kmh NNW 7.7 mph12.4 kmh 30.20 in1022.7 mb 0.00 in0.0 mm 0.00 in0.0 mm 0.10 in2.5 mm
03:42 PM 69.5°F20.8°C 54.1°F12.3°C 42% 7.7 mph WSW12.4 kmh WSW 7.9 mph12.7 kmh 30.20 in1022.7 mb 0.00 in0.0 mm 0.00 in0.0 mm 0.10 in2.5 mm
03:44 PM 68.6°F20.3°C 52.7°F11.5°C 40% 8.1 mph WSW13.0 kmh WSW 8.2 mph13.2 kmh 30.20 in1022.7 mb 0.00 in0.0 mm 0.00 in0.0 mm 0.10 in2.5 mm
03:45 PM 68.5°F20.3°C 52.5°F11.4°C 40% 10.8 mph W17.4 kmh W 10.8 mph17.4 kmh 30.20 in1022.7 mb 0.00 in0.0 mm 0.00 in0.0 mm 0.10 in2.5 mm
03:47 PM 69.5°F20.8°C 52.5°F11.4°C 40% 3.6 mph NW5.8 kmh NW 3.6 mph5.8 kmh 30.20 in1022.7 mb 0.00 in0.0 mm 0.00 in0.0 mm 0.10 in2.5 mm
03:48 PM 69.5°F20.8°C 52.0°F11.1°C 40% 3.0 mph WSW4.8 kmh WSW 3.0 mph4.8 kmh 30.20 in1022.7 mb 0.00 in0.0 mm 0.00 in0.0 mm 0.10 in2.5 mm
03:50 PM 71.5°F21.9°C 52.1°F11.2°C 40% 6.6 mph NNW10.6 kmh NNW 6.6 mph10.6 kmh 30.20 in1022.7 mb 0.00 in0.0 mm 0.00 in0.0 mm 0.10 in2.5 mm
03:51 PM 71.5°F21.9°C 52.4°F11.3°C 40% 7.5 mph NW12.1 kmh NW 7.5 mph12.1 kmh 30.20 in1022.7 mb 0.00 in0.0 mm 0.00 in0.0 mm 0.10 in2.5 mm
03:53 PM 71.6°F22.0°C 52.5°F11.4°C 40% 3.6 mph WNW5.8 kmh WNW 3.7 mph6.0 kmh 30.20 in1022.7 mb 0.00 in0.0 mm 0.00 in0.0 mm 0.10 in2.5 mm
03:54 PM 71.8°F22.1°C 52.6°F11.4°C 40% 4.4 mph WNW7.1 kmh WNW 4.4 mph7.1 kmh 30.20 in1022.7 mb 0.00 in0.0 mm 0.00 in0.0 mm 0.10 in2.5 mm
03:56 PM 72.4°F22.4°C 54.0°F12.2°C 41% 2.0 mph W3.2 kmh W 2.0 mph3.2 kmh 30.20 in1022.7 mb 0.00 in0.0 mm 0.00 in0.0 mm 0.10 in2.5 mm
03:57 PM 72.4°F22.4°C 53.5°F11.9°C 41% 1.2 mph W1.9 kmh W 1.2 mph1.9 kmh 30.20 in1022.7 mb 0.00 in0.0 mm 0.00 in0.0 mm 0.10 in2.5 mm
03:59 PM 72.5°F22.5°C 54.0°F12.2°C 41% 2.8 mph NW4.5 kmh NW 2.9 mph4.7 kmh 30.20 in1022.7 mb 0.00 in0.0 mm 0.00 in0.0 mm 0.10 in2.5 mm
04:00 PM 72.6°F22.6°C 54.5°F12.5°C 41% 5.0 mph W8.0 kmh W 5.0 mph8.0 kmh 30.20 in1022.7 mb 0.00 in0.0 mm 0.00 in0.0 mm 0.10 in2.5 mm
04:02 PM 70.9°F21.6°C 52.6°F11.4°C 39% 10.9 mph WNW17.5 kmh WNW 10.9 mph17.5 kmh 30.20 in1022.7 mb 0.00 in0.0 mm 0.00 in0.0 mm 0.10 in2.5 mm
04:03 PM 71.2°F21.8°C 52.4°F11.3°C 39% 13.9 mph NW22.4 kmh NW 13.9 mph22.4 kmh 30.20 in1022.7 mb 0.00 in0.0 mm 0.00 in0.0 mm 0.10 in2.5 mm
04:05 PM 68.9°F20.5°C 52.6°F11.4°C 39% 6.3 mph W10.1 kmh W 6.4 mph10.3 kmh 30.20 in1022.7 mb 0.00 in0.0 mm 0.00 in0.0 mm 0.10 in2.5 mm
04:06 PM 68.8°F20.4°C 52.4°F11.3°C 39% 6.5 mph W10.5 kmh W 6.5 mph10.5 kmh 30.20 in1022.7 mb 0.00 in0.0 mm 0.00 in0.0 mm 0.10 in2.5 mm
04:08 PM 70.4°F21.3°C 52.6°F11.4°C 39% 4.2 mph NNW6.8 kmh NNW 4.2 mph6.8 kmh 30.20 in1022.7 mb 0.00 in0.0 mm 0.00 in0.0 mm 0.10 in2.5 mm
04:09 PM 70.3°F21.3°C 52.6°F11.4°C 40% 4.5 mph WNW7.2 kmh WNW 4.5 mph7.2 kmh 30.20 in1022.7 mb 0.00 in0.0 mm 0.00 in0.0 mm 0.10 in2.5 mm
04:11 PM 69.4°F20.8°C 51.7°F10.9°C 39% 5.7 mph W9.2 kmh W 5.7 mph9.2 kmh 30.20 in1022.7 mb 0.00 in0.0 mm 0.00 in0.0 mm 0.10 in2.5 mm
04:12 PM 69.4°F20.8°C 52.4°F11.3°C 39% 5.1 mph WSW8.2 kmh WSW 5.1 mph8.2 kmh 30.20 in1022.7 mb 0.00 in0.0 mm 0.00 in0.0 mm 0.10 in2.5 mm
04:14 PM 71.9°F22.2°C 53.4°F11.9°C 41% 3.6 mph WSW5.8 kmh WSW 3.7 mph6.0 kmh 30.20 in1022.7 mb 0.00 in0.0 mm 0.00 in0.0 mm 0.10 in2.5 mm
04:15 PM 72.3°F22.4°C 53.6°F12.0°C 41% 4.1 mph WSW6.6 kmh WSW 4.1 mph6.6 kmh 30.20 in1022.7 mb 0.00 in0.0 mm 0.00 in0.0 mm 0.10 in2.5 mm
04:17 PM 70.4°F21.3°C 52.5°F11.4°C 40% 4.1 mph W6.6 kmh W 4.1 mph6.6 kmh 30.20 in1022.7 mb 0.00 in0.0 mm 0.00 in0.0 mm 0.10 in2.5 mm
04:18 PM 70.7°F21.5°C 52.3°F11.3°C 40% 3.7 mph W6.0 kmh W 3.7 mph6.0 kmh 30.20 in1022.7 mb 0.00 in0.0 mm 0.00 in0.0 mm 0.10 in2.5 mm
04:20 PM 69.8°F21.0°C 52.9°F11.6°C 40% 5.7 mph SSW9.2 kmh SSW 5.7 mph9.2 kmh 30.20 in1022.7 mb 0.00 in0.0 mm 0.00 in0.0 mm 0.10 in2.5 mm
04:21 PM 69.9°F21.1°C 52.8°F11.6°C 40% 6.3 mph W10.1 kmh W 6.4 mph10.3 kmh 30.20 in1022.7 mb 0.00 in0.0 mm 0.00 in0.0 mm 0.10 in2.5 mm
04:23 PM 70.3°F21.3°C 52.4°F11.3°C 40% 4.0 mph WSW6.4 kmh WSW 4.1 mph6.6 kmh 30.20 in1022.7 mb 0.00 in0.0 mm 0.00 in0.0 mm 0.10 in2.5 mm
04:24 PM 70.5°F21.4°C 52.7°F11.5°C 40% 5.7 mph WSW9.2 kmh WSW 5.7 mph9.2 kmh 30.20 in1022.7 mb 0.00 in0.0 mm 0.00 in0.0 mm 0.10 in2.5 mm
04:26 PM 70.1°F21.2°C 52.6°F11.4°C 40% 6.8 mph NW10.9 kmh NW 6.8 mph10.9 kmh 30.20 in1022.7 mb 0.00 in0.0 mm 0.00 in0.0 mm 0.10 in2.5 mm
04:27 PM 70.1°F21.2°C 51.9°F11.1°C 40% 6.9 mph NW11.1 kmh NW 6.9 mph11.1 kmh 30.20 in1022.7 mb 0.00 in0.0 mm 0.00 in0.0 mm 0.10 in2.5 mm
04:29 PM 71.5°F21.9°C 51.6°F10.9°C 39% 12.1 mph WNW19.5 kmh WNW 12.1 mph19.5 kmh 30.20 in1022.7 mb 0.00 in0.0 mm 0.00 in0.0 mm 0.10 in2.5 mm
04:30 PM 71.3°F21.8°C 51.6°F10.9°C 39% 7.3 mph WNW11.7 kmh WNW 7.5 mph12.1 kmh 30.20 in1022.7 mb 0.00 in0.0 mm 0.00 in0.0 mm 0.10 in2.5 mm
04:32 PM 71.5°F21.9°C 51.3°F10.7°C 38% 4.9 mph NW7.9 kmh NW 4.9 mph7.9 kmh 30.20 in1022.7 mb 0.00 in0.0 mm 0.00 in0.0 mm 0.10 in2.5 mm
04:33 PM 71.5°F21.9°C 50.3°F10.2°C 38% 4.0 mph NW6.4 kmh NW 4.0 mph6.4 kmh 30.20 in1022.7 mb 0.00 in0.0 mm 0.00 in0.0 mm 0.10 in2.5 mm
04:35 PM 72.8°F22.7°C 53.0°F11.7°C 40% 3.2 mph W5.1 kmh W 3.2 mph5.1 kmh 30.20 in1022.7 mb 0.00 in0.0 mm 0.00 in0.0 mm 0.10 in2.5 mm
04:36 PM 72.8°F22.7°C 52.9°F11.6°C 40% 2.9 mph W4.7 kmh W 2.9 mph4.7 kmh 30.20 in1022.7 mb 0.00 in0.0 mm 0.00 in0.0 mm 0.10 in2.5 mm
04:38 PM 72.4°F22.4°C 52.1°F11.2°C 39% 10.9 mph NNW17.5 kmh NNW 10.9 mph17.5 kmh 30.20 in1022.7 mb 0.00 in0.0 mm 0.00 in0.0 mm 0.10 in2.5 mm
04:39 PM 72.3°F22.4°C 51.6°F10.9°C 39% 8.4 mph NW13.5 kmh NW 8.4 mph13.5 kmh 30.20 in1022.7 mb 0.00 in0.0 mm 0.00 in0.0 mm 0.10 in2.5 mm
04:41 PM 72.6°F22.6°C 51.5°F10.8°C 38% 2.8 mph 4.5 kmh 2.9 mph4.7 kmh 30.20 in1022.7 mb 0.00 in0.0 mm 0.00 in0.0 mm 0.10 in2.5 mm
04:42 PM 72.6°F22.6°C 52.0°F11.1°C 39% 1.8 mph 2.9 kmh 2.0 mph3.2 kmh 30.20 in1022.7 mb 0.00 in0.0 mm 0.00 in0.0 mm 0.10 in2.5 mm
04:44 PM 72.5°F22.5°C 52.0°F11.1°C 39% 5.6 mph W9.0 kmh W 5.6 mph9.0 kmh 30.20 in1022.7 mb 0.00 in0.0 mm 0.00 in0.0 mm 0.10 in2.5 mm
04:47 PM 72.3°F22.4°C 51.8°F11.0°C 39% 5.0 mph W8.0 kmh W 5.0 mph8.0 kmh 30.20 in1022.7 mb 0.00 in0.0 mm 0.00 in0.0 mm 0.10 in2.5 mm
04:48 PM 72.4°F22.4°C 52.3°F11.3°C 39% 3.3 mph SW5.3 kmh SW 3.5 mph5.6 kmh 30.20 in1022.7 mb 0.00 in0.0 mm 0.00 in0.0 mm 0.10 in2.5 mm
04:50 PM 70.3°F21.3°C 52.2°F11.2°C 40% 5.3 mph WSW8.5 kmh WSW 5.3 mph8.5 kmh 30.20 in1022.7 mb 0.00 in0.0 mm 0.00 in0.0 mm 0.10 in2.5 mm
04:51 PM 69.9°F21.1°C 52.1°F11.2°C 39% 5.0 mph SSW8.0 kmh SSW 5.0 mph8.0 kmh 30.20 in1022.7 mb 0.00 in0.0 mm 0.00 in0.0 mm 0.10 in2.5 mm
04:53 PM 68.8°F20.4°C 51.6°F10.9°C 40% 6.5 mph SW10.5 kmh SW 6.5 mph10.5 kmh 30.20 in1022.7 mb 0.00 in0.0 mm 0.00 in0.0 mm 0.10 in2.5 mm
04:54 PM 68.6°F20.3°C 51.6°F10.9°C 39% 5.9 mph WSW9.5 kmh WSW 5.9 mph9.5 kmh 30.20 in1022.7 mb 0.00 in0.0 mm 0.00 in0.0 mm 0.10 in2.5 mm
04:56 PM 71.0°F21.7°C 53.1°F11.7°C 42% 6.4 mph WSW10.3 kmh WSW 6.4 mph10.3 kmh 30.20 in1022.7 mb 0.00 in0.0 mm 0.00 in0.0 mm 0.10 in2.5 mm
04:57 PM 70.8°F21.6°C 53.2°F11.8°C 42% 5.7 mph WSW9.2 kmh WSW 5.7 mph9.2 kmh 30.20 in1022.7 mb 0.00 in0.0 mm 0.00 in0.0 mm 0.10 in2.5 mm
04:59 PM 70.1°F21.2°C 52.4°F11.3°C 41% 2.0 mph W3.2 kmh W 2.0 mph3.2 kmh 30.20 in1022.7 mb 0.00 in0.0 mm 0.00 in0.0 mm 0.10 in2.5 mm
05:00 PM 70.3°F21.3°C 53.0°F11.7°C 41% 1.4 mph W2.3 kmh W 1.6 mph2.6 kmh 30.20 in1022.7 mb 0.00 in0.0 mm 0.00 in0.0 mm 0.10 in2.5 mm
05:05 PM 72.1°F22.3°C 51.6°F10.9°C 39% 8.5 mph NNW13.7 kmh NNW 8.6 mph13.8 kmh 30.20 in1022.7 mb 0.00 in0.0 mm 0.00 in0.0 mm 0.10 in2.5 mm
05:06 PM 72.1°F22.3°C 51.4°F10.8°C 39% 7.6 mph WSW12.2 kmh WSW 7.7 mph12.4 kmh 30.20 in1022.7 mb 0.00 in0.0 mm 0.00 in0.0 mm 0.10 in2.5 mm
05:08 PM 69.7°F20.9°C 52.1°F11.2°C 41% 9.2 mph WSW14.8 kmh WSW 9.2 mph14.8 kmh 30.20 in1022.7 mb 0.00 in0.0 mm 0.00 in0.0 mm 0.10 in2.5 mm
05:09 PM 69.5°F20.8°C 52.1°F11.2°C 40% 10.5 mph SW16.9 kmh SW 11.1 mph17.9 kmh 30.20 in1022.7 mb 0.00 in0.0 mm 0.00 in0.0 mm 0.10 in2.5 mm
05:11 PM 69.7°F20.9°C 51.4°F10.8°C 40% 9.2 mph WSW14.8 kmh WSW 9.3 mph15.0 kmh 30.20 in1022.7 mb 0.00 in0.0 mm 0.00 in0.0 mm 0.10 in2.5 mm
05:12 PM 69.6°F20.9°C 51.2°F10.7°C 40% 10.0 mph SW16.1 kmh SW 10.0 mph16.1 kmh 30.20 in1022.7 mb 0.00 in0.0 mm 0.00 in0.0 mm 0.10 in2.5 mm
05:14 PM 69.6°F20.9°C 51.3°F10.7°C 40% 4.0 mph W6.4 kmh W 4.0 mph6.4 kmh 30.20 in1022.7 mb 0.00 in0.0 mm 0.00 in0.0 mm 0.10 in2.5 mm
05:15 PM 69.6°F20.9°C 52.0°F11.1°C 40% 3.5 mph NNW5.6 kmh NNW 3.6 mph5.8 kmh 30.20 in1022.7 mb 0.00 in0.0 mm 0.00 in0.0 mm 0.10 in2.5 mm
05:17 PM 70.7°F21.5°C 52.8°F11.6°C 42% 2.0 mph NNW3.2 kmh NNW 2.0 mph3.2 kmh 30.20 in1022.7 mb 0.00 in0.0 mm 0.00 in0.0 mm 0.10 in2.5 mm
05:18 PM 70.7°F21.5°C 52.9°F11.6°C 42% 2.5 mph WSW4.0 kmh WSW 2.5 mph4.0 kmh 30.20 in1022.7 mb 0.00 in0.0 mm 0.00 in0.0 mm 0.10 in2.5 mm
05:20 PM 68.6°F20.3°C 51.4°F10.8°C 39% 3.2 mph WSW5.1 kmh WSW 3.2 mph5.1 kmh 30.20 in1022.7 mb 0.00 in0.0 mm 0.00 in0.0 mm 0.10 in2.5 mm
05:21 PM 68.8°F20.4°C 51.1°F10.6°C 40% 5.1 mph W8.2 kmh W 5.1 mph8.2 kmh 30.20 in1022.7 mb 0.00 in0.0 mm 0.00 in0.0 mm 0.10 in2.5 mm
05:23 PM 70.3°F21.3°C 52.0°F11.1°C 40% 4.1 mph WNW6.6 kmh WNW 4.1 mph6.6 kmh 30.20 in1022.7 mb 0.00 in0.0 mm 0.00 in0.0 mm 0.10 in2.5 mm
05:24 PM 70.4°F21.3°C 51.8°F11.0°C 40% 3.3 mph WNW5.3 kmh WNW 3.4 mph5.5 kmh 30.20 in1022.7 mb 0.00 in0.0 mm 0.00 in0.0 mm 0.10 in2.5 mm
05:26 PM 71.0°F21.7°C 52.0°F11.1°C 41% 6.5 mph NNW10.5 kmh NNW 6.5 mph10.5 kmh 30.20 in1022.7 mb 0.00 in0.0 mm 0.00 in0.0 mm 0.10 in2.5 mm
05:27 PM 71.0°F21.7°C 51.9°F11.1°C 41% 7.9 mph NW12.7 kmh NW 7.9 mph12.7 kmh 30.20 in1022.7 mb 0.00 in0.0 mm 0.00 in0.0 mm 0.10 in2.5 mm
05:29 PM 71.2°F21.8°C 52.8°F11.6°C 42% 8.1 mph NNW13.0 kmh NNW 8.2 mph13.2 kmh 30.20 in1022.7 mb 0.00 in0.0 mm 0.00 in0.0 mm 0.10 in2.5 mm
05:30 PM 71.3°F21.8°C 51.8°F11.0°C 41% 6.9 mph NW11.1 kmh NW 7.0 mph11.3 kmh 30.20 in1022.7 mb 0.00 in0.0 mm 0.00 in0.0 mm 0.10 in2.5 mm
05:32 PM 69.6°F20.9°C 52.7°F11.5°C 41% 7.7 mph SW12.4 kmh SW 7.7 mph12.4 kmh 30.20 in1022.7 mb 0.00 in0.0 mm 0.00 in0.0 mm 0.10 in2.5 mm
05:33 PM 69.5°F20.8°C 52.1°F11.2°C 41% 8.6 mph SW13.8 kmh SW 8.6 mph13.8 kmh 30.20 in1022.7 mb 0.00 in0.0 mm 0.00 in0.0 mm 0.10 in2.5 mm
05:35 PM 69.2°F20.7°C 52.2°F11.2°C 41% 6.0 mph WSW9.7 kmh WSW 6.0 mph9.7 kmh 30.20 in1022.7 mb 0.00 in0.0 mm 0.00 in0.0 mm 0.10 in2.5 mm
05:36 PM 69.4°F20.8°C 51.8°F11.0°C 41% 5.6 mph WSW9.0 kmh WSW 5.6 mph9.0 kmh 30.20 in1022.7 mb 0.00 in0.0 mm 0.00 in0.0 mm 0.10 in2.5 mm
05:38 PM 68.9°F20.5°C 51.8°F11.0°C 41% 6.1 mph NNW9.8 kmh NNW 6.1 mph9.8 kmh 30.20 in1022.7 mb 0.00 in0.0 mm 0.00 in0.0 mm 0.10 in2.5 mm
05:39 PM 68.9°F20.5°C 51.4°F10.8°C 41% 4.8 mph SW7.7 kmh SW 4.8 mph7.7 kmh 30.20 in1022.7 mb 0.00 in0.0 mm 0.00 in0.0 mm 0.10 in2.5 mm
05:41 PM 69.0°F20.6°C 51.8°F11.0°C 41% 3.6 mph W5.8 kmh W 3.6 mph5.8 kmh 30.20 in1022.7 mb 0.00 in0.0 mm 0.00 in0.0 mm 0.10 in2.5 mm
05:42 PM 69.0°F20.6°C 51.5°F10.8°C 41% 3.0 mph WSW4.8 kmh WSW 3.1 mph5.0 kmh 30.20 in1022.7 mb 0.00 in0.0 mm 0.00 in0.0 mm 0.10 in2.5 mm
05:44 PM 68.2°F20.1°C 51.3°F10.7°C 41% 6.4 mph SSW10.3 kmh SSW 6.4 mph10.3 kmh 30.20 in1022.7 mb 0.00 in0.0 mm 0.00 in0.0 mm 0.10 in2.5 mm
05:47 PM 69.9°F21.1°C 51.9°F11.1°C 41% 2.4 mph WNW3.9 kmh WNW 2.4 mph3.9 kmh 30.20 in1022.7 mb 0.00 in0.0 mm 0.00 in0.0 mm 0.10 in2.5 mm
05:48 PM 70.0°F21.1°C 51.5°F10.8°C 41% 2.1 mph WNW3.4 kmh WNW 2.2 mph3.5 kmh 30.20 in1022.7 mb 0.00 in0.0 mm 0.00 in0.0 mm 0.10 in2.5 mm
05:50 PM 69.9°F21.1°C 51.9°F11.1°C 41% 2.8 mph W4.5 kmh W 2.9 mph4.7 kmh 30.20 in1022.7 mb 0.00 in0.0 mm 0.00 in0.0 mm 0.10 in2.5 mm
05:51 PM 69.9°F21.1°C 51.7°F10.9°C 41% 4.2 mph WSW6.8 kmh WSW 4.2 mph6.8 kmh 30.20 in1022.7 mb 0.00 in0.0 mm 0.00 in0.0 mm 0.10 in2.5 mm
05:53 PM 70.6°F21.4°C 51.9°F11.1°C 42% 4.0 mph W6.4 kmh W 4.0 mph6.4 kmh 30.20 in1022.7 mb 0.00 in0.0 mm 0.00 in0.0 mm 0.10 in2.5 mm
05:54 PM 70.6°F21.4°C 51.7°F10.9°C 41% 3.3 mph WSW5.3 kmh WSW 3.3 mph5.3 kmh 30.20 in1022.7 mb 0.00 in0.0 mm 0.00 in0.0 mm 0.10 in2.5 mm
05:56 PM 70.1°F21.2°C 50.5°F10.3°C 39% 5.6 mph WNW9.0 kmh WNW 5.6 mph9.0 kmh 30.20 in1022.7 mb 0.00 in0.0 mm 0.00 in0.0 mm 0.10 in2.5 mm
05:57 PM 70.3°F21.3°C 50.6°F10.3°C 39% 5.6 mph WNW9.0 kmh WNW 5.6 mph9.0 kmh 30.20 in1022.7 mb 0.00 in0.0 mm 0.00 in0.0 mm 0.10 in2.5 mm
05:59 PM 69.8°F21.0°C 50.5°F10.3°C 40% 2.4 mph NW3.9 kmh NW 2.4 mph3.9 kmh 30.20 in1022.7 mb 0.00 in0.0 mm 0.00 in0.0 mm 0.10 in2.5 mm
06:00 PM 69.8°F21.0°C 50.9°F10.5°C 40% 1.6 mph NW2.6 kmh NW 1.6 mph2.6 kmh 30.21 in1023.0 mb 0.00 in0.0 mm 0.00 in0.0 mm 0.10 in2.5 mm
06:02 PM 70.4°F21.3°C 51.1°F10.6°C 40% 6.6 mph NW10.6 kmh NW 6.6 mph10.6 kmh 30.20 in1022.7 mb 0.00 in0.0 mm 0.00 in0.0 mm 0.10 in2.5 mm
06:03 PM 70.1°F21.2°C 50.8°F10.4°C 40% 7.5 mph NW12.1 kmh NW 7.5 mph12.1 kmh 30.20 in1022.7 mb 0.00 in0.0 mm 0.00 in0.0 mm 0.10 in2.5 mm
06:05 PM 69.0°F20.6°C 50.4°F10.2°C 39% 6.5 mph WNW10.5 kmh WNW 6.5 mph10.5 kmh 30.21 in1023.0 mb 0.00 in0.0 mm 0.00 in0.0 mm 0.10 in2.5 mm
06:06 PM 69.1°F20.6°C 50.2°F10.1°C 40% 7.7 mph WNW12.4 kmh WNW 7.7 mph12.4 kmh 30.20 in1022.7 mb 0.00 in0.0 mm 0.00 in0.0 mm 0.10 in2.5 mm
06:08 PM 68.7°F20.4°C 50.4°F10.2°C 39% 9.9 mph NW15.9 kmh NW 9.9 mph15.9 kmh 30.20 in1022.7 mb 0.00 in0.0 mm 0.00 in0.0 mm 0.10 in2.5 mm
06:09 PM 68.9°F20.5°C 50.2°F10.1°C 39% 9.1 mph NW14.6 kmh NW 9.4 mph15.1 kmh 30.20 in1022.7 mb 0.00 in0.0 mm 0.00 in0.0 mm 0.10 in2.5 mm
06:11 PM 69.1°F20.6°C 50.5°F10.3°C 40% 5.2 mph NNW8.4 kmh NNW 5.2 mph8.4 kmh 30.20 in1022.7 mb 0.00 in0.0 mm 0.00 in0.0 mm 0.10 in2.5 mm
06:12 PM 69.0°F20.6°C 50.6°F10.3°C 40% 4.1 mph 6.6 kmh 4.2 mph6.8 kmh 30.20 in1022.7 mb 0.00 in0.0 mm 0.00 in0.0 mm 0.10 in2.5 mm
06:14 PM 67.7°F19.8°C 50.8°F10.4°C 41% 4.0 mph WSW6.4 kmh WSW 4.1 mph6.6 kmh 30.20 in1022.7 mb 0.00 in0.0 mm 0.00 in0.0 mm 0.10 in2.5 mm
06:15 PM 67.7°F19.8°C 51.3°F10.7°C 40% 3.7 mph WSW6.0 kmh WSW 3.7 mph6.0 kmh 30.20 in1022.7 mb 0.00 in0.0 mm 0.00 in0.0 mm 0.10 in2.5 mm
06:17 PM 67.6°F19.8°C 50.4°F10.2°C 40% 6.5 mph W10.5 kmh W 6.5 mph10.5 kmh 30.21 in1023.0 mb 0.00 in0.0 mm 0.00 in0.0 mm 0.10 in2.5 mm
06:18 PM 67.4°F19.7°C 50.8°F10.4°C 40% 6.9 mph W11.1 kmh W 7.0 mph11.3 kmh 30.20 in1022.7 mb 0.00 in0.0 mm 0.00 in0.0 mm 0.10 in2.5 mm
06:20 PM 67.9°F19.9°C 49.8°F9.9°C 40% 2.0 mph NNW3.2 kmh NNW 2.0 mph3.2 kmh 30.21 in1023.0 mb 0.00 in0.0 mm 0.00 in0.0 mm 0.10 in2.5 mm
06:21 PM 67.9°F19.9°C 50.0°F10.0°C 40% 2.3 mph WNW3.7 kmh WNW 2.3 mph3.7 kmh 30.20 in1022.7 mb 0.00 in0.0 mm 0.00 in0.0 mm 0.10 in2.5 mm
06:23 PM 67.9°F19.9°C 50.6°F10.3°C 40% 6.6 mph NNW10.6 kmh NNW 6.6 mph10.6 kmh 30.21 in1023.0 mb 0.00 in0.0 mm 0.00 in0.0 mm 0.10 in2.5 mm
06:24 PM 67.9°F19.9°C 50.1°F10.1°C 40% 4.7 mph NW7.6 kmh NW 4.7 mph7.6 kmh 30.21 in1023.0 mb 0.00 in0.0 mm 0.00 in0.0 mm 0.10 in2.5 mm
06:26 PM 67.4°F19.7°C 50.8°F10.4°C 40% 2.4 mph WSW3.9 kmh WSW 2.4 mph3.9 kmh 30.20 in1022.7 mb 0.00 in0.0 mm 0.00 in0.0 mm 0.10 in2.5 mm
06:27 PM 67.6°F19.8°C 50.6°F10.3°C 40% 3.0 mph W4.8 kmh W 3.0 mph4.8 kmh 30.20 in1022.7 mb 0.00 in0.0 mm 0.00 in0.0 mm 0.10 in2.5 mm
06:29 PM 67.3°F19.6°C 50.3°F10.2°C 40% 3.2 mph W5.1 kmh W 3.2 mph5.1 kmh 30.20 in1022.7 mb 0.00 in0.0 mm 0.00 in0.0 mm 0.10 in2.5 mm
06:30 PM 67.3°F19.6°C 49.9°F9.9°C 40% 4.2 mph W6.8 kmh W 4.3 mph6.9 kmh 30.21 in1023.0 mb 0.00 in0.0 mm 0.00 in0.0 mm 0.10 in2.5 mm
06:32 PM 67.2°F19.6°C 50.2°F10.1°C 41% 5.4 mph NNW8.7 kmh NNW 5.4 mph8.7 kmh 30.21 in1023.0 mb 0.00 in0.0 mm 0.00 in0.0 mm 0.10 in2.5 mm
06:33 PM 67.2°F19.6°C 50.6°F10.3°C 41% 4.3 mph NNW6.9 kmh NNW 4.3 mph6.9 kmh 30.21 in1023.0 mb 0.00 in0.0 mm 0.00 in0.0 mm 0.10 in2.5 mm
06:35 PM 67.1°F19.5°C 50.2°F10.1°C 40% 4.0 mph WNW6.4 kmh WNW 4.1 mph6.6 kmh 30.21 in1023.0 mb 0.00 in0.0 mm 0.00 in0.0 mm 0.10 in2.5 mm
06:36 PM 67.2°F19.6°C 50.9°F10.5°C 41% 2.6 mph W4.2 kmh W 2.7 mph4.3 kmh 30.21 in1023.0 mb 0.00 in0.0 mm 0.00 in0.0 mm 0.10 in2.5 mm
06:38 PM 66.8°F19.3°C 51.4°F10.8°C 42% 1.2 mph W1.9 kmh W 1.2 mph1.9 kmh 30.21 in1023.0 mb 0.00 in0.0 mm 0.00 in0.0 mm 0.10 in2.5 mm
06:39 PM 66.8°F19.3°C 51.5°F10.8°C 42% 2.3 mph NW3.7 kmh NW 2.3 mph3.7 kmh 30.21 in1023.0 mb 0.00 in0.0 mm 0.00 in0.0 mm 0.10 in2.5 mm
06:41 PM 66.5°F19.2°C 51.5°F10.8°C 42% 2.3 mph NNW3.7 kmh NNW 2.5 mph4.0 kmh 30.21 in1023.0 mb 0.00 in0.0 mm 0.00 in0.0 mm 0.10 in2.5 mm
06:42 PM 66.3°F19.1°C 51.4°F10.8°C 41% 3.4 mph WNW5.5 kmh WNW 3.4 mph5.5 kmh 30.21 in1023.0 mb 0.00 in0.0 mm 0.00 in0.0 mm 0.10 in2.5 mm
06:44 PM 65.8°F18.8°C 50.7°F10.4°C 41% 1.6 mph NNW2.6 kmh NNW 1.6 mph2.6 kmh 30.21 in1023.0 mb 0.00 in0.0 mm 0.00 in0.0 mm 0.10 in2.5 mm
06:45 PM 65.6°F18.7°C 50.5°F10.3°C 41% 2.5 mph W4.0 kmh W 2.5 mph4.0 kmh 30.21 in1023.0 mb 0.00 in0.0 mm 0.00 in0.0 mm 0.10 in2.5 mm
06:50 PM 66.3°F19.1°C 52.2°F11.2°C 43% 1.9 mph NW3.1 kmh NW 1.9 mph3.1 kmh 30.21 in1023.0 mb 0.00 in0.0 mm 0.00 in0.0 mm 0.10 in2.5 mm
06:51 PM 66.2°F19.0°C 52.0°F11.1°C 43% 4.2 mph NW6.8 kmh NW 4.3 mph6.9 kmh 30.21 in1023.0 mb 0.00 in0.0 mm 0.00 in0.0 mm 0.10 in2.5 mm
06:53 PM 66.3°F19.1°C 51.7°F10.9°C 43% 0.8 mph NW1.3 kmh NW 0.8 mph1.3 kmh 30.21 in1023.0 mb 0.00 in0.0 mm 0.00 in0.0 mm 0.10 in2.5 mm
06:54 PM 66.3°F19.1°C 52.3°F11.3°C 43% 0.9 mph NW1.4 kmh NW 1.0 mph1.6 kmh 30.21 in1023.0 mb 0.00 in0.0 mm 0.00 in0.0 mm 0.10 in2.5 mm
06:56 PM 65.8°F18.8°C 52.5°F11.4°C 44% 0.4 mph WNW0.6 kmh WNW 0.4 mph0.6 kmh 30.21 in1023.0 mb 0.00 in0.0 mm 0.00 in0.0 mm 0.10 in2.5 mm
06:57 PM 65.9°F18.8°C 51.9°F11.1°C 44% 0.2 mph WNW0.3 kmh WNW 0.3 mph0.5 kmh 30.21 in1023.0 mb 0.00 in0.0 mm 0.00 in0.0 mm 0.10 in2.5 mm
06:59 PM 65.3°F18.5°C 52.2°F11.2°C 43% 1.5 mph NNW2.4 kmh NNW 1.6 mph2.6 kmh 30.21 in1023.0 mb 0.00 in0.0 mm 0.00 in0.0 mm 0.10 in2.5 mm
07:00 PM 65.3°F18.5°C 52.3°F11.3°C 43% 1.5 mph W2.4 kmh W 1.6 mph2.6 kmh 30.21 in1023.0 mb 0.00 in0.0 mm 0.00 in0.0 mm 0.10 in2.5 mm
07:02 PM 65.9°F18.8°C 51.8°F11.0°C 43% 1.2 mph NW1.9 kmh NW 1.2 mph1.9 kmh 30.21 in1023.0 mb 0.00 in0.0 mm 0.00 in0.0 mm 0.10 in2.5 mm
07:03 PM 65.9°F18.8°C 51.8°F11.0°C 43% 3.6 mph NW5.8 kmh NW 3.7 mph6.0 kmh 30.21 in1023.0 mb 0.00 in0.0 mm 0.00 in0.0 mm 0.10 in2.5 mm
07:05 PM 65.4°F18.6°C 52.7°F11.5°C 44% 1.2 mph NW1.9 kmh NW 1.2 mph1.9 kmh 30.21 in1023.0 mb 0.00 in0.0 mm 0.00 in0.0 mm 0.10 in2.5 mm
07:06 PM 65.4°F18.6°C 52.4°F11.3°C 44% 1.2 mph NW1.9 kmh NW 1.2 mph1.9 kmh 30.21 in1023.0 mb 0.00 in0.0 mm 0.00 in0.0 mm 0.10 in2.5 mm
07:08 PM 65.4°F18.6°C 51.9°F11.1°C 43% 0.8 mph WNW1.3 kmh WNW 0.8 mph1.3 kmh 30.21 in1023.0 mb 0.00 in0.0 mm 0.00 in0.0 mm 0.10 in2.5 mm
07:09 PM 65.5°F18.6°C 52.2°F11.2°C 43% 0.9 mph WNW1.4 kmh WNW 0.9 mph1.4 kmh 30.21 in1023.0 mb 0.00 in0.0 mm 0.00 in0.0 mm 0.10 in2.5 mm
07:11 PM 65.2°F18.4°C 52.5°F11.4°C 44% 2.4 mph W3.9 kmh W 2.4 mph3.9 kmh 30.21 in1023.0 mb 0.00 in0.0 mm 0.00 in0.0 mm 0.10 in2.5 mm
07:12 PM 65.2°F18.4°C 52.5°F11.4°C 44% 2.5 mph WNW4.0 kmh WNW 2.5 mph4.0 kmh 30.21 in1023.0 mb 0.00 in0.0 mm 0.00 in0.0 mm 0.10 in2.5 mm
07:14 PM 65.2°F18.4°C 52.4°F11.3°C 44% 0.8 mph WNW1.3 kmh WNW 0.8 mph1.3 kmh 30.21 in1023.0 mb 0.00 in0.0 mm 0.00 in0.0 mm 0.10 in2.5 mm
07:17 PM 64.6°F18.1°C 52.4°F11.3°C 45% 1.6 mph W2.6 kmh W 1.6 mph2.6 kmh 30.22 in1023.4 mb 0.00 in0.0 mm 0.00 in0.0 mm 0.10 in2.5 mm
07:18 PM 64.6°F18.1°C 52.0°F11.1°C 44% 0.7 mph W1.1 kmh W 0.7 mph1.1 kmh 30.22 in1023.4 mb 0.00 in0.0 mm 0.00 in0.0 mm 0.10 in2.5 mm
07:20 PM 64.7°F18.2°C 52.1°F11.2°C 44% 2.8 mph NW4.5 kmh NW 2.8 mph4.5 kmh 30.21 in1023.0 mb 0.00 in0.0 mm 0.00 in0.0 mm 0.10 in2.5 mm
07:21 PM 64.9°F18.3°C 52.1°F11.2°C 44% 3.2 mph WNW5.1 kmh WNW 3.2 mph5.1 kmh 30.22 in1023.4 mb 0.00 in0.0 mm 0.00 in0.0 mm 0.10 in2.5 mm
07:23 PM 64.5°F18.1°C 52.2°F11.2°C 45% 0.8 mph NW1.3 kmh NW 0.8 mph1.3 kmh 30.22 in1023.4 mb 0.00 in0.0 mm 0.00 in0.0 mm 0.10 in2.5 mm
07:24 PM 64.5°F18.1°C 52.8°F11.6°C 45% 0.9 mph NW1.4 kmh NW 0.9 mph1.4 kmh 30.22 in1023.4 mb 0.00 in0.0 mm 0.00 in0.0 mm 0.10 in2.5 mm
07:26 PM 63.8°F17.7°C 51.9°F11.1°C 44% 0.4 mph W0.6 kmh W 0.4 mph0.6 kmh 30.22 in1023.4 mb 0.00 in0.0 mm 0.00 in0.0 mm 0.10 in2.5 mm
07:27 PM 63.8°F17.7°C 52.0°F11.1°C 44% 1.8 mph NW2.9 kmh NW 1.8 mph2.9 kmh 30.22 in1023.4 mb 0.00 in0.0 mm 0.00 in0.0 mm 0.10 in2.5 mm
07:29 PM 64.0°F17.8°C 52.1°F11.2°C 45% 4.0 mph NW6.4 kmh NW 4.0 mph6.4 kmh 30.22 in1023.4 mb 0.00 in0.0 mm 0.00 in0.0 mm 0.10 in2.5 mm
07:30 PM 64.0°F17.8°C 52.4°F11.3°C 45% 3.3 mph NW5.3 kmh NW 3.3 mph5.3 kmh 30.22 in1023.4 mb 0.00 in0.0 mm 0.00 in0.0 mm 0.10 in2.5 mm
07:32 PM 63.6°F17.6°C 52.1°F11.2°C 45% 0.8 mph NNW1.3 kmh NNW 0.8 mph1.3 kmh 30.22 in1023.4 mb 0.00 in0.0 mm 0.00 in0.0 mm 0.10 in2.5 mm
07:33 PM 63.6°F17.6°C 52.2°F11.2°C 45% 0.7 mph NW1.1 kmh NW 0.8 mph1.3 kmh 30.22 in1023.4 mb 0.00 in0.0 mm 0.00 in0.0 mm 0.10 in2.5 mm
07:35 PM 63.6°F17.6°C 53.4°F11.9°C 46% Calm Calm -- 30.22 in1023.4 mb 0.00 in0.0 mm 0.00 in0.0 mm 0.10 in2.5 mm
07:36 PM 63.6°F17.6°C 52.6°F11.4°C 46% Calm Calm -- 30.22 in1023.4 mb 0.00 in0.0 mm 0.00 in0.0 mm 0.10 in2.5 mm
07:38 PM 63.5°F17.5°C 53.2°F11.8°C 47% 0.8 mph NW1.3 kmh NW 0.8 mph1.3 kmh 30.22 in1023.4 mb 0.00 in0.0 mm 0.00 in0.0 mm 0.10 in2.5 mm
07:39 PM 63.5°F17.5°C 53.3°F11.8°C 47% 1.0 mph NW1.6 kmh NW 1.0 mph1.6 kmh 30.22 in1023.4 mb 0.00 in0.0 mm 0.00 in0.0 mm 0.10 in2.5 mm
07:41 PM 63.4°F17.4°C 53.4°F11.9°C 47% Calm Calm -- 30.22 in1023.4 mb 0.00 in0.0 mm 0.00 in0.0 mm 0.10 in2.5 mm
07:42 PM 63.5°F17.5°C 53.3°F11.8°C 47% 0.2 mph NW0.3 kmh NW 0.2 mph0.3 kmh 30.22 in1023.4 mb 0.00 in0.0 mm 0.00 in0.0 mm 0.10 in2.5 mm
07:44 PM 62.9°F17.2°C 54.3°F12.4°C 49% 0.8 mph NW1.3 kmh NW 0.8 mph1.3 kmh 30.22 in1023.4 mb 0.00 in0.0 mm 0.00 in0.0 mm 0.10 in2.5 mm
07:45 PM 62.9°F17.2°C 53.8°F12.1°C 48% 0.5 mph NW0.8 kmh NW 0.5 mph0.8 kmh 30.22 in1023.4 mb 0.00 in0.0 mm 0.00 in0.0 mm 0.10 in2.5 mm
07:47 PM 62.8°F17.1°C 54.0°F12.2°C 48% Calm Calm -- 30.22 in1023.4 mb 0.00 in0.0 mm 0.00 in0.0 mm 0.10 in2.5 mm
07:48 PM 62.7°F17.1°C 54.0°F12.2°C 48% 0.5 mph NW0.8 kmh NW 0.5 mph0.8 kmh 30.22 in1023.4 mb 0.00 in0.0 mm 0.00 in0.0 mm 0.10 in2.5 mm
07:50 PM 62.3°F16.8°C 54.2°F12.3°C 49% Calm Calm -- 30.22 in1023.4 mb 0.00 in0.0 mm 0.00 in0.0 mm 0.10 in2.5 mm
07:51 PM 62.4°F16.9°C 54.2°F12.3°C 49% Calm Calm -- 30.22 in1023.4 mb 0.00 in0.0 mm 0.00 in0.0 mm 0.10 in2.5 mm
07:53 PM 61.7°F16.5°C 53.9°F12.2°C 49% 0.4 mph NW0.6 kmh NW 0.4 mph0.6 kmh 30.22 in1023.4 mb 0.00 in0.0 mm 0.00 in0.0 mm 0.10 in2.5 mm
07:54 PM 61.6°F16.4°C 54.0°F12.2°C 49% 0.2 mph NW0.3 kmh NW 0.2 mph0.3 kmh 30.22 in1023.4 mb 0.00 in0.0 mm 0.00 in0.0 mm 0.10 in2.5 mm
07:56 PM 61.3°F16.3°C 54.5°F12.5°C 50% 1.2 mph NNW1.9 kmh NNW 1.2 mph1.9 kmh 30.22 in1023.4 mb 0.00 in0.0 mm 0.00 in0.0 mm 0.10 in2.5 mm
07:57 PM 61.3°F16.3°C 54.7°F12.6°C 50% 1.2 mph NNW1.9 kmh NNW 1.3 mph2.1 kmh 30.22 in1023.4 mb 0.00 in0.0 mm 0.00 in0.0 mm 0.10 in2.5 mm
07:59 PM 60.9°F16.1°C 53.7°F12.1°C 49% 0.8 mph NNW1.3 kmh NNW 0.8 mph1.3 kmh 30.22 in1023.4 mb 0.00 in0.0 mm 0.00 in0.0 mm 0.10 in2.5 mm
08:00 PM 60.9°F16.1°C 53.3°F11.8°C 49% 0.9 mph NNW1.4 kmh NNW 1.0 mph1.6 kmh 30.22 in1023.4 mb 0.00 in0.0 mm 0.00 in0.0 mm 0.10 in2.5 mm
08:02 PM 60.4°F15.8°C 54.1°F12.3°C 50% 0.4 mph NNW0.6 kmh NNW 0.4 mph0.6 kmh 30.22 in1023.4 mb 0.00 in0.0 mm 0.00 in0.0 mm 0.10 in2.5 mm
08:03 PM 60.5°F15.8°C 54.2°F12.3°C 50% 0.7 mph NNW1.1 kmh NNW 0.7 mph1.1 kmh 30.22 in1023.4 mb 0.00 in0.0 mm 0.00 in0.0 mm 0.10 in2.5 mm
08:05 PM 60.1°F15.6°C 54.8°F12.7°C 52% 0.4 mph NNW0.6 kmh NNW 0.4 mph0.6 kmh 30.22 in1023.4 mb 0.00 in0.0 mm 0.00 in0.0 mm 0.10 in2.5 mm
08:06 PM 60.1°F15.6°C 54.3°F12.4°C 51% 0.7 mph NNW1.1 kmh NNW 0.8 mph1.3 kmh 30.22 in1023.4 mb 0.00 in0.0 mm 0.00 in0.0 mm 0.10 in2.5 mm
08:08 PM 60.0°F15.6°C 54.6°F12.6°C 52% Calm Calm -- 30.22 in1023.4 mb 0.00 in0.0 mm 0.00 in0.0 mm 0.10 in2.5 mm
08:09 PM 60.0°F15.6°C 54.3°F12.4°C 51% Calm Calm -- 30.22 in1023.4 mb 0.00 in0.0 mm 0.00 in0.0 mm 0.10 in2.5 mm
08:11 PM 59.8°F15.4°C 54.0°F12.2°C 51% Calm Calm -- 30.23 in1023.7 mb 0.00 in0.0 mm 0.00 in0.0 mm 0.10 in2.5 mm
08:12 PM 59.8°F15.4°C 54.0°F12.2°C 51% Calm Calm -- 30.22 in1023.4 mb 0.00 in0.0 mm 0.00 in0.0 mm 0.10 in2.5 mm
08:14 PM 58.6°F14.8°C 54.2°F12.3°C 52% Calm Calm -- 30.22 in1023.4 mb 0.00 in0.0 mm 0.00 in0.0 mm 0.10 in2.5 mm
08:15 PM 58.4°F14.7°C 54.0°F12.2°C 52% Calm Calm -- 30.22 in1023.4 mb 0.00 in0.0 mm 0.00 in0.0 mm 0.10 in2.5 mm
08:17 PM 57.7°F14.3°C 53.9°F12.2°C 52% Calm Calm -- 30.23 in1023.7 mb 0.00 in0.0 mm 0.00 in0.0 mm 0.10 in2.5 mm
08:18 PM 57.7°F14.3°C 54.1°F12.3°C 52% Calm Calm -- 30.23 in1023.7 mb 0.00 in0.0 mm 0.00 in0.0 mm 0.10 in2.5 mm
08:20 PM 56.5°F13.6°C 53.7°F12.1°C 52% Calm Calm -- 30.23 in1023.7 mb 0.00 in0.0 mm 0.00 in0.0 mm 0.10 in2.5 mm
08:21 PM 56.5°F13.6°C 53.5°F11.9°C 52% Calm Calm -- 30.23 in1023.7 mb 0.00 in0.0 mm 0.00 in0.0 mm 0.10 in2.5 mm
08:23 PM 56.3°F13.5°C 54.1°F12.3°C 53% Calm Calm -- 30.23 in1023.7 mb 0.00 in0.0 mm 0.00 in0.0 mm 0.10 in2.5 mm
08:24 PM 56.3°F13.5°C 54.2°F12.3°C 54% Calm Calm -- 30.23 in1023.7 mb 0.00 in0.0 mm 0.00 in0.0 mm 0.10 in2.5 mm
08:26 PM 55.2°F12.9°C 54.2°F12.3°C 55% Calm Calm -- 30.23 in1023.7 mb 0.00 in0.0 mm 0.00 in0.0 mm 0.10 in2.5 mm
08:27 PM 55.2°F12.9°C 54.3°F12.4°C 55% Calm Calm -- 30.23 in1023.7 mb 0.00 in0.0 mm 0.00 in0.0 mm 0.10 in2.5 mm
08:29 PM 54.3°F12.4°C 53.8°F12.1°C 55% Calm Calm -- 30.23 in1023.7 mb 0.00 in0.0 mm 0.00 in0.0 mm 0.10 in2.5 mm
08:30 PM 54.3°F12.4°C 54.0°F12.2°C 55% Calm Calm -- 30.23 in1023.7 mb 0.00 in0.0 mm 0.00 in0.0 mm 0.10 in2.5 mm
08:32 PM 53.8°F12.1°C 54.1°F12.3°C 57% 0.8 mph NNW1.3 kmh NNW 0.8 mph1.3 kmh 30.23 in1023.7 mb 0.00 in0.0 mm 0.00 in0.0 mm 0.10 in2.5 mm
08:33 PM 53.8°F12.1°C 53.8°F12.1°C 57% 0.2 mph NNW0.3 kmh NNW 0.3 mph0.5 kmh 30.23 in1023.7 mb 0.00 in0.0 mm 0.00 in0.0 mm 0.10 in2.5 mm
08:35 PM 54.4°F12.4°C 55.2°F12.9°C 60% 0.8 mph 1.3 kmh 0.8 mph1.3 kmh 30.23 in1023.7 mb 0.00 in0.0 mm 0.00 in0.0 mm 0.10 in2.5 mm
08:36 PM 54.4°F12.4°C 55.0°F12.8°C 60% 1.0 mph 1.6 kmh 1.0 mph1.6 kmh 30.23 in1023.7 mb 0.00 in0.0 mm 0.00 in0.0 mm 0.10 in2.5 mm
08:38 PM 53.6°F12.0°C 54.7°F12.6°C 59% Calm Calm -- 30.23 in1023.7 mb 0.00 in0.0 mm 0.00 in0.0 mm 0.10 in2.5 mm
08:39 PM 53.6°F12.0°C 54.6°F12.6°C 59% Calm Calm -- 30.23 in1023.7 mb 0.00 in0.0 mm 0.00 in0.0 mm 0.10 in2.5 mm
08:41 PM 53.6°F12.0°C 54.4°F12.4°C 59% 0.8 mph NNE1.3 kmh NNE 0.8 mph1.3 kmh 30.23 in1023.7 mb 0.00 in0.0 mm 0.00 in0.0 mm 0.10 in2.5 mm
08:42 PM 53.5°F11.9°C 54.0°F12.2°C 59% 0.3 mph NNE0.5 kmh NNE 0.3 mph0.5 kmh 30.23 in1023.7 mb 0.00 in0.0 mm 0.00 in0.0 mm 0.10 in2.5 mm
08:44 PM 53.2°F11.8°C 53.9°F12.2°C 58% Calm Calm -- 30.23 in1023.7 mb 0.00 in0.0 mm 0.00 in0.0 mm 0.10 in2.5 mm
08:45 PM 53.2°F11.8°C 53.8°F12.1°C 59% Calm Calm -- 30.23 in1023.7 mb 0.00 in0.0 mm 0.00 in0.0 mm 0.10 in2.5 mm
08:47 PM 52.7°F11.5°C 53.5°F11.9°C 58% 0.4 mph NNE0.6 kmh NNE 0.4 mph0.6 kmh 30.23 in1023.7 mb 0.00 in0.0 mm 0.00 in0.0 mm 0.10 in2.5 mm
08:48 PM 52.8°F11.6°C 53.6°F12.0°C 58% 0.9 mph NNE1.4 kmh NNE 1.1 mph1.8 kmh 30.23 in1023.7 mb 0.00 in0.0 mm 0.00 in0.0 mm 0.10 in2.5 mm
08:50 PM 52.5°F11.4°C 53.2°F11.8°C 58% 1.2 mph 1.9 kmh 1.2 mph1.9 kmh 30.23 in1023.7 mb 0.00 in0.0 mm 0.00 in0.0 mm 0.10 in2.5 mm
08:51 PM 52.6°F11.4°C 53.3°F11.8°C 58% 1.4 mph 2.3 kmh 1.4 mph2.3 kmh 30.23 in1023.7 mb 0.00 in0.0 mm 0.00 in0.0 mm 0.10 in2.5 mm
08:53 PM 52.6°F11.4°C 52.8°F11.6°C 58% 2.4 mph 3.9 kmh 2.4 mph3.9 kmh 30.23 in1023.7 mb 0.00 in0.0 mm 0.00 in0.0 mm 0.10 in2.5 mm
08:54 PM 52.7°F11.5°C 52.7°F11.5°C 58% 2.1 mph 3.4 kmh 2.1 mph3.4 kmh 30.23 in1023.7 mb 0.00 in0.0 mm 0.00 in0.0 mm 0.10 in2.5 mm
08:56 PM 52.4°F11.3°C 52.4°F11.3°C 57% 2.3 mph 3.7 kmh 2.5 mph4.0 kmh 30.24 in1024.0 mb 0.00 in0.0 mm 0.00 in0.0 mm 0.10 in2.5 mm
08:59 PM 52.4°F11.3°C 52.4°F11.3°C 57% 0.8 mph 1.3 kmh 0.8 mph1.3 kmh 30.24 in1024.0 mb 0.00 in0.0 mm 0.00 in0.0 mm 0.10 in2.5 mm
09:00 PM 52.6°F11.4°C 52.3°F11.3°C 57% 1.4 mph 2.3 kmh 1.4 mph2.3 kmh 30.24 in1024.0 mb 0.00 in0.0 mm 0.00 in0.0 mm 0.10 in2.5 mm
09:02 PM 52.7°F11.5°C 52.1°F11.2°C 58% Calm Calm -- 30.24 in1024.0 mb 0.00 in0.0 mm 0.00 in0.0 mm 0.10 in2.5 mm
09:03 PM 52.9°F11.6°C 52.4°F11.3°C 58% Calm Calm -- 30.24 in1024.0 mb 0.00 in0.0 mm 0.00 in0.0 mm 0.10 in2.5 mm
09:05 PM 51.7°F10.9°C 52.5°F11.4°C 59% 0.4 mph NNW0.6 kmh NNW 0.4 mph0.6 kmh 30.24 in1024.0 mb 0.00 in0.0 mm 0.00 in0.0 mm 0.10 in2.5 mm
09:06 PM 51.6°F10.9°C 52.8°F11.6°C 59% 0.2 mph NNE0.3 kmh NNE 0.2 mph0.3 kmh 30.24 in1024.0 mb 0.00 in0.0 mm 0.00 in0.0 mm 0.10 in2.5 mm
09:08 PM 51.6°F10.9°C 53.1°F11.7°C 61% 0.4 mph NNE0.6 kmh NNE 0.4 mph0.6 kmh 30.24 in1024.0 mb 0.00 in0.0 mm 0.00 in0.0 mm 0.10 in2.5 mm
09:09 PM 51.9°F11.1°C 52.9°F11.6°C 61% 0.3 mph NNE0.5 kmh NNE 0.3 mph0.5 kmh 30.24 in1024.0 mb 0.00 in0.0 mm 0.00 in0.0 mm 0.10 in2.5 mm
09:11 PM 52.3°F11.3°C 53.3°F11.8°C 62% 0.4 mph NNW0.6 kmh NNW 0.4 mph0.6 kmh 30.24 in1024.0 mb 0.00 in0.0 mm 0.00 in0.0 mm 0.10 in2.5 mm
09:12 PM 52.3°F11.3°C 53.2°F11.8°C 62% Calm Calm -- 30.24 in1024.0 mb 0.00 in0.0 mm 0.00 in0.0 mm 0.10 in2.5 mm
09:14 PM 51.8°F11.0°C 53.3°F11.8°C 62% Calm Calm -- 30.24 in1024.0 mb 0.00 in0.0 mm 0.00 in0.0 mm 0.10 in2.5 mm
09:15 PM 51.7°F10.9°C 53.5°F11.9°C 63% Calm Calm -- 30.25 in1024.4 mb 0.00 in0.0 mm 0.00 in0.0 mm 0.10 in2.5 mm
09:17 PM 51.5°F10.8°C 53.6°F12.0°C 63% Calm Calm -- 30.25 in1024.4 mb 0.00 in0.0 mm 0.00 in0.0 mm 0.10 in2.5 mm
09:18 PM 51.6°F10.9°C 53.3°F11.8°C 62% Calm Calm -- 30.25 in1024.4 mb 0.00 in0.0 mm 0.00 in0.0 mm 0.10 in2.5 mm
09:20 PM 51.7°F10.9°C 53.1°F11.7°C 62% Calm Calm -- 30.25 in1024.4 mb 0.00 in0.0 mm 0.00 in0.0 mm 0.10 in2.5 mm
09:21 PM 51.8°F11.0°C 53.4°F11.9°C 63% Calm Calm -- 30.25 in1024.4 mb 0.00 in0.0 mm 0.00 in0.0 mm 0.10 in2.5 mm
09:23 PM 51.0°F10.6°C 53.4°F11.9°C 63% Calm Calm -- 30.25 in1024.4 mb 0.00 in0.0 mm 0.00 in0.0 mm 0.10 in2.5 mm
09:24 PM 50.7°F10.4°C 53.2°F11.8°C 63% Calm Calm -- 30.25 in1024.4 mb 0.00 in0.0 mm 0.00 in0.0 mm 0.10 in2.5 mm
09:26 PM 51.5°F10.8°C 53.4°F11.9°C 63% Calm Calm -- 30.25 in1024.4 mb 0.00 in0.0 mm 0.00 in0.0 mm 0.10 in2.5 mm
09:27 PM 51.5°F10.8°C 53.3°F11.8°C 63% Calm Calm -- 30.25 in1024.4 mb 0.00 in0.0 mm 0.00 in0.0 mm 0.10 in2.5 mm
09:29 PM 50.6°F10.3°C 52.9°F11.6°C 63% Calm Calm -- 30.25 in1024.4 mb 0.00 in0.0 mm 0.00 in0.0 mm 0.10 in2.5 mm
09:30 PM 50.6°F10.3°C 52.9°F11.6°C 63% Calm Calm -- 30.25 in1024.4 mb 0.00 in0.0 mm 0.00 in0.0 mm 0.10 in2.5 mm
09:32 PM 49.9°F9.9°C 52.3°F11.3°C 62% Calm Calm -- 30.25 in1024.4 mb 0.00 in0.0 mm 0.00 in0.0 mm 0.10 in2.5 mm
09:33 PM 49.3°F9.6°C 52.5°F11.4°C 63% Calm Calm -- 30.25 in1024.4 mb 0.00 in0.0 mm 0.00 in0.0 mm 0.10 in2.5 mm
09:35 PM 49.6°F9.8°C 52.3°F11.3°C 63% Calm Calm -- 30.25 in1024.4 mb 0.00 in0.0 mm 0.00 in0.0 mm 0.10 in2.5 mm
09:36 PM 49.7°F9.8°C 52.2°F11.2°C 62% Calm Calm -- 30.25 in1024.4 mb 0.00 in0.0 mm 0.00 in0.0 mm 0.10 in2.5 mm
09:38 PM 49.7°F9.8°C 52.2°F11.2°C 63% Calm Calm -- 30.25 in1024.4 mb 0.00 in0.0 mm 0.00 in0.0 mm 0.10 in2.5 mm
09:39 PM 49.6°F9.8°C 52.4°F11.3°C 63% Calm Calm -- 30.25 in1024.4 mb 0.00 in0.0 mm 0.00 in0.0 mm 0.10 in2.5 mm
09:41 PM 49.8°F9.9°C 52.1°F11.2°C 63% Calm Calm -- 30.25 in1024.4 mb 0.00 in0.0 mm 0.00 in0.0 mm 0.10 in2.5 mm
09:42 PM 49.6°F9.8°C 52.2°F11.2°C 64% Calm Calm -- 30.25 in1024.4 mb 0.00 in0.0 mm 0.00 in0.0 mm 0.10 in2.5 mm
09:47 PM 49.1°F9.5°C 52.0°F11.1°C 64% Calm Calm -- 30.25 in1024.4 mb 0.00 in0.0 mm 0.00 in0.0 mm 0.10 in2.5 mm
09:48 PM 49.0°F9.4°C 52.1°F11.2°C 64% Calm Calm -- 30.25 in1024.4 mb 0.00 in0.0 mm 0.00 in0.0 mm 0.10 in2.5 mm
09:50 PM 49.0°F9.4°C 52.0°F11.1°C 65% Calm Calm -- 30.25 in1024.4 mb 0.00 in0.0 mm 0.00 in0.0 mm 0.10 in2.5 mm
09:51 PM 49.0°F9.4°C 52.1°F11.2°C 65% Calm Calm -- 30.25 in1024.4 mb 0.00 in0.0 mm 0.00 in0.0 mm 0.10 in2.5 mm
09:53 PM 49.0°F9.4°C 51.8°F11.0°C 65% Calm Calm -- 30.25 in1024.4 mb 0.00 in0.0 mm 0.00 in0.0 mm 0.10 in2.5 mm
09:54 PM 49.0°F9.4°C 51.8°F11.0°C 65% Calm Calm -- 30.25 in1024.4 mb 0.00 in0.0 mm 0.00 in0.0 mm 0.10 in2.5 mm
09:56 PM 48.9°F9.4°C 51.9°F11.1°C 65% Calm Calm -- 30.25 in1024.4 mb 0.00 in0.0 mm 0.00 in0.0 mm 0.10 in2.5 mm
09:57 PM 48.9°F9.4°C 51.6°F10.9°C 65% Calm Calm -- 30.25 in1024.4 mb 0.00 in0.0 mm 0.00 in0.0 mm 0.10 in2.5 mm
09:59 PM 48.9°F9.4°C 51.6°F10.9°C 66% Calm Calm -- 30.25 in1024.4 mb 0.00 in0.0 mm 0.00 in0.0 mm 0.10 in2.5 mm
10:00 PM 48.9°F9.4°C 52.1°F11.2°C 66% Calm Calm -- 30.25 in1024.4 mb 0.00 in0.0 mm 0.00 in0.0 mm 0.10 in2.5 mm
10:02 PM 48.5°F9.2°C 51.9°F11.1°C 66% Calm Calm -- 30.25 in1024.4 mb 0.00 in0.0 mm 0.00 in0.0 mm 0.10 in2.5 mm
10:03 PM 48.7°F9.3°C 51.9°F11.1°C 66% Calm Calm -- 30.25 in1024.4 mb 0.00 in0.0 mm 0.00 in0.0 mm 0.10 in2.5 mm
10:05 PM 47.8°F8.8°C 51.5°F10.8°C 65% Calm Calm -- 30.25 in1024.4 mb 0.00 in0.0 mm 0.00 in0.0 mm 0.10 in2.5 mm
10:06 PM 47.8°F8.8°C 51.1°F10.6°C 65% Calm Calm -- 30.25 in1024.4 mb 0.00 in0.0 mm 0.00 in0.0 mm 0.10 in2.5 mm
10:08 PM 48.2°F9.0°C 51.7°F10.9°C 66% Calm Calm -- 30.25 in1024.4 mb 0.00 in0.0 mm 0.00 in0.0 mm 0.10 in2.5 mm
10:09 PM 48.2°F9.0°C 51.1°F10.6°C 65% Calm Calm -- 30.25 in1024.4 mb 0.00 in0.0 mm 0.00 in0.0 mm 0.10 in2.5 mm
10:11 PM 47.4°F8.6°C 51.1°F10.6°C 66% Calm Calm -- 30.25 in1024.4 mb 0.00 in0.0 mm 0.00 in0.0 mm 0.10 in2.5 mm
10:12 PM 47.4°F8.6°C 51.1°F10.6°C 66% Calm Calm -- 30.25 in1024.4 mb 0.00 in0.0 mm 0.00 in0.0 mm 0.10 in2.5 mm
10:14 PM 47.6°F8.7°C 51.3°F10.7°C 67% Calm Calm -- 30.25 in1024.4 mb 0.00 in0.0 mm 0.00 in0.0 mm 0.10 in2.5 mm
10:15 PM 47.6°F8.7°C 51.4°F10.8°C 67% Calm Calm -- 30.25 in1024.4 mb 0.00 in0.0 mm 0.00 in0.0 mm 0.10 in2.5 mm
10:17 PM 48.1°F8.9°C 51.1°F10.6°C 67% Calm Calm -- 30.25 in1024.4 mb 0.00 in0.0 mm 0.00 in0.0 mm 0.10 in2.5 mm
10:18 PM 48.1°F8.9°C 51.2°F10.7°C 67% Calm Calm -- 30.25 in1024.4 mb 0.00 in0.0 mm 0.00 in0.0 mm 0.10 in2.5 mm
10:20 PM 48.0°F8.9°C 51.6°F10.9°C 68% Calm Calm -- 30.25 in1024.4 mb 0.00 in0.0 mm 0.00 in0.0 mm 0.10 in2.5 mm
10:21 PM 48.1°F8.9°C 51.3°F10.7°C 68% Calm Calm -- 30.25 in1024.4 mb 0.00 in0.0 mm 0.00 in0.0 mm 0.10 in2.5 mm
10:23 PM 47.8°F8.8°C 51.1°F10.6°C 68% Calm Calm -- 30.25 in1024.4 mb 0.00 in0.0 mm 0.00 in0.0 mm 0.10 in2.5 mm
10:24 PM 47.8°F8.8°C 50.9°F10.5°C 67% Calm Calm -- 30.25 in1024.4 mb 0.00 in0.0 mm 0.00 in0.0 mm 0.10 in2.5 mm
10:26 PM 47.8°F8.8°C 50.8°F10.4°C 67% Calm Calm -- 30.25 in1024.4 mb 0.00 in0.0 mm 0.00 in0.0 mm 0.10 in2.5 mm
10:27 PM 47.6°F8.7°C 50.8°F10.4°C 67% Calm Calm -- 30.25 in1024.4 mb 0.00 in0.0 mm 0.00 in0.0 mm 0.10 in2.5 mm
10:29 PM 46.6°F8.1°C 50.4°F10.2°C 67% Calm Calm -- 30.25 in1024.4 mb 0.00 in0.0 mm 0.00 in0.0 mm 0.10 in2.5 mm
10:32 PM 46.9°F8.3°C 50.6°F10.3°C 68% Calm Calm -- 30.25 in1024.4 mb 0.00 in0.0 mm 0.00 in0.0 mm 0.10 in2.5 mm
10:33 PM 46.9°F8.3°C 50.7°F10.4°C 67% Calm Calm -- 30.25 in1024.4 mb 0.00 in0.0 mm 0.00 in0.0 mm 0.10 in2.5 mm
10:38 PM 47.0°F8.3°C 50.6°F10.3°C 68% Calm Calm -- 30.25 in1024.4 mb 0.00 in0.0 mm 0.00 in0.0 mm 0.10 in2.5 mm
10:39 PM 47.1°F8.4°C 50.7°F10.4°C 68% Calm Calm -- 30.25 in1024.4 mb 0.00 in0.0 mm 0.00 in0.0 mm 0.10 in2.5 mm
10:41 PM 46.6°F8.1°C 50.4°F10.2°C 68% Calm Calm -- 30.25 in1024.4 mb 0.00 in0.0 mm 0.00 in0.0 mm 0.10 in2.5 mm
10:42 PM 46.5°F8.1°C 50.5°F10.3°C 68% Calm Calm -- 30.25 in1024.4 mb 0.00 in0.0 mm 0.00 in0.0 mm 0.10 in2.5 mm
10:44 PM 46.4°F8.0°C 50.2°F10.1°C 68% Calm Calm -- 30.25 in1024.4 mb 0.00 in0.0 mm 0.00 in0.0 mm 0.10 in2.5 mm
10:45 PM 46.4°F8.0°C 50.5°F10.3°C 68% Calm Calm -- 30.25 in1024.4 mb 0.00 in0.0 mm 0.00 in0.0 mm 0.10 in2.5 mm
10:47 PM 46.3°F7.9°C 50.2°F10.1°C 68% Calm Calm -- 30.25 in1024.4 mb 0.00 in0.0 mm 0.00 in0.0 mm 0.10 in2.5 mm
10:48 PM 46.3°F7.9°C 50.2°F10.1°C 68% Calm Calm -- 30.25 in1024.4 mb 0.00 in0.0 mm 0.00 in0.0 mm 0.10 in2.5 mm
10:50 PM 46.3°F7.9°C 50.0°F10.0°C 68% Calm Calm -- 30.25 in1024.4 mb 0.00 in0.0 mm 0.00 in0.0 mm 0.10 in2.5 mm
10:51 PM 46.3°F7.9°C 50.0°F10.0°C 68% Calm Calm -- 30.25 in1024.4 mb 0.00 in0.0 mm 0.00 in0.0 mm 0.10 in2.5 mm
10:53 PM 46.4°F8.0°C 50.1°F10.1°C 69% Calm Calm -- 30.25 in1024.4 mb 0.00 in0.0 mm 0.00 in0.0 mm 0.10 in2.5 mm
10:54 PM 46.4°F8.0°C 49.8°F9.9°C 68% Calm Calm -- 30.25 in1024.4 mb 0.00 in0.0 mm 0.00 in0.0 mm 0.10 in2.5 mm
10:56 PM 45.8°F7.7°C 50.0°F10.0°C 69% Calm Calm -- 30.25 in1024.4 mb 0.00 in0.0 mm 0.00 in0.0 mm 0.10 in2.5 mm
10:57 PM 45.8°F7.7°C 49.9°F9.9°C 69% Calm Calm -- 30.25 in1024.4 mb 0.00 in0.0 mm 0.00 in0.0 mm 0.10 in2.5 mm
10:59 PM 45.8°F7.7°C 50.0°F10.0°C 69% Calm Calm -- 30.25 in1024.4 mb 0.00 in0.0 mm 0.00 in0.0 mm 0.10 in2.5 mm
11:02 PM 45.8°F7.7°C 49.8°F9.9°C 70% Calm Calm -- 30.25 in1024.4 mb 0.00 in0.0 mm 0.00 in0.0 mm 0.00 in0.0 mm
11:03 PM 45.8°F7.7°C 49.8°F9.9°C 69% Calm Calm -- 30.25 in1024.4 mb 0.00 in0.0 mm 0.00 in0.0 mm 0.00 in0.0 mm
11:05 PM 46.2°F7.9°C 49.9°F9.9°C 70% Calm Calm -- 30.25 in1024.4 mb 0.00 in0.0 mm 0.00 in0.0 mm 0.00 in0.0 mm
11:06 PM 46.2°F7.9°C 50.0°F10.0°C 70% Calm Calm -- 30.25 in1024.4 mb 0.00 in0.0 mm 0.00 in0.0 mm 0.00 in0.0 mm
11:08 PM 46.6°F8.1°C 50.1°F10.1°C 71% Calm Calm -- 30.25 in1024.4 mb 0.00 in0.0 mm 0.00 in0.0 mm 0.00 in0.0 mm
11:09 PM 46.6°F8.1°C 50.1°F10.1°C 71% Calm Calm -- 30.25 in1024.4 mb 0.00 in0.0 mm 0.00 in0.0 mm 0.00 in0.0 mm
11:11 PM 46.2°F7.9°C 50.2°F10.1°C 71% Calm Calm -- 30.25 in1024.4 mb 0.00 in0.0 mm 0.00 in0.0 mm 0.00 in0.0 mm
11:12 PM 46.2°F7.9°C 50.4°F10.2°C 71% Calm Calm -- 30.25 in1024.4 mb 0.00 in0.0 mm 0.00 in0.0 mm 0.00 in0.0 mm
11:14 PM 45.3°F7.4°C 49.7°F9.8°C 70% Calm Calm -- 30.25 in1024.4 mb 0.00 in0.0 mm 0.00 in0.0 mm 0.00 in0.0 mm
11:15 PM 45.3°F7.4°C 49.7°F9.8°C 70% Calm Calm -- 30.25 in1024.4 mb 0.00 in0.0 mm 0.00 in0.0 mm 0.00 in0.0 mm
11:17 PM 45.1°F7.3°C 49.3°F9.6°C 69% Calm Calm -- 30.25 in1024.4 mb 0.00 in0.0 mm 0.00 in0.0 mm 0.00 in0.0 mm
11:18 PM 45.1°F7.3°C 49.3°F9.6°C 70% Calm Calm -- 30.25 in1024.4 mb 0.00 in0.0 mm 0.00 in0.0 mm 0.00 in0.0 mm
11:20 PM 45.7°F7.6°C 49.4°F9.7°C 70% Calm Calm -- 30.25 in1024.4 mb 0.00 in0.0 mm 0.00 in0.0 mm 0.00 in0.0 mm
11:21 PM 45.8°F7.7°C 49.3°F9.6°C 70% Calm Calm -- 30.25 in1024.4 mb 0.00 in0.0 mm 0.00 in0.0 mm 0.00 in0.0 mm
11:23 PM 45.5°F7.5°C 49.5°F9.7°C 70% Calm Calm -- 30.25 in1024.4 mb 0.00 in0.0 mm 0.00 in0.0 mm 0.00 in0.0 mm
11:24 PM 45.6°F7.6°C 49.6°F9.8°C 71% Calm Calm -- 30.25 in1024.4 mb 0.00 in0.0 mm 0.00 in0.0 mm 0.00 in0.0 mm
11:26 PM 45.4°F7.4°C 49.6°F9.8°C 70% Calm Calm -- 30.26 in1024.7 mb 0.00 in0.0 mm 0.00 in0.0 mm 0.00 in0.0 mm
11:27 PM 45.4°F7.4°C 49.3°F9.6°C 70% Calm Calm -- 30.25 in1024.4 mb 0.00 in0.0 mm 0.00 in0.0 mm 0.00 in0.0 mm
11:29 PM 45.4°F7.4°C 49.6°F9.8°C 71% Calm Calm -- 30.25 in1024.4 mb 0.00 in0.0 mm 0.00 in0.0 mm 0.00 in0.0 mm
11:30 PM 45.5°F7.5°C 49.2°F9.6°C 71% Calm Calm -- 30.25 in1024.4 mb 0.00 in0.0 mm 0.00 in0.0 mm 0.00 in0.0 mm
11:32 PM 44.6°F7.0°C 49.1°F9.5°C 71% Calm Calm -- 30.25 in1024.4 mb 0.00 in0.0 mm 0.00 in0.0 mm 0.00 in0.0 mm
11:33 PM 44.6°F7.0°C 49.1°F9.5°C 70% Calm Calm -- 30.26 in1024.7 mb 0.00 in0.0 mm 0.00 in0.0 mm 0.00 in0.0 mm
11:35 PM 44.6°F7.0°C 48.7°F9.3°C 70% Calm Calm -- 30.25 in1024.4 mb 0.00 in0.0 mm 0.00 in0.0 mm 0.00 in0.0 mm
11:36 PM 44.7°F7.1°C 48.9°F9.4°C 70% Calm Calm -- 30.26 in1024.7 mb 0.00 in0.0 mm 0.00 in0.0 mm 0.00 in0.0 mm
11:38 PM 44.4°F6.9°C 48.6°F9.2°C 70% Calm Calm -- 30.26 in1024.7 mb 0.00 in0.0 mm 0.00 in0.0 mm 0.00 in0.0 mm
11:39 PM 44.3°F6.8°C 48.7°F9.3°C 70% Calm Calm -- 30.26 in1024.7 mb 0.00 in0.0 mm 0.00 in0.0 mm 0.00 in0.0 mm
11:41 PM 44.2°F6.8°C 48.5°F9.2°C 70% Calm Calm -- 30.26 in1024.7 mb 0.00 in0.0 mm 0.00 in0.0 mm 0.00 in0.0 mm
11:42 PM 44.3°F6.8°C 48.5°F9.2°C 70% Calm Calm -- 30.26 in1024.7 mb 0.00 in0.0 mm 0.00 in0.0 mm 0.00 in0.0 mm
11:44 PM 44.2°F6.8°C 48.3°F9.1°C 71% Calm Calm -- 30.25 in1024.4 mb 0.00 in0.0 mm 0.00 in0.0 mm 0.00 in0.0 mm
11:45 PM 44.2°F6.8°C 48.2°F9.0°C 70% Calm Calm -- 30.26 in1024.7 mb 0.00 in0.0 mm 0.00 in0.0 mm 0.00 in0.0 mm
11:47 PM 44.2°F6.8°C 48.7°F9.3°C 71% Calm Calm -- 30.26 in1024.7 mb 0.00 in0.0 mm 0.00 in0.0 mm 0.00 in0.0 mm
11:48 PM 44.2°F6.8°C 48.6°F9.2°C 71% Calm Calm -- 30.25 in1024.4 mb 0.00 in0.0 mm 0.00 in0.0 mm 0.00 in0.0 mm
11:50 PM 44.2°F6.8°C 48.6°F9.2°C 72% Calm Calm -- 30.26 in1024.7 mb 0.00 in0.0 mm 0.00 in0.0 mm 0.00 in0.0 mm
11:51 PM 44.2°F6.8°C 48.3°F9.1°C 71% Calm Calm -- 30.26 in1024.7 mb 0.00 in0.0 mm 0.00 in0.0 mm 0.00 in0.0 mm
11:53 PM 44.2°F6.8°C 48.3°F9.1°C 72% Calm Calm -- 30.26 in1024.7 mb 0.00 in0.0 mm 0.00 in0.0 mm 0.00 in0.0 mm
11:54 PM 44.2°F6.8°C 48.1°F8.9°C 72% Calm Calm -- 30.26 in1024.7 mb 0.00 in0.0 mm 0.00 in0.0 mm 0.00 in0.0 mm
11:56 PM 44.3°F6.8°C 48.4°F9.1°C 72% Calm Calm -- 30.26 in1024.7 mb 0.00 in0.0 mm 0.00 in0.0 mm 0.00 in0.0 mm
11:57 PM 44.3°F6.8°C 48.4°F9.1°C 73% Calm Calm -- 30.26 in1024.7 mb 0.00 in0.0 mm 0.00 in0.0 mm 0.00 in0.0 mm
11:59 PM 44.4°F6.9°C 48.3°F9.1°C 72% Calm Calm -- 30.26 in1024.7 mb 0.00 in0.0 mm 0.00 in0.0 mm 0.00 in0.0 mm